Фактическая погода NOWCAST (расчётный прогноз на ближайшие 2 часа) AUTOTAF (расчётный прогноз на 9 часов) TAF (официальный синоптический прогноз)
Алматы
METAR UAAA 260530Z 07002MPS 340V130 9999 NSC 27/02 Q1015 NOSIG


NOWCAST.SU UAAA 260600Z VRB02MPS 9999 SKC 27/05 Q1016 NOSIG
RMK TURB: MOD FL40/FL50
AUTOTAF.ME UAAA 260400Z 2605/2614 VRB02MPS CAVOK TX29/2607Z TN22/2614Z
BECMG 2610/2611 04004MPS
BECMG 2613/2614 VRB02MPS
TAF UAAA 252300Z 2600/2624 05003MPS 9999 FEW050 SCT100 TX31/2609Z TN14/2601Z
TEMPO 2600/2606 36003G08MPS
TEMPO 2606/2613 10003G08MPS
BECMG 2613/2614 16003MPS FEW050CB SCT100
TEMPO 2613/2624 21003G08MPS
2022/09/25 00:21=
Балхаш
METAR UAAH 260530Z 23004MPS 190V250 CAVOK 25/02 Q1012 NOSIG RMK QFE722/0962


NOWCAST.SU UAAH 260600Z 21007MPS 9999 BKN290 25/03 Q1013 NOSIG
RMK TURB: MOD SFC/FL110
AUTOTAF.ME UAAH 260400Z 2605/2614 22004MPS CAVOK TX26/2607Z TN23/2605Z
BECMG 2610/2611 30010MPS
TAF UAAH 260200Z 2603/2612 14004MPS CAVOK
TEMPO 2606/2612 24005G10MPS 9999 SCT040=
Алматы (Боралдай)
 


NOWCAST.SU UAAR 260600Z VRB02MPS 9999 SKC 28/05 Q1016 NOSIG
RMK TURB: MOD FL40/FL50
AUTOTAF.ME UAAR 260400Z 2605/2614 VRB02MPS CAVOK TX30/2608Z TN22/2614Z
BECMG 2610/2611 04004MPS
BECMG 2613/2614 VRB02MPS
 
Талды-Корган
METAR UAAT 260530Z 24004MPS 200V270 9999 NSC 30/04 Q1014 NOSIG RMK QFE709/0945


NOWCAST.SU UAAT 260600Z 27007MPS 9999 SKC 29/03 Q1016 NOSIG
RMK TURB: MOD FL30/FL40 MOD SFC/FL110
AUTOTAF.ME UAAT 260400Z 2605/2614 26005MPS CAVOK TX30/2607Z TN22/2614Z
BECMG 2613/2614 VRB02MPS
TAF AMD UAAT 260219Z 2603/2612 24003G10MPS 9999 SCT100
TEMPO 2606/2612 27004G13MPS=
Аягуз
 


NOWCAST.SU UAAY 260600Z 23008G13MPS 9999 OVC225 25/01 Q1014 NOSIG
RMK ICE: FBL FL250/FL260 TURB: MOD SFC/FL70
AUTOTAF.ME UAAY 260400Z 2605/2614 22007MPS CAVOK TX26/2607Z TN20/2614Z  
Нур-Султан
METAR UACC 260530Z VRB01MPS 9999 SCT046CB 18/05 Q1007 NOSIG RMK QFE724/0966


NOWCAST.SU UACC 260600Z VRB02MPS 9999 VCSH BKN053CB 22/06 Q1007 TEMPO FM0700 VRB11G16MPS VCSH
RMK ICE: SEV FL120/FL130 MOD FL110/FL170 TURB: SEV FL80/FL90MOD FL70/FL100 MOD SFC/FL90
AUTOTAF.ME UACC 260400Z 2605/2614 VRB02MPS CAVOK TX22/2606Z TN16/2614Z
FM260600 VRB02MPS 9999 VCSH BKN053CB
FM260700 26004MPS 9999 BKN036CB
TEMPO 2607/2608 VRB11G16MPS VCTS
FM260800 26009G14MPS 9999 -RA BKN036
FM261100 28012G17MPS CAVOK
TAF UACC 252310Z 2600/2624 22007MPS 9999 SCT040CB BKN100 TX22/2612Z TN10/2623Z
TEMPO 2600/2602 18005MPS -SHRA BKN030CB
BECMG 2602/2604 24007MPS
TEMPO 2602/2606 27009G14MPS 3100 -SHRA BKN030CB
TEMPO 2606/2612 VRB17MPS 3100 -TSRA SQ BKN030CB
BECMG 2612/2614 27007MPS
2022/09/25 00:21=
Кокшетау
METAR UACK 260530Z 12007MPS CAVOK 09/08 Q1005 NOSIG RMK QFE730/0973


NOWCAST.SU UACK 260600Z 11005MPS 9999 -RA OVC013 10/09 Q1004 NOSIG
RMK ICE: MOD FL110/FL120 TURB: MOD SFC/FL30
AUTOTAF.ME UACK 260400Z 2605/2614 11006MPS 9999 -RA OVC013 TX15/2610Z TN10/2605Z
BECMG 2606/2607 BKN018
FM260800 27004MPS 9999 -RA BKN027
BECMG 2608/2609 28010G16MPS
FM261200 27009G14MPS 9999 VCSH BKN012CB
FM261300 28006MPS 9999 BKN024
BECMG 2613/2614 30005MPS
TAF UACK 260204Z 2603/2612 12007MPS 9999 -RA BKN011
TEMPO 2603/2612 16008G13MPS BKN007=
Петропавловск
METAR UACP 260530Z 09010MPS 6000 -RA BKN008 OVC026 04/04 Q1007 NOSIG RMK QFE744/0992


NOWCAST.SU UACP 260600Z 08007G13MPS 5000 -RA BR OVC016 04/03 Q1007 NOSIG
RMK ICE: SEV FL110/FL190
AUTOTAF.ME UACP 260400Z 2605/2614 08007G13MPS 8000 -RA OVC016 TX04/2605Z TN03/2609Z
FM260600 08007G13MPS 5000 -RA BR OVC016
FM260700 08007G13MPS 3500 -RA OVC017
BECMG 2607/2608 5000
FM260900 08006G12MPS 0200 +RASN OVC016
BECMG 2609/2610 +SN
FM261100 09006G11MPS 0500 +RASN OVC015
FM261200 09005G10MPS 1000 RASN OVC015
FM261300 09005G10MPS 9999 -RA OVC013
TAF UACP 260202Z 2603/2612 08010MPS 3100 -RA BKN007 OVC020
TEMPO 2603/2612 10013G18MPS 2000 RA BKN004 OVC010=
Тараз (Аулие-Ата)
METAR UADD 260530Z 23005MPS 200V270 9999 NSC 29/M01 Q1016 NOSIG RMK QFE705/0940


NOWCAST.SU UADD 260600Z 27005MPS 9999 SKC 30/M01 Q1016 NOSIG
RMK TURB: MOD FL40/FL90
AUTOTAF.ME UADD 260400Z 2605/2614 25004MPS CAVOK TX32/2608Z TN23/2614Z
BECMG 2607/2608 27009G14MPS
BECMG 2613/2614 29003MPS
TAF UADD 260200Z 2603/2612 18003G08MPS 9999 NSC=
 


NOSIG
 
Чимкент
METAR UAII 260530Z 21007MPS CAVOK 32/M02 Q1016 NOSIG RMK QFE726/0968


NOWCAST.SU UAII 260600Z 26005MPS 9999 SKC 31/M01 Q1016 NOSIG
RMK TURB: MOD SFC/FL70
AUTOTAF.ME UAII 260400Z 2605/2614 25004MPS CAVOK TX33/2608Z TN24/2614Z
BECMG 2610/2611 27009G14MPS
TAF UAII 252300Z 2600/2624 19003G08MPS 6000 NSC TX32/2610Z TN18/2601Z
TEMPO 2600/2603 14006MPS 3100 FU
BECMG 2603/2605 23005G10MPS SCT050CB
TEMPO 2605/2617 28009G15MPS 3500 -TSRA BLDU BKN033CB
TEMPO 2617/2624 13003G08MPS 3100 -TSRA BLDU BKN033CB
2022/09/25 00:21=
Туркестан
METAR UAIT 260530Z 14003MPS CAVOK 25/01 Q1015 NOSIG RMK QFE736/0982


NOWCAST.SU UAIT 260600Z 18003MPS 9999 BKN136 26/00 Q1016 NOSIG
RMK TURB: MOD SFC/FL40
AUTOTAF.ME UAIT 260400Z 2605/2614 16003MPS CAVOK TX29/2608Z TN21/2614Z
BECMG 2607/2608 25003MPS
FM261100 30006MPS 9999 VCSH BKN135CB
BECMG 2612/2613 31006MPS
FM261400 32004MPS CAVOK
TAF UAIT 260201Z 2603/2612 12004G09MPS 9999 SCT040
TEMPO 2603/2606 18006G11MPS
BECMG 2606/2607 23006G11MPS
TEMPO 2607/2612 29008G13MPS 3100 -TSRA BLDU BKN030CB=
Жезказган
METAR UAKD 260530Z 31007MPS CAVOK 19/08 Q1012 NOSIG RMK QFE726/0968


NOWCAST.SU UAKD 260600Z 31010G15MPS 9999 FEW240 19/05 Q1014 NOSIG
RMK TURB: MOD SFC/FL40
AUTOTAF.ME UAKD 260400Z 2605/2614 31010G15MPS CAVOK TX21/2609Z TN17/2614Z TAF UAKD 260202Z 2603/2612 32009MPS 9999 BKN030 OVC100
TEMPO 2603/2609 33013G18MPS -SHRA SCT030CB
TEMPO 2609/2612 32013G18MPS=
Караганда (Сары-Арка)
METAR UAKK 260530Z 25006MPS 9999 -SHRA BKN043CB 22/02 Q1010 NOSIG RMK QFE711/0948


NOWCAST.SU UAKK 260600Z 26009G14MPS 9999 BKN147 23/01 Q1010 NOSIG
RMK ICE: MOD FL170/FL180 FBL FL150/FL250 TURB: MOD SFC/FL110
AUTOTAF.ME UAKK 260400Z 2605/2614 25007MPS CAVOK TX23/2606Z TN16/2614Z
BECMG 2609/2610 SCT047
FM261100 27011G16MPS 9999 SCT048CB
TEMPO 2611/2612 VRB17G22MPS VCTS
FM261200 29012G17MPS CAVOK
TAF UAKK 252301Z 2600/2624 VRB02MPS 9999 SCT030 BKN100 TX23/2612Z TN06/2524Z
BECMG 2602/2604 23006MPS
TEMPO 2602/2604 25010MPS 3100 -SHRA BKN030CB
TEMPO 2604/2612 VRB15MPS 3100 -TSRA SQ BKN020CB
BECMG 2612/2614 30006MPS
2022/09/25 00:21=
Байконур (Крайний)
 


NOWCAST.SU UAOL 260600Z 30007MPS 9999 SKC 19/04 Q1019 NOSIG
RMK TURB: MOD SFC/FL50
AUTOTAF.ME UAOL 260400Z 2605/2614 31008G13MPS CAVOK TX22/2609Z TN18/2605Z  
Кызылорда
METAR UAOO 260530Z 33006MPS 9000 -SHRA BKN043CB 18/13 Q1016 NOSIG RMK QFE751/1001


NOWCAST.SU UAOO 260600Z 33009G14MPS 9999 -RA BKN099 21/07 Q1017 NOSIG
RMK TURB: MOD SFC/FL40
AUTOTAF.ME UAOO 260400Z 2605/2614 33010G15MPS CAVOK TX23/2608Z TN19/2614Z
BECMG 2605/2606 -RA
BECMG 2613/2614 30005MPS
TAF UAOO 260202Z 2603/2612 33007MPS 9999 SCT040CB BKN100=
Уральск (Ак-Жол)
METAR UARR 260530Z 23007MPS 6000 -SHRA SCT007 OVC026CB 10/09 Q1010 TEMPO 3100 BR RMK QFE754/1006


NOWCAST.SU UARR 260600Z 23010G15MPS 9999 -RA BKN022 10/08 Q1012 NOSIG
RMK ICE: MOD FL50/FL170 FBL FL190/FL200 TURB: MOD SFC/FL30
AUTOTAF.ME UARR 260400Z 2605/2614 23010G15MPS 9999 -RA BKN019 TX12/2609Z TN10/2605Z
BECMG 2606/2607 OVC026
FM260800 26010G15MPS 9999 -SHRA OVC033CB
BECMG 2609/2610 VCSH
FM261100 28010G16MPS 9999 BKN036TCU
BECMG 2612/2613 29005G11MPS
TAF UARR 260200Z 2603/2612 23006G12MPS 9999 -SHRA BKN011 BKN030CB
TEMPO 2603/2606 BKN006 BKN033CB
BECMG 2606/2607 26007G14MPS=
Усть-Каменогорск
METAR UASK 260530Z 12003MPS 070V160 9999 FEW210 26/03 Q1009 NOSIG RMK QFE732/0976


NOWCAST.SU UASK 260600Z 24004MPS 9999 FEW200 26/02 Q1010 NOSIG
RMK ICE: FBL FL250/FL260 TURB: MOD SFC/FL90
AUTOTAF.ME UASK 260400Z 2605/2614 VRB02MPS CAVOK TX28/2607Z TN21/2614Z TAF UASK 260202Z 2603/2612 16003MPS 9999 SCT100
TEMPO 2603/2606 18003G08MPS BKN100
BECMG 2606/2607 21006G11MPS SCT050 BKN100=
Павлодар
METAR UASP 260530Z 03006MPS 9999 SCT050CB 12/06 Q1009 NOSIG RMK QFE746/0995


NOWCAST.SU UASP 260600Z 05003MPS 9999 OVC078 16/07 Q1009 NOSIG
RMK ICE: SEV FL110/FL150 MOD FL170/FL190 TURB: MOD FL70/FL100 MOD SFC/FL90
AUTOTAF.ME UASP 260400Z 2605/2614 06003MPS CAVOK TX17/2607Z TN15/2605Z TAF UASP 260200Z 2603/2612 04007G12MPS 9999 BKN011 OVC020CB
TEMPO 2603/2609 09010G15MPS
TEMPO 2609/2612 09007G13MPS 3100 -SHRA=
Семей
METAR UASS 260530Z 22004MPS 160V260 CAVOK 27/03 Q1008 NOSIG RMK QFE738/0984


NOWCAST.SU UASS 260600Z 24005MPS 9999 OVC100 27/04 Q1008 NOSIG
RMK ICE: FBL FL250/FL260 TURB: MOD SFC/FL110
AUTOTAF.ME UASS 260400Z 2605/2614 24004MPS CAVOK TX29/2608Z TN22/2614Z
BECMG 2611/2612 33003MPS
BECMG 2613/2614 04004MPS
TAF UASS 260200Z 2603/2612 23005G10MPS 9999 SCT030 BKN100
TEMPO 2606/2612 25008G15MPS BKN020CB=
Урджар
 


NOWCAST.SU UASU 260600Z VRB02MPS 9999 FEW300 25/03 Q1014 NOSIG
RMK TURB: MOD SFC/FL90
AUTOTAF.ME UASU 260400Z 2605/2614 VRB02MPS CAVOK TX27/2608Z TN20/2614Z
BECMG 2609/2610 27005G11MPS
 
Аральск
 


NOWCAST.SU UATA 260600Z 29007MPS 9999 SKC 17/02 Q1019 NOSIG
RMK TURB: MOD SFC/FL50
AUTOTAF.ME UATA 260400Z 2605/2614 29005MPS CAVOK TX19/2609Z TN15/2605Z  
Актау
METAR UATE 260530Z 12003MPS 090V150 CAVOK 19/09 Q1023 NOSIG RMK QFE765/1021


NOWCAST.SU UATE 260600Z 27005MPS 9999 BKN046 19/09 Q1023 NOSIG
RMK TURB: MOD SFC/FL40
AUTOTAF.ME UATE 260400Z 2605/2614 28005MPS CAVOK TX22/2610Z TN18/2605Z
BECMG 2605/2606 BKN046
BECMG 2607/2608 NSC
BECMG 2608/2609 BKN037
FM261100 23005MPS CAVOK
TAF UATE 252300Z 2600/2624 30005G11MPS 9999 SCT033CB TX23/2609Z TN11/2603Z
TEMPO 2600/2603 VRB03MPS 3100 BR SCT011
TEMPO 2609/2614 23004G10MPS
BECMG 2614/2616 VRB03MPS
BECMG 2618/2620 09005MPS
2022/09/25 00:21=
Форт-Шевченко
 


NOWCAST.SU UATF 260600Z 26008G13MPS 9999 BKN041 20/08 Q1023 NOSIG
RMK TURB: MOD SFC/FL50
AUTOTAF.ME UATF 260400Z 2605/2614 27008G13MPS 9999 BKN039 TX21/2607Z TN19/2605Z  
Атырау
METAR UATG 260530Z 26008MPS CAVOK 16/06 Q1019 NOSIG RMK QFE766/1022


NOWCAST.SU UATG 260600Z 26010G15MPS 9999 FEW260 17/05 Q1020 NOSIG
RMK TURB: MOD SFC/FL30
AUTOTAF.ME UATG 260400Z 2605/2614 27009G14MPS CAVOK TX20/2610Z TN16/2605Z TAF UATG 252300Z 2600/2624 25010MPS 9999 SCT030CB TX20/2610Z TN10/2603Z
BECMG 2605/2607 24010G15MPS
BECMG 2615/2617 23008MPS 5000 BR
BECMG 2619/2621 22003MPS
2022/09/25 00:21=
Актобе
METAR UATT 260530Z 25008MPS 9999 SCT023CB 11/08 Q1013 NOSIG RMK QFE740/0987


NOWCAST.SU UATT 260600Z 25010G15MPS 9999 -SHRA BKN023CB 11/05 Q1014 NOSIG
RMK ICE: SEV FL70/FL90 TURB: MOD SFC/FL40
AUTOTAF.ME UATT 260400Z 2605/2614 25010G15MPS 9999 -RA OVC021 TX14/2610Z TN10/2605Z
FM260600 25010G15MPS 9999 -SHRA BKN023CB
BECMG 2609/2610 VCSH
FM261100 26012G17MPS 9999 BKN033TCU
BECMG 2613/2614 26005G11MPS
TAF UATT 252300Z 2600/2624 25005MPS 9999 SCT040 TX15/2612Z TN06/2602Z
TEMPO 2602/2612 28010MPS 5000 -SHRA SCT011 BKN020CB
TEMPO 2612/2618 BKN033CB
2022/09/25 00:21=
Тенгиз
 


NOWCAST.SU UATZ 260600Z 27012G17MPS 9999 SCT051 19/06 Q1021 NOSIG
RMK TURB: MOD SFC/FL50
AUTOTAF.ME UATZ 260400Z 2605/2614 27011G16MPS CAVOK TX20/2607Z TN17/2614Z  
Костанай (Наримановка)
METAR UAUU 260530Z 26013MPS 9999 SCT029 14/07 Q1005 TEMPO 26016MPS RMK QFE738/0984


NOWCAST.SU UAUU 260600Z 26013G18MPS 9999 BKN045 14/06 Q1006 NOSIG
RMK TURB: MOD SFC/FL50
AUTOTAF.ME UAUU 260400Z 2605/2614 26012G17MPS 9999 BKN040 TX16/2609Z TN13/2605Z
BECMG 2606/2607 BKN018
BECMG 2607/2608 BKN035
FM261200 26011G16MPS 9999 VCSH BKN025CB
FM261300 26011G16MPS 9999 -RA BKN049
TAF UAUU 260201Z 2603/2612 25008G13MPS 9999 BKN020
TEMPO 2603/2612 27010G16MPS=
Baku Bine Arpt
METAR UBBB 260530Z 11012KT CAVOK 23/12 Q1024 NOSIG


NOWCAST.SU UBBB 260600Z 10012KT 9999 SCT033 21/13 Q1024 NOSIG
RMK TURB: MOD SFC/FL30
AUTOTAF.ME UBBB 260400Z 2605/2614 10012KT 9999 BKN048 TX22/2613Z TN21/2605Z
BECMG 2606/2607 NSC
TAF UBBB 252259Z 2600/2624 32008KT CAVOK TX23/2610Z TN14/2601Z
TEMPO 2600/2604 VRB04KT 4000 BR BCFG FEW008
BECMG 2604/2606 12012KT
TEMPO 2606/2612 15016KT SCT020
2022/09/25 00:00=
Bishkek Manas
METAR UCFM 260530Z 20002MPS 160V260 CAVOK 28/05 Q1015 R08/0///95 NOSIG


NOWCAST.SU UCFM 260600Z VRB02MPS 9999 SKC 30/00 Q1016 NOSIG
RMK TURB: MOD SFC/FL50
AUTOTAF.ME UCFM 260400Z 2605/2614 VRB02MPS CAVOK TX32/2609Z TN24/2614Z
BECMG 2606/2607 34003MPS
BECMG 2613/2614 26003MPS
TAF UCFM 252234Z 2600/2624 16003G08MPS 9999 SCT050CB
TEMPO 2600/2605 1200 BR FU
BECMG 2605/2607 32003G08MPS
BECMG 2615/2616 14003G08MPS
TEMPO 2616/2624 2000 BR FU
2022/09/25 00:00=
Osh
METAR UCFO 260530Z 28003MPS 240V350 CAVOK 27/01 Q1019 R12/0///95 NOSIG


NOWCAST.SU UCFO 260600Z 33004MPS 9999 SKC 26/02 Q1025 NOSIG
RMK TURB: MOD FL70/FL90
AUTOTAF.ME UCFO 260400Z 2605/2614 VRB02MPS CAVOK TX28/2608Z TN21/2614Z TAF UCFO 252234Z 2600/2624 32003G08MPS 9999 NSC
TEMPO 2600/2606 18003G08MPS 3000 FU FEW050
TEMPO 2606/2612 27003G08MPS FEW050CB
BECMG 2612/2614 18003G08MPS 6000
2022/09/25 00:00=
Shirak
METAR UDSG 260530Z VRB01KT 9999 NSC 08/02 Q1026 R02/CLRD70 NOSIG


NOWCAST.SU UDSG 260600Z 13004KT 9999 SKC 09/00 Q1034 NOSIG
AUTOTAF.ME UDSG 260400Z 2605/2614 VRB02KT CAVOK TX17/2611Z TN07/2605Z
BECMG 2608/2609 17004KT
BECMG 2612/2613 VRB02KT
TAF UDSG 252258Z 2600/2624 VRB06KT 9999 FEW050
TEMPO 2603/2606 5000 BR
2022/09/25 00:20=
Zvartnots
METAR UDYZ 260530Z 14003KT 9999 NSC 16/02 Q1023 R09/010070 NOSIG


NOWCAST.SU UDYZ 260600Z VRB02KT 9999 SKC 16/00 Q1023 NOSIG
AUTOTAF.ME UDYZ 260400Z 2605/2614 VRB02KT CAVOK TX24/2611Z TN13/2605Z TAF UDYZ 252300Z 2600/2624 VRB06KT CAVOK=
Батагай
 


NOWCAST.SU UEBB 260600Z VRB02MPS 9999 BKN012 01/M02 Q1008 NOSIG
RMK ICE: MOD FL30/FL90 FBL FL20/FL120
AUTOTAF.ME UEBB 260400Z 2605/2614 VRB02MPS 9999 -SN BKN012 TX01/2605Z TNM01/2611Z
BECMG 2607/2608 NSC
BECMG 2608/2609 BKN009
FM261000 VRB02MPS 5000 BR BKN009
FM261200 VRB02MPS 3000 BR BKN005
 
Саккырыр
 


NOWCAST.SU UEBS 260600Z VRB02MPS 9999 BKN016 M01/M05 Q1007 NOSIG
RMK ICE: MOD FL40/FL50 FBL FL30/FL120 TURB: MOD SFC/FL50
AUTOTAF.ME UEBS 260400Z 2605/2614 VRB02MPS 9999 -SN BKN016 TXM01/2606Z TNM04/2614Z
FM261000 VRB02MPS 8000 BR OVC015
BECMG 2610/2611 6000
BECMG 2611/2612 4000
FM261300 VRB02MPS 9999 BKN013
FM261400 VRB02MPS 5000 -SN BR BKN013
 
Талакан
 


NOWCAST.SU UECT 260600Z VRB02MPS 9999 BKN026TCU 02/M02 Q1010 NOSIG
RMK ICE: MOD FL40/FL70 FBL FL30/FL40 TURB: MOD SFC/FL40
AUTOTAF.ME UECT 260400Z 2605/2614 VRB02MPS 9999 BKN026TCU TX02/2605Z TN00/2612Z
BECMG 2607/2608 10003MPS
BECMG 2609/2610 NSC
 
Алдан
 


NOWCAST.SU UEEA 260600Z 33003MPS 9999 BKN029TCU 00/M05 Q1010 NOSIG
RMK ICE: MOD FL40/FL70 TURB: MOD FL50/FL60
AUTOTAF.ME UEEA 260400Z 2605/2614 33003MPS 9999 BKN030TCU TX00/2606Z TNM04/2613Z
FM260700 VRB02MPS 9000 BR BKN028TCU
FM260800 VRB02MPS 9999 BKN028TCU
BECMG 2609/2610 VRB02MPS
FM261100 VRB02MPS 7000 BR BKN013
FM261200 VRB02MPS 9999 BKN009
FM261300 VRB02MPS 7000 BR NSC
FM261400 VRB02MPS CAVOK
 
Себян-Кюель
 


NOWCAST.SU UEED 260600Z VRB02MPS 9999 BKN024 M01/M04 Q1005 NOSIG
RMK ICE: MOD FL70/FL80 FBL FL50/FL60
AUTOTAF.ME UEED 260400Z 2605/2614 VRB02MPS 9999 BKN035 TXM01/2605Z TNM07/2612Z
BECMG 2606/2607 NSC
FM261200 VRB02MPS 9999 -SN BKN035
 
Якутск
METAR UEEE 260530Z 36002MPS 9999 BKN023 04/01 Q1010 R05R/09//60 NOSIG RMK QFE749


NOWCAST.SU UEEE 260600Z 31003MPS 9999 BKN025TCU 03/M01 Q1010 NOSIG
RMK ICE: MOD FL30/FL50 FBL FL20/FL30 TURB: MOD SFC/FL30
AUTOTAF.ME UEEE 260400Z 2605/2614 30003MPS 9999 BKN027TCU TX04/2605Z TN01/2612Z
BECMG 2613/2614 BKN013
TAF UEEE 260200Z 2603/2709 29005G10MPS 9999 SCT015CB OVC070
TEMPO 2603/2615 3200 -SHRASN SCT007 BKN015CB OVC070=
Покровск
 


NOWCAST.SU UEEP 260600Z 31003MPS 9999 BKN032TCU 03/M01 Q1010 NOSIG
RMK ICE: MOD FL40/FL50 FBL FL20/FL170 TURB: MOD SFC/FL30
AUTOTAF.ME UEEP 260400Z 2605/2614 31003MPS 9999 BKN032TCU TX03/2605Z TN00/2614Z
BECMG 2610/2611 BKN019
 
Чульман
 


NOWCAST.SU UELD 260600Z 35005G11MPS 9999 BKN018TCU 01/M07 Q1009 NOSIG
RMK ICE: MOD FL90/FL100 FBL FL70/FL80 TURB: MOD FL50/FL90
AUTOTAF.ME UELD 260400Z 2605/2614 35009G14MPS 9999 BKN014 TX01/2605Z TNM03/2613Z
BECMG 2606/2607 BKN046TCU
BECMG 2607/2608 34004MPS
BECMG 2611/2612 VRB02MPS
FM261400 VRB02MPS CAVOK
 
Нерюнгри (Чульман)
 


NOWCAST.SU UELL 260600Z 35005G11MPS 9999 BKN016TCU 01/M07 Q1009 NOSIG
RMK ICE: MOD FL90/FL100 FBL FL70/FL80 TURB: MOD FL50/FL90
AUTOTAF.ME UELL 260400Z 2605/2614 35009G14MPS 9999 BKN014 TX01/2605Z TNM03/2613Z
BECMG 2606/2607 BKN046TCU
BECMG 2607/2608 34004MPS
BECMG 2611/2612 VRB02MPS
FM261400 VRB02MPS CAVOK
 
Оймякон
 


NOWCAST.SU UEMJ 260600Z VRB02MPS 9999 OVC150 01/M06 Q1009 NOSIG
RMK ICE: FBL FL170/FL190
AUTOTAF.ME UEMJ 260400Z 2605/2614 VRB02MPS CAVOK TX01/2605Z TNM09/2614Z  
Маган
 


NOWCAST.SU UEMM 260600Z 31003MPS 9999 BKN027TCU 03/M01 Q1010 NOSIG
RMK ICE: MOD FL30/FL40 FBL FL20/FL30 TURB: MOD SFC/FL30
AUTOTAF.ME UEMM 260400Z 2605/2614 30003MPS 9999 BKN027TCU TX03/2605Z TN00/2614Z
BECMG 2612/2613 BKN017
BECMG 2613/2614 NSC
 
Олёкминск
 


NOWCAST.SU UEMO 260600Z VRB02MPS 9999 BKN034TCU 04/M03 Q1013 NOSIG
RMK ICE: MOD FL40/FL90 FBL FL30/FL110 TURB: MOD SFC/FL40
AUTOTAF.ME UEMO 260400Z 2605/2614 VRB02MPS 9999 BKN037TCU TX04/2605Z TNM02/2614Z
BECMG 2609/2610 BKN020
BECMG 2612/2613 BKN013
 
Усть-Мая
 


NOWCAST.SU UEMU 260600Z 01003MPS 0500 +RASN OVC025 04/04 Q1006 NOSIG
RMK ICE: SEV FL110/FL170 MOD FL20/FL190
AUTOTAF.ME UEMU 260400Z 2605/2614 01003MPS 0800 +RASN OVC024 TX04/2605Z TN03/2608Z
BECMG 2605/2606 500
BECMG 2609/2610 800
FM261200 VRB02MPS 1000 RASN OVC020
 
Верхневилюйск
 


NOWCAST.SU UENI 260600Z 26003MPS 9999 BKN021TCU 02/M02 Q1011 NOSIG
RMK ICE: MOD FL30/FL90 FBL FL10/FL150 TURB: MOD SFC/FL30
AUTOTAF.ME UENI 260400Z 2605/2614 26004MPS 9999 BKN023TCU TX02/2605Z TNM01/2613Z
BECMG 2607/2608 BKN016TCU
FM261400 VRB02MPS 3000 BR BKN005
 
Нюрба
 


NOWCAST.SU UENN 260600Z 27003MPS 9999 BKN020TCU 02/M04 Q1011 NOSIG
RMK ICE: MOD FL40/FL70 FBL FL20/FL110 TURB: MOD SFC/FL30
AUTOTAF.ME UENN 260400Z 2605/2614 27003MPS 9999 BKN020TCU TX02/2605Z TNM02/2614Z
BECMG 2609/2610 BKN013
FM261300 VRB02MPS 6000 BR BKN012
FM261400 VRB02MPS 2200 BR BKN012
 
Ленск
 


NOWCAST.SU UERL 260600Z VRB02MPS 2000 SHRASN BKN017CB 03/M01 Q1011 NOSIG
RMK ICE: MOD FL40/FL90 FBL FL30/FL150 TURB: MOD SFC/FL40
AUTOTAF.ME UERL 260400Z 2605/2614 VRB02MPS 2000 SHRASN OVC016CB TX03/2606Z TNM01/2612Z
FM260700 VRB02MPS 9000 -SHRASN BKN019CB
FM260800 VRB02MPS 9999 -SHRASN BKN022CB
FM261000 VRB02MPS 9999 BKN016
BECMG 2610/2611 NSC
BECMG 2612/2613 08003MPS
 
Полярный
METAR UERP 260530Z 29003MPS 9999 BKN013CB OVC100 M05/M07 Q1010 R35/880333 NOSIG RMK QFE713


NOWCAST.SU UERP 260600Z 32005MPS 9999 BKN021TCU M04/M07 Q1011 NOSIG
RMK ICE: MOD FL40/FL50 FBL FL20/FL120 TURB: MOD SFC/FL40
AUTOTAF.ME UERP 260400Z 2605/2614 31005MPS 9999 BKN019 TXM04/2605Z TNM06/2614Z
FM261100 VRB02MPS 9000 BR BKN023TCU
FM261200 VRB02MPS 9999 BKN022TCU
TAF UERP 260200Z 2603/2703 30003MPS 9000 BKN015CB OVC100
TEMPO 2603/2612 5000 -SHSN SCT009 BKN013CB OVC100=
Мирный
METAR UERR 260530Z 19002MPS 9999 BKN033CB 01/M04 Q1010 R25/CLRD60 NOSIG RMK QFE727/0969


NOWCAST.SU UERR 260600Z VRB02MPS 9999 BKN036TCU 02/M05 Q1011 NOSIG
RMK ICE: MOD FL50/FL70 FBL FL40/FL150 TURB: MOD SFC/FL50
AUTOTAF.ME UERR 260400Z 2605/2614 VRB02MPS 9999 BKN037TCU TX02/2605Z TNM03/2614Z TAF UERR 260200Z 2603/2703 VRB01MPS 9999 SCT023 OVC100=
Саскылах
 


NOWCAST.SU UERS 260600Z 05010G15MPS 9999 BKN020 01/M03 Q1015 NOSIG
RMK ICE: SEV FL40/FL50 MOD FL20/FL30 FBL FL10/FL20 TURB: MOD SFC/FL30
AUTOTAF.ME UERS 260400Z 2605/2614 05010MPS 9999 BKN020 TX01/2605Z TNM01/2613Z
BECMG 2610/2611 OVC012
 
Оленегорск
 


NOWCAST.SU UESN 260600Z 10007MPS 9999 BKN024TCU 00/M05 Q1017 NOSIG
RMK ICE: MOD FL90/FL110 FBL FL20/FL150 TURB: MOD SFC/FL20
AUTOTAF.ME UESN 260400Z 2605/2614 10008G13MPS 9999 BKN025TCU TX00/2605Z TNM02/2608Z
BECMG 2606/2607 NSC
BECMG 2610/2611 BKN022
 
Тикси
 


NOWCAST.SU UEST 260600Z 09008MPS 9999 OVC019 01/M02 Q1012 NOSIG
RMK ICE: SEV FL30/FL40 MOD FL20/FL30 FBL FL10/FL20 TURB: MOD SFC/FL30
AUTOTAF.ME UEST 260400Z 2605/2614 09011MPS 9999 OVC020 TX01/2605Z TN00/2609Z
BECMG 2606/2607 -RASN
BECMG 2608/2609 -SN DRSN
FM261000 09008MPS 6000 -SN DRSN BKN014
FM261100 09008MPS 3500 -SN BLSN BKN012
FM261200 09007MPS 9999 -SN BKN010
FM261400 09007MPS 2000 SHSN BR BKN009 OVC010CB
 
Kopitnari
METAR UGKO 260530Z 08018KT CAVOK 18/08 Q1019 NOSIG


NOWCAST.SU UGKO 260600Z 04004KT 9999 SKC 17/06 Q1022 NOSIG
RMK TURB: MOD FL10/FL50
AUTOTAF.ME UGKO 260400Z 2605/2614 09004KT CAVOK TX23/2610Z TN15/2605Z
BECMG 2606/2607 03004KT
BECMG 2613/2614 16004KT
TAF UGKO 252300Z 2600/2624 08010KT CAVOK TX26/2611Z TN12/2600Z
TEMPO 2605/2612 08019G29KT
2022/09/25 00:06=
Batumi
METAR UGSB 260530Z 13017KT CAVOK 16/09 Q1019 NOSIG


NOWCAST.SU UGSB 260600Z 15004KT 9999 SKC 19/08 Q1018 NOSIG
AUTOTAF.ME UGSB 260400Z 2605/2614 14006KT CAVOK TX22/2609Z TN18/2605Z
BECMG 2606/2607 VRB02KT
BECMG 2608/2609 35004KT
BECMG 2613/2614 VRB02KT
TAF UGSB 252300Z 2600/2624 12017KT CAVOK TX26/2611Z TN14/2600Z
TEMPO 2600/2608 12027KT
BECMG 2606/2609 36006KT
BECMG 2615/2616 12015KT
2022/09/25 00:06=
Tbilisi Novo-al
METAR UGTB 260530Z 29005KT 250V320 CAVOK 15/07 Q1026 NOSIG


NOWCAST.SU UGTB 260600Z VRB02KT 9999 SKC 15/08 Q1025 NOSIG
RMK TURB: MOD SFC/FL40
AUTOTAF.ME UGTB 260400Z 2605/2614 VRB02KT CAVOK TX21/2611Z TN13/2605Z
BECMG 2608/2609 14008KT
TAF AMD UGTB 260256Z 2602/2624 33010KT CAVOK TX23/2612Z TN10/2603Z
BECMG 2605/2607 16010KT
BECMG 2616/2619 VRB02KT=
Благовещенск (Игнатьево)
METAR UHBB 260530Z 29005MPS 9999 SCT033CB 13/M02 Q1012 R36/090060 NOSIG RMK QFE741/0988


NOWCAST.SU UHBB 260600Z 27008G13MPS 9999 BKN055 13/M03 Q1012 NOSIG
RMK ICE: FBL FL90/FL170 TURB: MOD SFC/FL90
AUTOTAF.ME UHBB 260400Z 2605/2614 28008G13MPS 9999 BKN045 TX14/2605Z TN06/2614Z
BECMG 2605/2606 NSC
FM260900 25004MPS 9999 VCSH BKN065CB
BECMG 2610/2611 24003MPS
TAF UHBB 260135Z 2603/2703 27006G12MPS 9999 SCT030CB
BECMG 2615/2617 25003G08MPS=
Зея
 


NOWCAST.SU UHBE 260600Z 31009G15MPS 9999 BKN035TCU 09/M02 Q1007 TEMPO FM0700 VRB14G19MPS VCSH
RMK ICE: SEV FL90/FL100 MOD FL110/FL120 FBL FL50/FL150 TURB: MOD FL10/FL60 MOD SFC/FL70
AUTOTAF.ME UHBE 260400Z 2605/2614 31009G15MPS 9999 BKN035TCU TX09/2605Z TN03/2613Z
FM260700 31005G11MPS 9999 BKN036CB
TEMPO 2607/2609 VRB14G19MPS VCTS
BECMG 2607/2608 31004MPS
FM260900 31003MPS 9999 BKN045
BECMG 2609/2610 NSC
 
Февральск
 


NOWCAST.SU UHBF 260600Z 26005G11MPS 9999 -SHRA BKN036CB 07/02 Q1007 NOSIG
RMK ICE: SEV FL70/FL80 MOD FL50/FL90 FBL FL40/FL50 TURB: MOD SFC/FL70
AUTOTAF.ME UHBF 260400Z 2605/2614 26005G11MPS 9999 -RA BKN031 TX08/2607Z TN04/2613Z
FM260600 26005G11MPS 9999 -SHRA BKN036CB
FM260900 24004MPS 9999 BKN033
 
Свободный
 


NOWCAST.SU UHBS 260600Z 28012G17MPS 9999 BKN045 13/M02 Q1010 NOSIG
RMK ICE: FBL FL90/FL100 TURB: MOD SFC/FL90
AUTOTAF.ME UHBS 260400Z 2605/2614 28012G17MPS 9999 SCT045 TX13/2605Z TN05/2614Z
BECMG 2606/2607 NSC
FM260900 28005MPS 9999 BKN060CB
TEMPO 2609/2610 VRB14G19MPS VCTS
FM261000 28004MPS CAVOK
 
Тында
 


NOWCAST.SU UHBW 260600Z 33009G14MPS 9999 BKN025TCU 05/M05 Q1008 NOSIG
RMK ICE: MOD FL90/FL100 FBL FL70/FL80 TURB: MOD SFC/FL70
AUTOTAF.ME UHBW 260400Z 2605/2614 34009G14MPS 9999 BKN024 TX05/2606Z TNM03/2614Z
BECMG 2607/2608 NSC
BECMG 2608/2609 34004MPS
 
Билибино (Купол-1)
 


NOWCAST.SU UHED 260600Z VRB02MPS 9999 BKN096 M05/M11 Q1016 NOSIG
RMK ICE: FBL FL40/FL150
AUTOTAF.ME UHED 260400Z 2605/2614 VRB02MPS CAVOK TXM04/2605Z TNM11/2612Z
FM261300 VRB02MPS 0200 FZFG BKN001
 
Купол
 


NOWCAST.SU UHEK 260600Z VRB02MPS 9999 BKN097 M05/M11 Q1016 NOSIG
RMK ICE: FBL FL150/FL160
AUTOTAF.ME UHEK 260400Z 2605/2614 VRB02MPS CAVOK TXM04/2605Z TNM11/2612Z
FM261300 VRB02MPS 0200 FZFG BKN001
 
Новая Кубака
 


NOWCAST.SU UHGK 260600Z VRB02MPS 9999 FEW250 M03/M06 Q1012 NOSIG
RMK ICE: FBL FL40/FL50
AUTOTAF.ME UHGK 260400Z 2605/2614 VRB02MPS CAVOK TXM02/2605Z TNM12/2613Z  
Глухариное
 


NOWCAST.SU UHGL 260600Z VRB02MPS 9999 FEW190 02/M04 Q1011 NOSIG
AUTOTAF.ME UHGL 260400Z 2605/2614 VRB02MPS CAVOK TX03/2605Z TNM04/2612Z  
Бриакан
 


NOWCAST.SU UHHE 260600Z 26005G11MPS 9999 FEW160 16/02 Q1004 NOSIG
RMK TURB: MOD FL10/FL80 MOD SFC/FL70
AUTOTAF.ME UHHE 260400Z 2605/2614 25004MPS CAVOK TX16/2605Z TN06/2613Z
BECMG 2611/2612 VRB02MPS
 
Хабаровск (Новый)
METAR UHHH 260530Z 25008MPS 220V280 9999 FEW030 20/07 Q1009 R23R/090060 NOSIG RMK QFE751/1001


NOWCAST.SU UHHH 260600Z 26010G15MPS 9999 FEW170 18/08 Q1011 NOSIG
RMK TURB: MOD SFC/FL20
AUTOTAF.ME UHHH 260400Z 2605/2614 25011G16MPS CAVOK TX19/2605Z TN09/2614Z
BECMG 2607/2608 26005G11MPS
TAF UHHH 260146Z 2603/2709 25005G11MPS 9999 SCT020CB=
Комсомольск-н/А (Дземги)
 


NOWCAST.SU UHKD 260600Z 20009G14MPS 9999 BKN016 15/11 Q1007 NOSIG
RMK ICE: FBL FL190/FL200
AUTOTAF.ME UHKD 260400Z 2605/2614 20009MPS 9999 BKN017 TX15/2605Z TN09/2614Z
BECMG 2606/2607 NSC
FM260800 20007G12MPS 9999 VCSH BKN159CB
FM260900 20005G11MPS CAVOK
BECMG 2609/2610 20003MPS
FM261100 VRB02MPS 9999 VCSH SCT046CB
BECMG 2611/2612 VRB02MPS
FM261400 03003MPS 9999 -RA NSC
 
Комсомольск-н/А (Хурба)
 


NOWCAST.SU UHKK 260600Z 20009G14MPS 9999 BKN017 15/11 Q1007 NOSIG
RMK ICE: FBL FL190/FL200
AUTOTAF.ME UHKK 260400Z 2605/2614 20009MPS 9999 BKN019 TX15/2605Z TN09/2614Z
BECMG 2606/2607 NSC
FM260800 20007G12MPS 9999 VCSH BKN159CB
FM260900 20005G11MPS CAVOK
BECMG 2609/2610 20003MPS
FM261100 VRB02MPS 9999 VCSH SCT046CB
BECMG 2611/2612 VRB02MPS
FM261400 03003MPS 9999 -RA NSC
 
Советская Гавань (Май-Гатка)
 


NOWCAST.SU UHKM 260600Z VRB02MPS 9999 VCSH BKN073CB 20/10 Q1008 NOSIG
RMK ICE: FBL FL110/FL120 TURB: MOD FL50/FL90
AUTOTAF.ME UHKM 260400Z 2605/2614 17003MPS CAVOK TX20/2605Z TN10/2614Z
FM260600 VRB02MPS 9999 VCSH BKN073CB
FM260800 VRB02MPS CAVOK
FM260900 30003MPS 9999 VCSH SCT070CB
FM261000 29003MPS CAVOK
 
Анадырь (Угольный)
METAR UHMA 260530Z 31002MPS 9999 SCT038 04/M04 Q1015 R01/60D NOSIG RMK TDZ R01/31002G04MPS END R01/33004G05MPS QFE757/1010


NOWCAST.SU UHMA 260600Z 35004MPS 9999 FEW190 03/M04 Q1015 NOSIG
RMK TURB: MOD SFC/FL40
AUTOTAF.ME UHMA 260400Z 2605/2614 35006MPS CAVOK TX04/2605Z TN01/2613Z
BECMG 2607/2608 BKN045
TAF UHMA 260144Z 2603/2703 35003G08MPS 9999 SCT033
TEMPO 2603/2609 02008G13MPS
TEMPO 2609/2703 03010MPS -SHSNRA BKN013CB=
Бухта Провидения
METAR UHMD 260530Z 01006MPS 9999 -SHRASN SCT013 OVC027CB 04/03 Q1008 RMK QBB400 MT OBSC QFE755/1007


NOWCAST.SU UHMD 260600Z VRB02MPS 9999 BKN032 04/M02 Q1009 NOSIG
RMK ICE: MOD FL50/FL70 FBL FL30/FL110 TURB: MOD SFC/FL20
AUTOTAF.ME UHMD 260400Z 2605/2614 VRB02MPS 9999 BKN033 TX04/2605Z TN04/2605Z
BECMG 2608/2609 02004MPS
FM261000 VRB02MPS 9999 -RA BKN023
BECMG 2610/2611 BKN017
FM261200 02005MPS 9999 VCTS OVC012CB
TEMPO 2612/2613 VRB08G13MPS
FM261300 02005MPS 9999 -RA OVC007
FM261400 01005MPS 3000 -RA BR OVC005
TAF UHMD 260145Z 2603/2609 36005G10MPS 9999 SCT023=
Залив Креста
 


NOWCAST.SU UHME 260600Z 36005MPS 9999 BKN045 02/M03 Q1015 NOSIG
RMK ICE: MOD FL90/FL100 FBL FL40/FL110
AUTOTAF.ME UHME 260400Z 2605/2614 36005MPS 9999 BKN040 TX03/2605Z TN01/2612Z
BECMG 2606/2607 NSC
BECMG 2607/2608 BKN046
FM260900 36006MPS 9999 VCSH BKN031CB
TEMPO 2612/2613 1500 SHRASN
FM261300 01006G11MPS 9999 OVC016
 
Омсукчан
 


NOWCAST.SU UHMF 260600Z VRB02MPS 9999 FEW170 01/M06 Q1011 NOSIG
AUTOTAF.ME UHMF 260400Z 2605/2614 VRB02MPS CAVOK TX02/2605Z TNM09/2614Z  
Мыс Шмидта
 


NOWCAST.SU UHMI 260600Z VRB02MPS 1000 SN OVC011 00/M02 Q1019 NOSIG
RMK ICE: MOD FL20/FL70 FBL FL10/FL120 TURB: MOD FL20/FL30
AUTOTAF.ME UHMI 260400Z 2605/2614 VRB02MPS 1000 SN OVC013 TX00/2605Z TNM01/2607Z
BECMG 2606/2607 SN BR
BECMG 2607/2608 1500
FM261100 VRB02MPS 1500 SHSN BR OVC011CB
BECMG 2611/2612 SHSN
FM261400 VRB02MPS 1500 SN OVC012
 
Кепервеем
 


NOWCAST.SU UHMK 260600Z 09003MPS 9999 FEW180 M01/M09 Q1015 NOSIG
RMK ICE: FBL FL50/FL120 TURB: MOD SFC/FL40
AUTOTAF.ME UHMK 260400Z 2605/2614 10003MPS CAVOK TX00/2605Z TNM06/2613Z  
Залив Лаврентия
 


NOWCAST.SU UHML 260600Z 01005MPS 5000 VCSH BR BKN009 OVC010CB 04/03 Q1008 NOSIG
RMK ICE: MOD FL90/FL150 FBL FL40/FL70
AUTOTAF.ME UHML 260400Z 2605/2614 36004MPS 9999 VCTS OVC015CB TX05/2605Z TN04/2606Z
FM260600 01005MPS 5000 VCSH BR BKN009 OVC010CB
BECMG 2606/2607 -SHRA BR
FM260800 36004MPS 3000 -SHRA BR BKN005 OVC010CB
FM260900 01004MPS 9999 VCTS BKN008 OVC010CB
FM261200 02006MPS 3000 VCSH BR BKN005 OVC010CB
FM261400 03007MPS 5000 VCSH BR BKN008 OVC010CB
 
Магадан (Сокол)
METAR UHMM 260530Z 13002MPS 080V150 9999 FEW040 12/M04 Q1009 R10/70D NOSIG RMK QFE742 R28/00000MPS


NOWCAST.SU UHMM 260600Z VRB02MPS 9999 FEW041 08/M04 Q1010 NOSIG
RMK TURB: MOD SFC/FL40
AUTOTAF.ME UHMM 260400Z 2605/2614 VRB02MPS CAVOK TX09/2605Z TNM01/2612Z
BECMG 2605/2606 FEW041
BECMG 2606/2607 NSC
TAF UHMM 260148Z 2603/2709 04003G09MPS 9999 FEW040CB=
Омолон
 


NOWCAST.SU UHMN 260600Z 14003MPS 9999 FEW210 02/M05 Q1013 NOSIG
RMK ICE: FBL FL40/FL50 TURB: MOD SFC/FL40
AUTOTAF.ME UHMN 260400Z 2605/2614 14003MPS 9999 BKN034 TX03/2605Z TNM06/2613Z
BECMG 2605/2606 NSC
BECMG 2607/2608 SCT023
FM261100 VRB02MPS 1000 BR BKN003
FM261400 VRB02MPS 0500 FZFG BKN002
 
Марково
 


NOWCAST.SU UHMO 260600Z 02003MPS 9999 SKC 01/M07 Q1017 NOSIG
RMK TURB: MOD SFC/FL30
AUTOTAF.ME UHMO 260400Z 2605/2614 03004MPS CAVOK TX02/2605Z TNM05/2612Z  
Певек
 


NOWCAST.SU UHMP 260600Z 09005MPS 9999 SKC 00/M04 Q1020 NOSIG
RMK ICE: FBL FL40/FL50
AUTOTAF.ME UHMP 260400Z 2605/2614 08005MPS CAVOK TX01/2605Z TNM02/2610Z  
Беринговский
 


NOWCAST.SU UHMR 260600Z 35007MPS 9999 BKN039 03/M03 Q1014 NOSIG
RMK ICE: FBL FL40/FL50 TURB: MOD SFC/FL30
AUTOTAF.ME UHMR 260400Z 2605/2614 34007MPS 9999 BKN043 TX03/2605Z TN02/2609Z
BECMG 2613/2614 -RASN
 
Сеймчан
 


NOWCAST.SU UHMS 260600Z VRB02MPS 9999 SKC 04/M04 Q1012 NOSIG
RMK TURB: MOD SFC/FL40
AUTOTAF.ME UHMS 260400Z 2605/2614 VRB02MPS CAVOK TX05/2605Z TNM03/2613Z  
Магадан-13
 


NOWCAST.SU UHMT 260600Z VRB02MPS 9999 FEW210 08/00 Q1011 NOSIG
RMK ICE: FBL FL70/FL80 TURB: MOD FL40/FL50
AUTOTAF.ME UHMT 260400Z 2605/2614 VRB02MPS CAVOK TX09/2605Z TN04/2612Z
BECMG 2613/2614 07003MPS
 
Усть-Омчуг
 


NOWCAST.SU UHMV 260600Z VRB02MPS 9999 FEW290 02/M05 Q1010 NOSIG
AUTOTAF.ME UHMV 260400Z 2605/2614 VRB02MPS CAVOK TX03/2605Z TNM06/2614Z  
Северо-Эвенск
 


NOWCAST.SU UHMW 260600Z 06005G10MPS 9999 BKN048 05/M04 Q1013 NOSIG
RMK ICE: FBL FL50/FL60 TURB: MOD SFC/FL30
AUTOTAF.ME UHMW 260400Z 2605/2614 06007MPS 9999 SCT046 TX06/2605Z TN01/2610Z
BECMG 2607/2608 NSC
BECMG 2612/2613 36003MPS
 
Богородское
 


NOWCAST.SU UHNB 260600Z 18003MPS 9999 BKN032CB 15/10 Q1006 TEMPO VCSH
RMK ICE: SEV FL170/FL180 MOD FL120/FL190 FBL FL110/FL120 TURB: MOD SFC/FL50
AUTOTAF.ME UHNB 260400Z 2605/2614 17003MPS 9999 BKN030CB TX15/2605Z TN09/2614Z
TEMPO 2605/2607 VCTS
TEMPO 2607/2608 TS
FM260800 VRB02MPS 9999 BKN020CB
TEMPO 2608/2609 -TSRA
BECMG 2608/2609
TEMPO 2609/2610 VCTS
FM261000 VRB02MPS 9999 BKN014CB
TEMPO 2610/2611 -TSRA
FM261100 VRB02MPS 2000 BKN005 BKN010CB
TEMPO 2611/2614 TSRA
BECMG 2613/2614 SHRA BR
 
Херпучи
 


NOWCAST.SU UHNH 260600Z VRB02MPS 9999 BKN028CB 15/11 Q1004 TEMPO TL0700 VCSH
RMK TURB: MOD FL40/FL50
AUTOTAF.ME UHNH 260400Z 2605/2614 16003MPS 9999 BKN029CB TX15/2605Z TN07/2613Z
TEMPO 2605/2607 VCTS
FM260700 VRB02MPS CAVOK
FM260900 VRB02MPS 9999 -SHRA SCT061CB
FM261100 VRB02MPS CAVOK
 
Николаевск-на-Амуре
 


NOWCAST.SU UHNN 260600Z 14003MPS 9999 BKN024CB 13/10 Q1005 TEMPO VCSH
RMK ICE: SEV FL150/FL190 MOD FL90/FL120 TURB: MOD SFC/FL30
AUTOTAF.ME UHNN 260400Z 2605/2614 15003MPS 9999 OVC025CB TX13/2605Z TN09/2614Z
TEMPO 2605/2607 VCTS
BECMG 2606/2607 VCTS
TEMPO 2607/2611 5000 SHRA
FM260800 15003MPS 9999 -TSRA BKN015CB
BECMG 2609/2610 BKN021CB
FM261200 21003MPS 9999 OVC013CB
TEMPO 2612/2614 -TSRA
BECMG 2613/2614
 
Ургалан
 


NOWCAST.SU UHNU 260600Z VRB02MPS 1000 RASN OVC022 02/02 Q1002 NOSIG
RMK ICE: SEV FL120/FL150 MOD FL50/FL170 FBL FL30/FL40 TURB: MOD FL180/FL190
AUTOTAF.ME UHNU 260400Z 2605/2614 VRB02MPS 1000 RASN OVC023 TX02/2605Z TN01/2609Z
FM261200 VRB02MPS 1000 RASN BR OVC016
 
Нелькан
 


NOWCAST.SU UHNX 260600Z VRB02MPS 0500 RASN FG VV017 02/02 Q1003 NOSIG
RMK ICE: SEV FL120/FL150 MOD FL70/FL190 FBL FL30/FL50
AUTOTAF.ME UHNX 260400Z 2605/2614 VRB02MPS 0500 +RASN OVC016 TX02/2605Z TN02/2605Z
BECMG 2605/2606 RASN FG
FM260700 VRB02MPS 0800 RASN FG VV005
FM260800 VRB02MPS 1000 RASN BR OVC005
BECMG 2608/2609 1500
 
Охотск
 


NOWCAST.SU UHOO 260600Z 19005MPS 9999 OVC290 08/00 Q1011 NOSIG
RMK TURB: MOD SFC/FL20
AUTOTAF.ME UHOO 260400Z 2605/2614 19004MPS CAVOK TX09/2605Z TN03/2612Z
BECMG 2610/2611 SCT016
BECMG 2611/2612 NSC
 
Оссора
 


NOWCAST.SU UHPD 260600Z 08005MPS 9999 -SHRA BKN009 OVC010CB 05/04 Q1010 NOSIG
RMK ICE: SEV FL50/FL70 MOD FL30/FL170 FBL FL110/FL190 TURB: MOD FL10/FL20 MOD SFC/FL20
AUTOTAF.ME UHPD 260400Z 2605/2614 09005MPS 0500 SHRA FG BKN002 OVC010CB TX06/2605Z TN04/2614Z
FM260600 08005MPS 9999 -SHRA BKN009 OVC010CB
BECMG 2607/2608 BKN013CB
BECMG 2609/2610 BKN020CB
 
Палана
 


NOWCAST.SU UHPL 260600Z 10007MPS 9999 OVC050 07/00 Q1006 NOSIG
RMK ICE: MOD FL150/FL160 FBL FL70/FL190 TURB: MOD SFC/FL70
AUTOTAF.ME UHPL 260400Z 2605/2614 09007MPS CAVOK TX08/2605Z TN03/2613Z
BECMG 2610/2611 VRB02MPS
 
Козыревск
 


NOWCAST.SU UHPO 260600Z 36004MPS 3500 -RA BR OVC019 06/05 Q1004 NOSIG
RMK ICE: MOD FL40/FL170 FBL FL70/FL190
AUTOTAF.ME UHPO 260400Z 2605/2614 36004MPS 1000 RA BR OVC003 TX06/2605Z TN04/2612Z
FM260600 36004MPS 3500 -RA BR OVC019
FM260700 36004MPS 9999 -RA OVC019
FM261200 01003MPS 9999 OVC013
BECMG 2612/2613 OVC044
FM261400 01003MPS 2000 DZ BR OVC005
 
Петропавловск-Камчатский (Елизово)
METAR UHPP 260530Z VRB01MPS 9999 -SHRA SCT008 BKN020CB BKN047 11/11 Q1001 R34L/290250 NOSIG RMK MT OBSC QFE747/0996


NOWCAST.SU UHPP 260600Z VRB02MPS 9999 -RA OVC019 09/08 Q1002 NOSIG
RMK ICE: SEV FL90/FL110 MOD FL70/FL80 FBL FL120/FL130
AUTOTAF.ME UHPP 260400Z 2605/2614 VRB02MPS 9999 -RA OVC018 TX09/2605Z TN08/2609Z
BECMG 2610/2611 BKN012
TAF UHPP 260142Z 2603/2709 30003G12MPS 5000 -SHRA BR BKN006 OVC020CB
TEMPO 2603/2609 2000 SHRA BR VV004
TEMPO 2609/2622 0900 SHRA FG VV003
TEMPO 2622/2709 18005G12MPS 2000 SHRA BR VV004=
Тиличики
 


NOWCAST.SU UHPT 260600Z VRB02MPS 9999 BKN036 04/00 Q1012 NOSIG
RMK ICE: MOD FL50/FL70 FBL FL40/FL90 TURB: MOD SFC/FL40
AUTOTAF.ME UHPT 260400Z 2605/2614 09003MPS 9999 BKN040 TX05/2605Z TNM01/2614Z
BECMG 2606/2607 NSC
FM260800 VRB02MPS 9999 BKN031
BECMG 2610/2611 BKN017
BECMG 2611/2612 NSC
 
Авачинский
 


NOWCAST.SU UHQA 260600Z VRB02MPS 9999 -RA OVC019 09/08 Q1002 NOSIG
RMK ICE: SEV FL90/FL110 MOD FL70/FL80 FBL FL120/FL130
AUTOTAF.ME UHQA 260400Z 2605/2614 VRB02MPS 9999 -RA OVC018 TX09/2605Z TN08/2609Z
BECMG 2610/2611 BKN012
 
Оха (Новостройка)
 


NOWCAST.SU UHSH 260600Z 14009MPS 9999 BKN022 09/06 Q1010 TEMPO FM0800 VRB14G19MPS VCSH
RMK ICE: FBL FL150/FL190 TURB: MOD SFC/FL20
AUTOTAF.ME UHSH 260400Z 2605/2614 14009G14MPS 9999 BKN026 TX09/2605Z TN08/2609Z
FM260800 15009G14MPS 9999 BKN016CB
TEMPO 2608/2609 VRB14G19MPS VCTS
TEMPO 2609/2611 VCTS
FM261100 15009G15MPS 9999 -RA BKN011
FM261200 16009G15MPS 5000 -RA BR BKN010
FM261300 16008G13MPS 5000 -SHRA BR BKN014CB
 
Ясный
 


NOWCAST.SU UHSI 260600Z VRB02MPS 9999 BKN037 17/12 Q1016 NOSIG
AUTOTAF.ME UHSI 260400Z 2605/2614 VRB02MPS 9999 BKN037 TX17/2605Z TN15/2610Z
BECMG 2606/2607 NSC
BECMG 2611/2612 17004MPS
 
Шахтерск
 


NOWCAST.SU UHSK 260600Z 20005MPS 9999 FEW290 16/11 Q1011 NOSIG
RMK TURB: MOD SFC/FL30
AUTOTAF.ME UHSK 260400Z 2605/2614 20005G10MPS CAVOK TX17/2605Z TN14/2609Z
BECMG 2612/2613 BKN016
BECMG 2613/2614 NSC
 
Южно-Курильск (Менделеево)
 


NOWCAST.SU UHSM 260600Z VRB02MPS 9999 BKN170 19/14 Q1015 NOSIG
RMK ICE: FBL FL190/FL200 TURB: MOD FL170/FL180
AUTOTAF.ME UHSM 260400Z 2605/2614 VRB02MPS CAVOK TX19/2605Z TN16/2612Z  
Ноглики
 


NOWCAST.SU UHSN 260600Z 15006MPS 9999 BKN021 11/08 Q1010 NOSIG
RMK TURB: MOD SFC/FL20
AUTOTAF.ME UHSN 260400Z 2605/2614 14007MPS 9999 BKN024 TX12/2605Z TN09/2609Z
BECMG 2607/2608 BKN014
FM260900 15005MPS 9999 VCSH BKN011CB
FM261000 16004MPS 9999 BKN030CB
TEMPO 2610/2611 VCTS
FM261100 16004MPS 9999 VCTS NSC
FM261300 18004MPS 9999 TS BKN007 BKN010CB
FM261400 19004MPS 9999 -TSRA SCT079CB
 
Зональное
 


NOWCAST.SU UHSO 260600Z 18004MPS 9999 BKN043 17/09 Q1010 NOSIG
RMK TURB: MOD FL10/FL20 MOD SFC/FL40
AUTOTAF.ME UHSO 260400Z 2605/2614 19004MPS CAVOK TX17/2605Z TN10/2611Z
BECMG 2605/2606 BKN043
BECMG 2608/2609 BKN019
BECMG 2611/2612 BKN012
 
Южно-Сахалинск (Хомутово)
METAR UHSS 260530Z 19006MPS 9999 SCT011 17/15 Q1013 R19/70D NOSIG RMK MT OBSC QFE759/1012


NOWCAST.SU UHSS 260600Z 20004MPS 9999 BKN036 18/12 Q1013 NOSIG
RMK TURB: MOD SFC/FL50
AUTOTAF.ME UHSS 260400Z 2605/2614 20004MPS 9999 BKN042 TX19/2605Z TN11/2612Z
BECMG 2607/2608 BKN013
BECMG 2609/2610 NSC
FM261100 VRB02MPS 7000 BR NSC
FM261200 VRB02MPS 0400 FG NSC
BECMG 2612/2613 100
TAF UHSS 260150Z 2603/2709 20003G08MPS 9999 SCT030CB=
Одопту
 


NOWCAST.SU UHSU 260600Z 15007MPS 9999 BKN024 09/06 Q1011 NOSIG
RMK ICE: FBL FL120/FL190 TURB: MOD SFC/FL20
AUTOTAF.ME UHSU 260400Z 2605/2614 15006MPS 9999 BKN025 TX10/2611Z TN09/2605Z
BECMG 2610/2611 BKN016
FM261200 16008MPS 5000 VCSH BR OVC015CB
BECMG 2612/2613 -SHRA BR
FM261400 16008MPS 9999 BKN010CB
 
Порт Восточный
 


NOWCAST.SU UHTK 260600Z VRB02MPS 9999 SKC 19/13 Q1015 NOSIG
RMK TURB: MOD SFC/FL30
AUTOTAF.ME UHTK 260400Z 2605/2614 22003MPS CAVOK TX19/2605Z TN13/2613Z
BECMG 2609/2610 VRB02MPS
 
Самарга
 


NOWCAST.SU UHTS 260600Z 18003MPS 9999 FEW260 17/11 Q1010 NOSIG
RMK TURB: MOD FL50/FL70
AUTOTAF.ME UHTS 260400Z 2605/2614 18003MPS CAVOK TX18/2605Z TN12/2613Z
BECMG 2607/2608 VRB02MPS
 
Арсеньев
 


NOWCAST.SU UHWA 260600Z 29004MPS 9999 SKC 21/11 Q1016 NOSIG
RMK TURB: MOD SFC/FL50
AUTOTAF.ME UHWA 260400Z 2605/2614 29004MPS 9999 BKN027 TX21/2605Z TN11/2613Z
BECMG 2605/2606 NSC
BECMG 2609/2610 VRB02MPS
 
Остров Русский (Аякс)
 


NOWCAST.SU UHWH 260600Z 17003MPS 9999 SKC 19/14 Q1015 NOSIG
AUTOTAF.ME UHWH 260400Z 2605/2614 VRB02MPS CAVOK TX19/2605Z TN17/2614Z  
Кавалерово
 


NOWCAST.SU UHWK 260600Z 29005G10MPS 9999 BKN059 20/09 Q1016 NOSIG
RMK TURB: MOD FL40/FL70
AUTOTAF.ME UHWK 260400Z 2605/2614 29005G10MPS CAVOK TX21/2605Z TN09/2614Z  
Озерные Ключи
 


NOWCAST.SU UHWL 260600Z VRB02MPS 9999 SCT065 22/12 Q1015 NOSIG
RMK TURB: MOD SFC/FL70
AUTOTAF.ME UHWL 260400Z 2605/2614 VRB02MPS 9999 SCT033 TX22/2605Z TN13/2613Z
BECMG 2605/2606 NSC
FM261300 VRB02MPS 3000 BR OVC005
 
Уссурийск (Барановский)
 


NOWCAST.SU UHWU 260600Z VRB02MPS 9999 SKC 23/12 Q1015 NOSIG
RMK TURB: MOD SFC/FL40
AUTOTAF.ME UHWU 260400Z 2605/2614 26003MPS CAVOK TX23/2605Z TN13/2614Z
BECMG 2608/2609 VRB02MPS
 
Владивосток (Кневичи)
METAR UHWW 260530Z VRB02MPS 9999 NSC 23/12 Q1014 R25L/0///70 NOSIG RMK QFE759


NOWCAST.SU UHWW 260600Z VRB02MPS 9999 SKC 22/12 Q1015 NOSIG
RMK TURB: MOD SFC/FL70
AUTOTAF.ME UHWW 260400Z 2605/2614 VRB02MPS 9999 SCT033 TX22/2605Z TN13/2613Z
BECMG 2605/2606 NSC
FM261300 VRB02MPS 3000 BR OVC005
TAF UHWW 260200Z 2603/2703 24003G08MPS 9999 SCT020
BECMG 2610/2612 12003MPS BKN016=
Чита (Кадала)
METAR UIAA 260530Z 18004MPS 150V230 9999 SCT043CB 08/M03 Q1013 R29/CLRD70 NOSIG RMK QFE701/0935


NOWCAST.SU UIAA 260600Z VRB02MPS 9999 VCSH BKN030CB 07/M02 Q1012 NOSIG
RMK ICE: MOD FL190/FL200 FBL FL150/FL170 TURB: MOD FL50/FL60
AUTOTAF.ME UIAA 260400Z 2605/2614 VRB02MPS 9999 BKN027 TX08/2607Z TN03/2613Z
FM260600 VRB02MPS 9999 VCSH BKN030CB
FM260800 VRB02MPS CAVOK
TAF UIAA 260200Z 2603/2703 23003G08MPS 9999 BKN033CB
TEMPO 2603/2618 17005G10MPS 3100 -SHRASN
TEMPO 2618/2703 29005G10MPS 3100 -SHSNRA OVC014CB=
Краснокаменск
 


NOWCAST.SU UIAE 260600Z VRB02MPS 9999 BKN014 09/M01 Q1014 NOSIG
RMK TURB: MOD SFC/FL90
AUTOTAF.ME UIAE 260400Z 2605/2614 VRB02MPS 9999 -RA BKN042 TX10/2607Z TN01/2614Z
FM260600 VRB02MPS 9999 BKN014
BECMG 2606/2607 SCT024
BECMG 2608/2609 NSC
BECMG 2613/2614 16003MPS
 
Могоча
 


NOWCAST.SU UIAM 260600Z 27003MPS 9999 BKN065 08/M07 Q1012 NOSIG
RMK ICE: FBL FL110/FL120 TURB: MOD SFC/FL110
AUTOTAF.ME UIAM 260400Z 2605/2614 28003MPS CAVOK TX08/2605Z TN01/2612Z
BECMG 2608/2609 VRB02MPS
BECMG 2613/2614 BKN042
 
Чара
 


NOWCAST.SU UIAR 260600Z VRB02MPS 9999 FEW080 05/M08 Q1011 NOSIG
RMK ICE: FBL FL90/FL110 TURB: MOD FL50/FL70
AUTOTAF.ME UIAR 260400Z 2605/2614 VRB02MPS CAVOK TX05/2605Z TNM02/2613Z  
Газимурский завод
 


NOWCAST.SU UIAS 260600Z VRB02MPS 9999 BKN040 07/M03 Q1014 NOSIG
RMK ICE: FBL FL70/FL80 TURB: MOD FL50/FL150
AUTOTAF.ME UIAS 260400Z 2605/2614 VRB02MPS 9999 -RASN BKN040 TX07/2606Z TN01/2613Z
BECMG 2608/2609 NSC
BECMG 2610/2611 OVC027
BECMG 2613/2614 NSC
 
Братск
METAR UIBB 260530Z 10003MPS 070V150 4300 -SHSN BKN001 OVC020CB 01/01 Q0998 R30/650145 NOSIG RMK QBB050 MT OBSC QFE706/0942


NOWCAST.SU UIBB 260600Z VRB02MPS 1000 SN OVC020 03/02 Q1002 NOSIG
RMK ICE: SEV FL30/FL90 FBL FL110/FL120 TURB: MOD SFC/FL150
AUTOTAF.ME UIBB 260400Z 2605/2614 VRB02MPS 1500 SN OVC019 TX03/2605Z TN02/2612Z
BECMG 2605/2606 1000
BECMG 2606/2607 1500
FM260800 VRB02MPS 2000 SHSN OVC021CB
FM260900 VRB02MPS 9999 -SHSN OVC021CB
BECMG 2609/2610 27003MPS
FM261100 27004MPS 2000 SN OVC019
TAF AMD UIBB 260207Z 2602/2703 12005MPS 0900 +SHSNRA BKN001 BKN016CB
TEMPO 2603/2609 0300 +SHSNRA
BECMG 2607/2609 22005G12MPS
FM260900 28006G12MPS 2900 -SHSNRA BKN005 BKN016CB
TEMPO 2609/2618 0700 +SHSN VV001
BECMG 2618/2620 9999 NSW BKN016CB=
Железногорск-Илимский
 


NOWCAST.SU UIBV 260600Z VRB02MPS 1000 SN OVC013 02/02 Q1002 NOSIG
RMK ICE: MOD FL50/FL150 FBL FL30/FL40
AUTOTAF.ME UIBV 260400Z 2605/2614 VRB02MPS 1500 SN OVC014 TX02/2605Z TN01/2613Z
BECMG 2605/2606 1000
BECMG 2607/2608 1500
BECMG 2610/2611 2000
FM261200 26003MPS 3000 -SN BR OVC005
FM261400 27003MPS 2000 SN BR OVC005
 
Хилок
 


NOWCAST.SU UICH 260600Z 16003MPS 9999 SCT016 11/M01 Q1009 NOSIG
RMK TURB: MOD FL70/FL80
AUTOTAF.ME UICH 260400Z 2605/2614 16003MPS CAVOK TX12/2607Z TN05/2613Z
BECMG 2605/2606 SCT016
BECMG 2606/2607 SCT036
BECMG 2607/2608 NSC
FM260900 VRB02MPS CAVOK
 
Белая
 


NOWCAST.SU UIIB 260600Z VRB02MPS 9999 OVC064 13/05 Q1002 NOSIG
RMK ICE: SEV FL170/FL180 MOD FL110/FL190 TURB: MOD FL40/FL110
AUTOTAF.ME UIIB 260400Z 2605/2614 14003MPS CAVOK TX13/2606Z TN07/2614Z
BECMG 2606/2607 -RA
FM260800 VRB02MPS 9999 -RA OVC030
BECMG 2608/2609 OVC017
BECMG 2611/2612 35003MPS
 
Хужир
 


NOWCAST.SU UIIH 260600Z 04005MPS 9999 OVC045 07/01 Q1006 NOSIG
RMK ICE: SEV FL120/FL150 MOD FL110/FL190 FBL FL50/FL90 TURB: MOD FL50/FL70 MOD SFC/FL40
AUTOTAF.ME UIIH 260400Z 2605/2614 06005MPS CAVOK TX08/2607Z TN07/2605Z
BECMG 2605/2606 OVC045
BECMG 2609/2610 -RA
FM261100 VRB02MPS 9999 -RA OVC016
FM261400 VRB02MPS 5000 -RA BR BKN013
 
Иркутск
METAR UIII 260530Z 17007MPS CAVOK 16/03 Q1000 R12/CLRD60 NOSIG RMK QFE708/0945


NOWCAST.SU UIII 260600Z 18004MPS 9999 OVC075 15/04 Q1002 NOSIG
RMK ICE: MOD FL120/FL190 TURB: MOD FL40/FL110
AUTOTAF.ME UIII 260400Z 2605/2614 18005MPS CAVOK TX16/2607Z TN09/2614Z
BECMG 2607/2608 VRB02MPS
FM261100 VRB02MPS 9999 -RA OVC046
BECMG 2612/2613 OVC014
BECMG 2613/2614 36004MPS
TAF UIII 260200Z 2603/2703 15006G13MPS 9999 SCT040CB
BECMG 2608/2610 31006G11MPS
TEMPO 2610/2624 32011G16MPS BKN004 BKN009CB=
Кырен
 


NOWCAST.SU UIIN 260600Z 25009MPS 9999 FEW250 15/03 Q1011 NOSIG
RMK TURB: MOD FL120/FL140 MOD FL90/FL110
AUTOTAF.ME UIIN 260400Z 2605/2614 25009G14MPS CAVOK TX16/2608Z TN08/2614Z
FM260900 26011G16MPS 9999 VCSH BKN085CB
FM261300 25007G13MPS CAVOK
 
Иркутск-2 (Восточный)
 


NOWCAST.SU UIIR 260600Z 15003MPS 9999 BKN080 16/05 Q1001 NOSIG
RMK ICE: FBL FL120/FL190 TURB: MOD FL40/FL110
AUTOTAF.ME UIIR 260400Z 2605/2614 15004MPS CAVOK TX17/2607Z TN09/2613Z
BECMG 2606/2607 VRB02MPS
BECMG 2609/2610 OVC048
FM261200 VRB02MPS 9999 -RA OVC016
BECMG 2612/2613 BKN010
 
Качуг
 


NOWCAST.SU UIIX 260600Z VRB02MPS 9999 -RA OVC043 05/02 Q1004 NOSIG
RMK ICE: MOD FL70/FL190
AUTOTAF.ME UIIX 260400Z 2605/2614 VRB02MPS 9999 -RA OVC027 TX06/2608Z TN04/2605Z
FM260800 VRB02MPS 3000 -RA BR BKN005
FM260900 VRB02MPS 2000 RA BR OVC005
FM261200 VRB02MPS 1000 RA BR BKN003
FM261300 VRB02MPS 9999 -RA BKN012
BECMG 2613/2614 25003MPS
 
Бодайбо
 


NOWCAST.SU UIKB 260600Z 14003MPS 9999 FEW095 05/M05 Q1009 NOSIG
RMK ICE: FBL FL70/FL80 TURB: MOD SFC/FL70
AUTOTAF.ME UIKB 260400Z 2605/2614 VRB02MPS CAVOK TX05/2606Z TN00/2614Z
BECMG 2610/2611 SCT040
BECMG 2612/2613 NSC
 
Таксимо
 


NOWCAST.SU UIKG 260600Z VRB02MPS 9999 FEW270 06/M07 Q1010 NOSIG
RMK ICE: FBL FL90/FL100 TURB: MOD FL50/FL70
AUTOTAF.ME UIKG 260400Z 2605/2614 VRB02MPS CAVOK TX06/2606Z TN00/2613Z  
Киренск
 


NOWCAST.SU UIKK 260600Z 13003MPS 9999 BKN021 05/M03 Q1006 NOSIG
RMK ICE: FBL FL150/FL170 TURB: MOD SFC/FL70
AUTOTAF.ME UIKK 260400Z 2605/2614 14003MPS 9999 SCT014 TX05/2605Z TN01/2614Z
BECMG 2605/2606 BKN021
BECMG 2606/2607 -RA
BECMG 2608/2609 NSC
FM261000 VRB02MPS 9999 -RA OVC046
FM261200 VRB02MPS 3000 -RA BR OVC005
FM261300 VRB02MPS 1500 RASN BR OVC005
FM261400 VRB02MPS 1000 RASN BR OVC005
 
Нижнеудинск
 


NOWCAST.SU UINN 260600Z 29004MPS 9999 -RA BKN016 07/05 Q1003 NOSIG
RMK ICE: SEV FL90/FL100 MOD FL50/FL70
AUTOTAF.ME UINN 260400Z 2605/2614 29004MPS 9999 -RA BKN014 TX07/2605Z TN02/2613Z
FM260700 29005G11MPS 9999 BKN020
BECMG 2607/2608 29009G15MPS
BECMG 2608/2609 BKN026
BECMG 2609/2610 -RA
FM261100 31009G15MPS 2000 RASN OVC032
FM261200 31005G11MPS 1500 RASN BR OVC034
FM261300 31005G11MPS 2000 RASN BR OVC034
FM261400 30004MPS 2000 RASN OVC033
 
Казачинск
 


NOWCAST.SU UITK 260600Z 16004MPS 9999 BKN045 05/M02 Q1004 NOSIG
RMK ICE: MOD FL50/FL190 TURB: MOD FL40/FL50
AUTOTAF.ME UITK 260400Z 2605/2614 16004MPS CAVOK TX05/2606Z TN03/2608Z
BECMG 2605/2606 BKN045
FM260700 16004MPS 2000 RASN BKN034
BECMG 2607/2608 1500
FM260900 VRB02MPS 1000 RASN BR OVC005
BECMG 2611/2612 OVC003
FM261400 23003MPS 1000 RASN BR OVC018
 
Усть-Кут
 


NOWCAST.SU UITT 260600Z 14003MPS 9999 -SN BKN028 03/M01 Q1003 NOSIG
RMK ICE: SEV FL110/FL120 MOD FL50/FL190 FBL FL40/FL50 TURB: MOD FL220/FL230 MOD FL40/FL50
AUTOTAF.ME UITT 260400Z 2605/2614 13003MPS 9999 BKN026TCU TX03/2605Z TN01/2612Z
BECMG 2605/2606 -SN
FM260700 VRB02MPS 2000 SN BKN024
BECMG 2607/2608 1500
BECMG 2608/2609 1000
FM261000 VRB02MPS 1500 SN OVC021
FM261100 VRB02MPS 1500 SN OVC021
FM261200 VRB02MPS 2000 SN OVC021
FM261300 VRB02MPS 2000 SN BR OVC021
FM261400 27003MPS 2000 SN BR OVC021
 
Бичура
 


NOWCAST.SU UIUA 260600Z 23005MPS 9999 FEW120 15/03 Q1007 NOSIG
RMK TURB: MOD SFC/FL60
AUTOTAF.ME UIUA 260400Z 2605/2614 22004MPS CAVOK TX16/2607Z TN11/2612Z  
Улан-Удэ (Байкал)
METAR UIUU 260530Z 10002MPS 9999 NSC 13/02 Q1007 R26/190060 NOSIG RMK QFE711/0948


NOWCAST.SU UIUU 260600Z 18004MPS 9999 SCT047 12/02 Q1007 NOSIG
RMK ICE: FBL FL190/FL200 TURB: MOD FL50/FL60
AUTOTAF.ME UIUU 260400Z 2605/2614 17004MPS 9999 SCT043 TX13/2607Z TN07/2614Z
BECMG 2607/2608 NSC
BECMG 2610/2611 VRB02MPS
TAF UIUU 260200Z 2603/2703 10003G08MPS 9999 SCT040CB
TEMPO 2605/2615 32005MPS
BECMG 2615/2617 32008G13MPS OVC011CB=
Кабанск
 


NOWCAST.SU UIUX 260600Z VRB02MPS 9999 SCT030TCU 15/03 Q1005 NOSIG
RMK ICE: MOD FL150/FL170 FBL FL120/FL190 TURB: MOD SFC/FL50
AUTOTAF.ME UIUX 260400Z 2605/2614 VRB02MPS 9999 SCT047TCU TX16/2608Z TN07/2614Z
BECMG 2606/2607 NSC
BECMG 2610/2611 03003MPS
 
Александрия
 


NOWCAST.SU UKBA 260600Z 20004MPS 9999 BKN060 12/07 Q1015 NOSIG
RMK ICE: MOD FL110/FL150
AUTOTAF.ME UKBA 260400Z 2605/2614 20003MPS CAVOK TX20/2611Z TN10/2605Z
BECMG 2607/2608 BKN033
FM260900 21008G13MPS 9999 VCSH BKN040CB
FM261000 21009G14MPS 9999 BKN045TCU
 
Киев (Борисполь)
 


NOWCAST.SU UKBB 260600Z 15003MPS 9999 -RA OVC013 10/07 Q1012 NOSIG
RMK ICE: SEV FL110/FL120 MOD FL90/FL170 FBL FL190/FL200
AUTOTAF.ME UKBB 260400Z 2605/2614 16003MPS 9999 -RA OVC013 TX15/2612Z TN10/2605Z
FM261000 VRB02MPS 9999 OVC020
BECMG 2611/2612 BKN031TCU
BECMG 2612/2613 VRB02MPS
 
Белая Церковь
 


NOWCAST.SU UKBC 260600Z 20003MPS 9999 -RA OVC012 11/07 Q1012 NOSIG
RMK ICE: SEV FL90/FL120
AUTOTAF.ME UKBC 260400Z 2605/2614 20003MPS 9999 -RA OVC011 TX18/2612Z TN10/2605Z
FM260800 VRB02MPS 9999 OVC042
BECMG 2608/2609 VRB02MPS
FM261100 VRB02MPS 9999 VCSH BKN041CB
FM261400 07003MPS 9999 OVC042
 
Конотоп
 


NOWCAST.SU UKBF 260600Z 20003MPS 9999 OVC028 10/06 Q1013 NOSIG
RMK ICE: MOD FL90/FL190
AUTOTAF.ME UKBF 260400Z 2605/2614 20003MPS 9999 BKN028 TX12/2613Z TN09/2605Z
FM260700 19003MPS 9999 -RA OVC018
FM261100 17003MPS 5000 -RA BR OVC021
FM261200 17003MPS 9999 -RA OVC021
BECMG 2613/2614 OVC024
 
Кировоград (Фёдоровка)
 


NOWCAST.SU UKBK 260600Z 19004MPS 9999 BKN070 12/08 Q1014 NOSIG
RMK ICE: FBL FL110/FL150
AUTOTAF.ME UKBK 260400Z 2605/2614 19003MPS CAVOK TX20/2610Z TN11/2605Z
BECMG 2607/2608 BKN036
BECMG 2608/2609 20009G14MPS
FM261100 19010G15MPS 9999 -SHRA BKN048CB
FM261400 18009G14MPS 9999 BKN041
 
Киев (Наливайковка)
 


NOWCAST.SU UKBN 260600Z VRB02MPS 9999 -RA OVC011 10/09 Q1012 NOSIG
RMK ICE: MOD FL90/FL190 TURB: MOD FL300/FL320
AUTOTAF.ME UKBN 260400Z 2605/2614 VRB02MPS 9999 -RA OVC011 TX15/2612Z TN10/2605Z
BECMG 2607/2608 OVC015
BECMG 2609/2610 OVC023
FM261100 VRB02MPS 9999 BKN024CB
TEMPO 2611/2612 VRB08G13MPS VCTS
FM261200 VRB02MPS 9999 -RA OVC025
 
Донецк
 


NOWCAST.SU UKCC 260600Z 22003MPS 9999 FEW160 14/09 Q1017 NOSIG
RMK ICE: FBL FL120/FL190
AUTOTAF.ME UKCC 260400Z 2605/2614 22003MPS CAVOK TX19/2609Z TN12/2605Z
BECMG 2607/2608 BKN041
 
Краматорск
 


NOWCAST.SU UKCK 260600Z 23004MPS 9999 BKN059 14/07 Q1017 NOSIG
RMK ICE: MOD FL90/FL100 FBL FL150/FL190
AUTOTAF.ME UKCK 260400Z 2605/2614 22004MPS CAVOK TX20/2610Z TN12/2605Z
BECMG 2606/2607 BKN044
FM260900 23005G10MPS 9999 VCSH BKN027CB
 
Мариуполь
 


NOWCAST.SU UKCM 260600Z 25004MPS 9999 VCSH BKN024CB 17/12 Q1018 NOSIG
RMK ICE: FBL FL150/FL190
AUTOTAF.ME UKCM 260400Z 2605/2614 26004MPS 9999 VCSH BKN021CB TX18/2608Z TN16/2605Z
FM260800 22005MPS 9999 BKN031
BECMG 2611/2612 20005MPS
BECMG 2612/2613 NSC
 
Северодонецк
 


NOWCAST.SU UKCS 260600Z 24003MPS 9999 BKN050 13/05 Q1017 NOSIG
RMK ICE: MOD FL90/FL100 FBL FL190/FL200 TURB: MOD SFC/FL70
AUTOTAF.ME UKCS 260400Z 2605/2614 23003MPS CAVOK TX20/2610Z TN12/2605Z
BECMG 2607/2608 BKN031TCU
FM261000 25005G10MPS 9999 VCSH BKN031CB
FM261100 25004MPS 9999 BKN047TCU
FM261300 24003MPS 9999 VCSH BKN031CB
 
Луганск
 


NOWCAST.SU UKCW 260600Z 24003MPS 9999 FEW200 15/05 Q1017 NOSIG
RMK ICE: FBL FL90/FL190 TURB: MOD SFC/FL70
AUTOTAF.ME UKCW 260400Z 2605/2614 24003MPS CAVOK TX20/2610Z TN13/2605Z
BECMG 2606/2607 BKN043
BECMG 2607/2608 NSC
BECMG 2608/2609 BKN043TCU
FM261400 23004MPS 9999 VCSH BKN043CB
 
Бердянск
 


NOWCAST.SU UKDB 260600Z 24004MPS 9999 VCSH BKN026CB 17/12 Q1018 NOSIG
RMK ICE: MOD FL170/FL190 FBL FL150/FL160 TURB: MOD SFC/FL20
AUTOTAF.ME UKDB 260400Z 2605/2614 24003MPS 9999 VCSH OVC070CB TX20/2611Z TN16/2605Z
BECMG 2605/2606 BKN026CB
FM260800 22005MPS 9999 BKN037
FM261400 18004MPS 9999 VCSH SCT033CB
 
Днепр
 


NOWCAST.SU UKDD 260600Z 21003MPS 9999 BKN030 15/11 Q1015 NOSIG
RMK ICE: FBL FL90/FL170 TURB: MOD SFC/FL20
AUTOTAF.ME UKDD 260400Z 2605/2614 20003MPS 9999 BKN026 TX20/2611Z TN13/2605Z
BECMG 2611/2612 NSC
FM261400 21004MPS 9999 VCSH SCT044CB
 
Запорожье (Мокрая)
 


NOWCAST.SU UKDE 260600Z 21005MPS 9999 BKN020 16/12 Q1016 NOSIG
RMK ICE: MOD FL110/FL120 TURB: MOD SFC/FL20
AUTOTAF.ME UKDE 260400Z 2605/2614 20004MPS 9999 BKN020 TX20/2610Z TN14/2605Z
FM260800 22007MPS 9999 -SHRA BKN034CB
FM261100 22007MPS 9999 BKN045
BECMG 2611/2612 NSC
 
Мелитополь
 


NOWCAST.SU UKDM 260600Z 22004MPS 9999 OVC075 16/10 Q1017 NOSIG
RMK ICE: FBL FL150/FL190 TURB: MOD SFC/FL120
AUTOTAF.ME UKDM 260400Z 2605/2614 22004MPS 9999 -RA BKN019 TX21/2612Z TN15/2605Z
FM260600 22004MPS CAVOK
 
Кривой Рог (Лозоватка)
 


NOWCAST.SU UKDR 260600Z 22004MPS 9999 BKN079 14/11 Q1015 NOSIG
RMK TURB: MOD SFC/FL20
AUTOTAF.ME UKDR 260400Z 2605/2614 22003MPS CAVOK TX21/2610Z TN12/2605Z
BECMG 2606/2607 BKN023
BECMG 2608/2609 20008G13MPS
BECMG 2612/2613 NSC
FM261400 20009G14MPS 9999 VCSH BKN047CB
 
Днепропетровск (Майское)
 


NOWCAST.SU UKEM 260600Z 21004MPS 9999 BKN030 15/11 Q1016 NOSIG
RMK ICE: FBL FL110/FL170 TURB: MOD SFC/FL20
AUTOTAF.ME UKEM 260400Z 2605/2614 21004MPS 9999 BKN024 TX20/2611Z TN13/2605Z
BECMG 2608/2609 24009G14MPS
FM261200 22005MPS 9999 VCSH BKN029CB
BECMG 2613/2614 21004MPS
 
Бахчисарай
 


NOWCAST.SU UKFC 260600Z 12003MPS 9999 FEW210 13/11 Q1019 NOSIG
AUTOTAF.ME UKFC 260400Z 2605/2614 12003MPS CAVOK TX19/2610Z TN12/2605Z  
Simferopol'
 


NOWCAST.SU UKFF 260600Z 16003MPS 9999 OVC159 14/09 Q1017 NOSIG
RMK ICE: FBL FL190/FL200
AUTOTAF.ME UKFF 260400Z 2605/2614 17003MPS CAVOK TX22/2611Z TN12/2605Z
BECMG 2612/2613 23003MPS
BECMG 2613/2614 FEW027
 
Симферополь (Гвардейское)
 


NOWCAST.SU UKFG 260600Z VRB02MPS 9999 OVC185 14/09 Q1017 NOSIG
AUTOTAF.ME UKFG 260400Z 2605/2614 VRB02MPS CAVOK TX22/2611Z TN12/2605Z
BECMG 2608/2609 SCT021
BECMG 2610/2611 NSC
FM261200 30003MPS 9999 FEW044
BECMG 2613/2614 NSC
 
Севастополь (Бухта Круглая)
 


NOWCAST.SU UKFS 260600Z 14007MPS 9999 SCT042 19/14 Q1017 NOSIG
RMK ICE: FBL FL250/FL260 TURB: MOD SFC/FL30
AUTOTAF.ME UKFS 260400Z 2605/2614 14007MPS 9999 SCT039 TX21/2612Z TN19/2605Z
BECMG 2609/2610 NSC
 
Харьков (Северный)
 


NOWCAST.SU UKHD 260600Z 24003MPS 9999 BKN042 12/05 Q1015 NOSIG
RMK ICE: MOD FL90/FL100 FBL FL150/FL190
AUTOTAF.ME UKHD 260400Z 2605/2614 24003MPS CAVOK TX17/2610Z TN11/2605Z
BECMG 2605/2606 BKN042
BECMG 2606/2607 NSC
BECMG 2607/2608 BKN045
 
Харьков (Основа)
 


NOWCAST.SU UKHH 260600Z 24003MPS 9999 BKN043 12/06 Q1015 NOSIG
RMK ICE: MOD FL90/FL100 FBL FL150/FL190
AUTOTAF.ME UKHH 260400Z 2605/2614 24003MPS CAVOK TX17/2610Z TN11/2605Z
BECMG 2605/2606 BKN043
BECMG 2606/2607 NSC
BECMG 2607/2608 BKN044
 
Кременчуг (Большая Кахновка)
 


NOWCAST.SU UKHK 260600Z VRB02MPS 9999 BKN062 12/07 Q1015 NOSIG
RMK ICE: SEV FL110/FL120 MOD FL90/FL150 FBL FL170/FL180
AUTOTAF.ME UKHK 260400Z 2605/2614 VRB02MPS CAVOK TX21/2612Z TN10/2605Z
BECMG 2608/2609 SCT048TCU
BECMG 2609/2610 NSC
FM261100 21004MPS 9999 VCSH BKN030CB
BECMG 2611/2612
TEMPO 2612/2613 VRB11G16MPS VCTS
TEMPO 2613/2615 VRB14G19MPS VCTS
 
Полтава-национальный (Супруновка)
 


NOWCAST.SU UKHP 260600Z 17003MPS 9999 OVC060 11/06 Q1015 NOSIG
RMK ICE: MOD FL110/FL190 FBL FL90/FL100
AUTOTAF.ME UKHP 260400Z 2605/2614 VRB02MPS CAVOK TX19/2612Z TN09/2605Z
FM261200 20004MPS 9999 VCSH BKN028CB
FM261400 20005G11MPS 9999 BKN049TCU
 
Сумы
 


NOWCAST.SU UKHS 260600Z VRB02MPS 9999 BKN026 10/05 Q1014 NOSIG
RMK ICE: MOD FL90/FL150 FBL FL110/FL190
AUTOTAF.ME UKHS 260400Z 2605/2614 VRB02MPS 9999 BKN042 TX14/2609Z TN09/2605Z
FM260900 22003MPS 9999 VCSH BKN029CB
FM261100 VRB02MPS 9999 BKN027TCU
BECMG 2611/2612 -RA
 
Чугуев
 


NOWCAST.SU UKHW 260600Z 24003MPS 9999 BKN044 12/06 Q1015 NOSIG
RMK ICE: MOD FL90/FL100 FBL FL170/FL190
AUTOTAF.ME UKHW 260400Z 2605/2614 24003MPS 9999 BKN044 TX17/2610Z TN10/2605Z
BECMG 2606/2607 NSC
BECMG 2607/2608 BKN047
 
Черкассы
 


NOWCAST.SU UKKE 260600Z VRB02MPS 9999 BKN045 11/05 Q1014 NOSIG
RMK ICE: SEV FL110/FL120 MOD FL90/FL120 FBL FL150/FL160
AUTOTAF.ME UKKE 260400Z 2605/2614 VRB02MPS 9999 BKN045 TX21/2612Z TN10/2605Z
BECMG 2606/2607 NSC
FM261100 18004MPS 9999 BKN029CB
TEMPO 2611/2614 VRB11G16MPS VCTS
 
Кировоград
 


NOWCAST.SU UKKG 260600Z 19004MPS 9999 BKN059 12/07 Q1014 NOSIG
RMK ICE: MOD FL110/FL120 FBL FL150/FL160
AUTOTAF.ME UKKG 260400Z 2605/2614 19003MPS CAVOK TX20/2610Z TN10/2605Z
BECMG 2607/2608 BKN032
BECMG 2608/2609 20008G13MPS
FM261200 19010G15MPS 9999 BKN027CB
TEMPO 2612/2614 VRB14G19MPS VCTS
BECMG 2613/2614 VCSH
 
Киев (Жуляны им. И.И.Сикорского)
 


NOWCAST.SU UKKK 260600Z 17003MPS 9999 -RA OVC011 10/08 Q1012 NOSIG
RMK ICE: MOD FL90/FL190
AUTOTAF.ME UKKK 260400Z 2605/2614 18003MPS 9999 -RA OVC011 TX15/2612Z TN10/2605Z
FM260900 VRB02MPS 9999 OVC019
BECMG 2610/2611 -RA
BECMG 2611/2612 VRB02MPS
FM261300 VRB02MPS 9999 VCSH BKN026CB
FM261400 VRB02MPS 9999 OVC040
 
Киев (Киев/Антонов Международный)
 


NOWCAST.SU UKKM 260600Z 19003MPS 5000 -RA BR OVC012 10/09 Q1012 NOSIG
RMK ICE: MOD FL90/FL190
AUTOTAF.ME UKKM 260400Z 2605/2614 19003MPS 2000 RA BR OVC005 TX15/2612Z TN10/2605Z
FM260600 19003MPS 5000 -RA BR OVC012
FM260900 20003MPS 9999 OVC019
FM261100 VRB02MPS 9999 BKN021CB
TEMPO 2611/2612 VRB08G13MPS VCTS
FM261200 VRB02MPS 9999 VCSH BKN024CB
BECMG 2613/2614
 
Житомир (Смаковка)
 


NOWCAST.SU UKKV 260600Z 19003MPS 5000 -RA BR OVC010 11/10 Q1011 NOSIG
RMK ICE: MOD FL90/FL150 FBL FL170/FL180 TURB: MOD FL320/FL330
AUTOTAF.ME UKKV 260400Z 2605/2614 20003MPS 3000 -RA BR OVC005 TX15/2612Z TN10/2605Z
FM260600 19003MPS 5000 -RA BR OVC010
FM260800 20003MPS 9999 -RA OVC018
BECMG 2610/2611 -RA
BECMG 2611/2612 VRB02MPS
 
Самбор (Калинов)
 


NOWCAST.SU UKLA 260600Z VRB02MPS 9999 -RA OVC022 12/09 Q1009 NOSIG
RMK ICE: MOD FL110/FL190
AUTOTAF.ME UKLA 260400Z 2605/2614 VRB02MPS 9999 -RA OVC022 TX13/2609Z TN12/2605Z
BECMG 2611/2612 6000
BECMG 2612/2613 9999
 
Ивано-Франковск
 


NOWCAST.SU UKLI 260600Z VRB02MPS 9999 -RA OVC038 10/08 Q1010 NOSIG
RMK ICE: MOD FL110/FL190 TURB: MOD FL50/FL60
AUTOTAF.ME UKLI 260400Z 2605/2614 VRB02MPS 9999 -RA OVC038 TX12/2608Z TN10/2605Z
BECMG 2606/2607 BKN020
BECMG 2608/2609 8000
BECMG 2609/2610 9999
FM261300 VRB02MPS 9999 OVC017CB
TEMPO 2613/2615 VCTS
 
Львов (Международный)
 


NOWCAST.SU UKLL 260600Z 20003MPS 9999 OVC014 11/10 Q1010 NOSIG
RMK ICE: MOD FL90/FL170 TURB: MOD FL250/FL280
AUTOTAF.ME UKLL 260400Z 2605/2614 20003MPS 9999 BKN015 TX14/2609Z TN11/2605Z
BECMG 2609/2610 BKN020TCU
BECMG 2611/2612 -RA
 
Черновцы
 


NOWCAST.SU UKLN 260600Z VRB02MPS 9999 -RA OVC055 10/07 Q1011 NOSIG
RMK ICE: MOD FL150/FL190 FBL FL110/FL120
AUTOTAF.ME UKLN 260400Z 2605/2614 VRB02MPS CAVOK TX15/2611Z TN09/2605Z
BECMG 2605/2606 -RA
BECMG 2606/2607 OVC045
 
Ровно
 


NOWCAST.SU UKLR 260600Z 19003MPS 9999 -RA OVC017 11/10 Q1010 NOSIG
RMK ICE: SEV FL90/FL120 MOD FL150/FL160 FBL FL190/FL200 TURB: MOD FL340/FL350
AUTOTAF.ME UKLR 260400Z 2605/2614 20003MPS 9999 -RA OVC014 TX15/2610Z TN11/2605Z
BECMG 2607/2608 BKN020
 
Староконстантинов
 


NOWCAST.SU UKLS 260600Z VRB02MPS 9999 OVC039 12/09 Q1011 NOSIG
RMK ICE: MOD FL90/FL170 FBL FL190/FL200 TURB: MOD FL340/FL350
AUTOTAF.ME UKLS 260400Z 2605/2614 VRB02MPS 9999 OVC039 TX15/2609Z TN11/2605Z
BECMG 2611/2612 27003MPS
BECMG 2612/2613 -RA
 
Ужгород
 


NOWCAST.SU UKLU 260600Z 15003MPS 3000 -SHRA BR BKN005 OVC010CB 11/10 Q1011 TEMPO FM0800 -SHRA
RMK ICE: MOD FL150/FL190 FBL FL110/FL120
AUTOTAF.ME UKLU 260400Z 2605/2614 14003MPS 9999 OVC016CB TX13/2614Z TN11/2605Z
TEMPO 2605/2606 VCTS
FM260600 15003MPS 3000 -SHRA BR BKN005 OVC010CB
BECMG 2607/2608 NSW
TEMPO 2608/2615 -TSRA
FM261400 VRB02MPS 9999 OVC017CB
 
Львовский аэропорт Ягеллон
 


NOWCAST.SU UKMC 260600Z VRB02MPS 9999 -RA OVC022 11/10 Q1009 NOSIG
RMK ICE: SEV FL120/FL130 MOD FL90/FL170 TURB: MOD FL250/FL260
AUTOTAF.ME UKMC 260400Z 2605/2614 VRB02MPS 9999 -RA BKN018 TX13/2608Z TN11/2605Z
BECMG 2607/2608 OVC024
BECMG 2611/2612 6000
BECMG 2612/2613 9999
 
Арциз (Червоноглинская)
 


NOWCAST.SU UKOA 260600Z 19008G13MPS 9999 BKN062 18/12 Q1013 NOSIG
RMK ICE: MOD FL110/FL120 FBL FL190/FL200 TURB: MOD SFC/FL20
AUTOTAF.ME UKOA 260400Z 2605/2614 19007G12MPS CAVOK TX25/2612Z TN17/2605Z  
Одесса (Гидропорт)
 


NOWCAST.SU UKOE 260600Z 19010G15MPS 9999 VCSH BKN028CB 18/13 Q1013 NOSIG
RMK ICE: MOD FL120/FL170 FBL FL110/FL150 TURB: MOD SFC/FL20
AUTOTAF.ME UKOE 260400Z 2605/2614 19010MPS 9999 BKN026 TX22/2609Z TN18/2605Z
FM260600 19010G15MPS 9999 VCSH BKN028CB
FM261200 18010G15MPS 9999 BKN036TCU
BECMG 2613/2614 NSC
 
Херсон (Чернобаевка)
 


NOWCAST.SU UKOH 260600Z 20008G13MPS 9999 VCSH BKN033CB 18/11 Q1015 NOSIG
RMK ICE: MOD FL150/FL160 FBL FL170/FL250 TURB: MOD SFC/FL30
AUTOTAF.ME UKOH 260400Z 2605/2614 20005G10MPS 9999 BKN030 TX21/2609Z TN17/2605Z
FM260600 20008G13MPS 9999 VCSH BKN033CB
FM260700 20008G13MPS 9999 BKN036
FM260900 20009G14MPS 9999 VCSH BKN042CB
FM261000 20009G14MPS 9999 BKN040
BECMG 2610/2611 NSC
 
Николаев (Международный)
 


NOWCAST.SU UKON 260600Z 20009G14MPS 9999 VCSH BKN028CB 18/12 Q1015 NOSIG
RMK ICE: MOD FL150/FL160 FBL FL120/FL170 TURB: MOD SFC/FL20
AUTOTAF.ME UKON 260400Z 2605/2614 20005G11MPS 9999 BKN025 TX21/2610Z TN18/2605Z
FM260600 20009G14MPS 9999 VCSH BKN028CB
FM260700 19009G14MPS 9999 BKN030
FM260900 19009G14MPS 9999 VCSH BKN033CB
FM261000 19010G15MPS CAVOK
BECMG 2610/2611 BKN038
 
Одесса (Центральный)
 


NOWCAST.SU UKOO 260600Z 19010G15MPS 9999 VCSH BKN029CB 19/13 Q1013 NOSIG
RMK ICE: MOD FL120/FL170 FBL FL110/FL150 TURB: MOD SFC/FL20
AUTOTAF.ME UKOO 260400Z 2605/2614 19010G15MPS 9999 VCSH BKN028CB TX22/2610Z TN18/2605Z
FM260700 19010G15MPS 9999 BKN033
FM261100 19011G16MPS 9999 VCSH BKN040CB
FM261200 18010G15MPS 9999 BKN036TCU
FM261400 18010G15MPS 9999 VCSH BKN030CB
 
Нежин
 


NOWCAST.SU UKRN 260600Z 19003MPS 9999 -RA OVC021 10/07 Q1013 NOSIG
RMK ICE: SEV FL120/FL150 MOD FL110/FL190 FBL FL90/FL100
AUTOTAF.ME UKRN 260400Z 2605/2614 19003MPS 9999 OVC020 TX12/2612Z TN09/2605Z
BECMG 2605/2606 -RA
FM260800 17003MPS 5000 -RA BR OVC016
FM261100 18003MPS 9999 -RA OVC022
 
Винница (Гавришовка)
 


NOWCAST.SU UKWW 260600Z 13003MPS 9999 BKN055 11/05 Q1011 NOSIG
RMK ICE: MOD FL90/FL150 FBL FL170/FL190
AUTOTAF.ME UKWW 260400Z 2605/2614 12003MPS CAVOK TX17/2609Z TN10/2605Z
BECMG 2607/2608 18003MPS
BECMG 2611/2612 BKN022TCU
FM261300 VRB02MPS 9999 -RA NSC
BECMG 2613/2614 OVC038
 
Архангельск (Талаги)
METAR ULAA 260530Z 09004MPS 060V140 9999 FEW030 05/01 Q1014 R08/CLRD70 NOSIG RMK QFE759/1012


NOWCAST.SU ULAA 260600Z 10004MPS 9999 FEW100 06/01 Q1014 NOSIG
AUTOTAF.ME ULAA 260400Z 2605/2614 10004MPS CAVOK TX09/2610Z TN06/2605Z TAF ULAA 260200Z 2603/2703 09003MPS 9999 BKN020
TEMPO 2603/2607 12003G09MPS 6000 -SHRA BKN016CB=
Северодвинск
 


NOWCAST.SU ULAD 260600Z 10004MPS 9999 BKN024 06/02 Q1014 NOSIG
AUTOTAF.ME ULAD 260400Z 2605/2614 10004MPS 9999 BKN023 TX09/2610Z TN06/2605Z
BECMG 2606/2607 NSC
 
Мезень
 


NOWCAST.SU ULAE 260600Z 13004MPS 9999 SCT290 03/M02 Q1018 NOSIG
AUTOTAF.ME ULAE 260400Z 2605/2614 13004MPS CAVOK TX08/2610Z TN02/2605Z  
Архангельск (Васьково)
 


NOWCAST.SU ULAH 260600Z 10004MPS 9999 FEW100 06/01 Q1014 NOSIG
AUTOTAF.ME ULAH 260400Z 2605/2614 10004MPS CAVOK TX09/2610Z TN06/2605Z  
Нарьян-Мар
 


NOWCAST.SU ULAM 260600Z 15004MPS 9999 OVC260 02/M04 Q1025 NOSIG
AUTOTAF.ME ULAM 260400Z 2605/2614 15004MPS CAVOK TX05/2609Z TN01/2605Z  
Шенкурск
 


NOWCAST.SU ULAN 260600Z 08004MPS 9999 BKN020 05/01 Q1011 NOSIG
RMK ICE: MOD FL30/FL120 FBL FL20/FL30 TURB: MOD SFC/FL20
AUTOTAF.ME ULAN 260400Z 2605/2614 07004MPS 9999 BKN018 TX08/2610Z TN04/2605Z
BECMG 2607/2608 BKN024TCU
 
Онега
 


NOWCAST.SU ULAO 260600Z 09004MPS 9999 -RA BKN017 07/05 Q1012 NOSIG
RMK ICE: SEV FL90/FL120 TURB: MOD SFC/FL20
AUTOTAF.ME ULAO 260400Z 2605/2614 09004MPS 9999 -RA OVC015 TX09/2609Z TN07/2605Z
BECMG 2606/2607 BKN022
FM260800 10004MPS CAVOK
BECMG 2608/2609 SCT032
BECMG 2610/2611 NSC
FM261200 11005MPS 9999 SCT033
 
Карпогоры
 


NOWCAST.SU ULAP 260600Z 11004MPS 9999 FEW350 04/M02 Q1016 NOSIG
RMK ICE: FBL FL20/FL30 TURB: MOD SFC/FL20
AUTOTAF.ME ULAP 260400Z 2605/2614 10004MPS CAVOK TX09/2610Z TN03/2605Z  
Каргополь
 


NOWCAST.SU ULAR 260600Z 06004MPS 9999 -RA OVC015 07/06 Q1008 NOSIG
RMK ICE: MOD FL120/FL190 FBL FL90/FL110
AUTOTAF.ME ULAR 260400Z 2605/2614 05004MPS 5000 -RA OVC013 TX07/2605Z TN05/2609Z
BECMG 2605/2606 9999
 
Соловки
 


NOWCAST.SU ULAS 260600Z 12005MPS 5000 BR BKN009 08/06 Q1013 NOSIG
RMK ICE: MOD FL90/FL100 FBL FL110/FL150
AUTOTAF.ME ULAS 260400Z 2605/2614 12005MPS 9999 BKN009 TX09/2611Z TN08/2605Z
FM260600 12005MPS 5000 BR BKN009
FM260700 11005MPS 9999 BKN010
BECMG 2607/2608 -DZ
FM260900 10004MPS 9999 -RA BKN012
BECMG 2609/2610 BKN017
FM261100 07004MPS 9999 BKN047
BECMG 2611/2612 SCT012
FM261300 08004MPS 9999 BKN021
 
Долгощелье
 


NOWCAST.SU ULBD 260600Z 13005MPS 9999 SCT310 04/M02 Q1018 NOSIG
AUTOTAF.ME ULBD 260400Z 2605/2614 13004MPS CAVOK TX08/2610Z TN03/2605Z  
Каменка
 


NOWCAST.SU ULBK 260600Z 13004MPS 9999 SCT290 03/M02 Q1018 NOSIG
AUTOTAF.ME ULBK 260400Z 2605/2614 13004MPS CAVOK TX08/2610Z TN02/2605Z  
Верхняя Золотица
 


NOWCAST.SU ULBW 260600Z 11004MPS 9999 FEW032 06/01 Q1015 NOSIG
RMK ICE: MOD FL90/FL100 TURB: MOD SFC/FL20
AUTOTAF.ME ULBW 260400Z 2605/2614 11003MPS 9999 BKN020 TX09/2610Z TN05/2605Z
BECMG 2605/2606 FEW032
BECMG 2606/2607 NSC
 
Рогачёво (Амдерма-2)
 


NOWCAST.SU ULDA 260600Z 15009G14MPS 9999 BKN023 04/00 Q1027 NOSIG
RMK ICE: MOD FL20/FL40 FBL FL150/FL170 TURB: MOD SFC/FL20
AUTOTAF.ME ULDA 260400Z 2605/2614 15007MPS 9999 BKN022 TX04/2605Z TN03/2614Z  
Амдерма
 


NOWCAST.SU ULDD 260600Z 14003MPS 9999 BKN150 01/M03 Q1030 NOSIG
RMK ICE: FBL FL10/FL190 TURB: MOD SFC/FL20
AUTOTAF.ME ULDD 260400Z 2605/2614 15003MPS CAVOK TX03/2611Z TN01/2605Z
BECMG 2608/2609 BKN017
BECMG 2613/2614 NSC
 
МР Титова
 


NOWCAST.SU ULDI 260600Z 13004MPS 9999 OVC180 00/M06 Q1028 NOSIG
AUTOTAF.ME ULDI 260400Z 2605/2614 12004MPS CAVOK TX02/2609Z TNM01/2605Z  
МЛСП Приразломная
 


NOWCAST.SU ULDP 260600Z 15007MPS 9999 OVC150 03/M02 Q1028 NOSIG
RMK ICE: FBL FL170/FL190 TURB: MOD SFC/FL170
AUTOTAF.ME ULDP 260400Z 2605/2614 14007MPS CAVOK TX04/2611Z TN03/2605Z
BECMG 2610/2611 BKN010
 
МР Требса
 


NOWCAST.SU ULDR 260600Z 13005MPS 9999 BKN186 01/M05 Q1028 NOSIG
AUTOTAF.ME ULDR 260400Z 2605/2614 13004MPS CAVOK TX03/2609Z TN00/2605Z  
Каратайка
 


NOWCAST.SU ULDT 260600Z 12004MPS 9999 SKC 00/M06 Q1029 NOSIG
RMK TURB: MOD SFC/FL20
AUTOTAF.ME ULDT 260400Z 2605/2614 12003MPS CAVOK TX02/2610Z TNM01/2605Z
BECMG 2607/2608 OVC012
BECMG 2608/2609 OVC018
BECMG 2611/2612 NSC
 
Варандей
 


NOWCAST.SU ULDW 260600Z 13005MPS 9999 OVC180 02/M03 Q1028 NOSIG
RMK ICE: FBL FL190/FL200 TURB: MOD FL170/FL180
AUTOTAF.ME ULDW 260400Z 2605/2614 13005MPS CAVOK TX03/2609Z TN02/2605Z  
Харьягинский
 


NOWCAST.SU ULEG 260600Z 11005MPS 9999 BKN230 00/M06 Q1026 NOSIG
RMK TURB: MOD SFC/FL20
AUTOTAF.ME ULEG 260400Z 2605/2614 11004MPS CAVOK TX03/2609Z TNM01/2605Z  
Хорей-Вер
 


NOWCAST.SU ULEH 260600Z 12005MPS 9999 FEW200 00/M07 Q1027 NOSIG
RMK TURB: MOD SFC/FL20
AUTOTAF.ME ULEH 260400Z 2605/2614 12005MPS CAVOK TX03/2609Z TNM01/2605Z  
Индига
 


NOWCAST.SU ULEI 260600Z 15006MPS 9999 FEW250 02/M04 Q1022 NOSIG
AUTOTAF.ME ULEI 260400Z 2605/2614 14005G10MPS CAVOK TX06/2609Z TN01/2605Z  
Коткино
 


NOWCAST.SU ULEK 260600Z 14004MPS 9999 OVC280 02/M04 Q1024 NOSIG
AUTOTAF.ME ULEK 260400Z 2605/2614 14005MPS CAVOK TX06/2610Z TN01/2605Z  
Южное Шапкино
 


NOWCAST.SU ULEU 260600Z 13004MPS 9999 BKN240 01/M04 Q1025 NOSIG
RMK TURB: MOD SFC/FL20
AUTOTAF.ME ULEU 260400Z 2605/2614 13004MPS CAVOK TX04/2610Z TN00/2605Z  
Красноборск
 


NOWCAST.SU ULKB 260600Z 09005G11MPS 9999 BKN022TCU 05/00 Q1012 NOSIG
RMK ICE: MOD FL20/FL110 FBL FL40/FL50 TURB: MOD SFC/FL30
AUTOTAF.ME ULKB 260400Z 2605/2614 09005G11MPS 9999 BKN020TCU TX08/2610Z TN04/2605Z
BECMG 2607/2608 SCT026TCU
 
Котлас
 


NOWCAST.SU ULKK 260600Z 08005G11MPS 9999 BKN019TCU 05/01 Q1010 NOSIG
RMK ICE: SEV FL110/FL120 MOD FL30/FL90 FBL FL20/FL40 TURB: MOD SFC/FL30
AUTOTAF.ME ULKK 260400Z 2605/2614 08005G11MPS 9999 BKN017TCU TX08/2610Z TN04/2605Z
BECMG 2607/2608 BKN028TCU
 
Котлас (Савватия)
 


NOWCAST.SU ULKS 260600Z 09005G11MPS 9999 BKN024TCU 05/01 Q1010 NOSIG
RMK ICE: SEV FL90/FL110 MOD FL30/FL40 FBL FL40/FL50 TURB: MOD SFC/FL30
AUTOTAF.ME ULKS 260400Z 2605/2614 09005G11MPS 9999 BKN021TCU TX08/2610Z TN04/2605Z  
Верхняя Тойма
 


NOWCAST.SU ULKT 260600Z 10009G15MPS 9999 SCT022TCU 05/00 Q1012 NOSIG
RMK ICE: MOD FL90/FL100 FBL FL20/FL30 TURB: MOD SFC/FL20
AUTOTAF.ME ULKT 260400Z 2605/2614 09005G11MPS 9999 BKN020 TX09/2611Z TN04/2605Z
BECMG 2607/2608 BKN027
BECMG 2613/2614 NSC
 
Вельск
 


NOWCAST.SU ULKW 260600Z 07004MPS 9999 -RA OVC013 05/04 Q1008 NOSIG
RMK ICE: SEV FL110/FL120 MOD FL40/FL190
AUTOTAF.ME ULKW 260400Z 2605/2614 07004MPS 9999 -RA OVC012 TX06/2609Z TN05/2605Z
BECMG 2607/2608 OVC016
BECMG 2611/2612 BKN021
 
Морской Фасад
 


NOWCAST.SU ULLF 260600Z VRB02MPS 3000 BR BKN005 07/06 Q1008 NOSIG
RMK ICE: MOD FL70/FL80
AUTOTAF.ME ULLF 260400Z 2605/2614 VRB02MPS 5000 BR BKN009 TX11/2611Z TN07/2605Z
FM260600 VRB02MPS 3000 BR BKN005
FM260800 VRB02MPS 9999 BKN016
BECMG 2610/2611 BKN021TCU
FM261400 VRB02MPS 9999 VCSH BKN023CB
 
ГПН-5
 


NOWCAST.SU ULLG 260600Z VRB02MPS 3000 BR BKN005 07/06 Q1008 NOSIG
RMK ICE: MOD FL70/FL80 TURB: MOD FL70/FL80
AUTOTAF.ME ULLG 260400Z 2605/2614 VRB02MPS 3000 BR BKN005 TX11/2610Z TN06/2605Z
FM260800 VRB02MPS 9999 BKN011
BECMG 2608/2609 BKN015
FM261100 VRB02MPS 9999 VCSH BKN021CB
FM261400 VRB02MPS 9999 -RA BKN025
 
Санкт-Петербург (Пулково)
METAR ULLI 260530Z 00000MPS 4200 BR OVC003 09/08 Q1008 R10L/290050 NOSIG RMK QBB090 OBST OBSC


NOWCAST.SU ULLI 260600Z VRB02MPS 2000 BR BKN005 07/06 Q1008 NOSIG
RMK ICE: MOD FL70/FL80 FBL FL50/FL60 TURB: MOD FL70/FL80
AUTOTAF.ME ULLI 260400Z 2605/2614 VRB02MPS 3000 BR BKN005 TX11/2610Z TN06/2605Z
BECMG 2605/2606 2000
BECMG 2606/2607 3000
FM260800 VRB02MPS 9999 BKN012
BECMG 2608/2609 BKN016
FM261000 VRB02MPS 9999 VCSH BKN019CB
FM261400 VRB02MPS 9999 -RA BKN025
TAF ULLI 260158Z 2603/2703 16003MPS 4000 BR BKN003
TEMPO 2603/2606 0300 FG VV002
BECMG 2607/2609 8000 NSW FEW004 BKN010
BECMG 2610/2612 BKN016
TEMPO 2612/2619 22005MPS
TEMPO 2619/2624 1000 BR BKN010=
Великий Новгород (Кречевицы)
 


NOWCAST.SU ULLK 260600Z VRB02MPS 9999 BKN012 07/06 Q1009 NOSIG
RMK ICE: SEV FL70/FL80 MOD FL50/FL60
AUTOTAF.ME ULLK 260400Z 2605/2614 VRB02MPS CAVOK TX10/2610Z TN07/2605Z
BECMG 2605/2606 BKN012
BECMG 2607/2608 BKN016
BECMG 2610/2611 BKN022TCU
 
Петродворец (Марли)
 


NOWCAST.SU ULLN 260600Z VRB02MPS 3000 BR BKN005 07/06 Q1008 NOSIG
RMK ICE: MOD FL70/FL80
AUTOTAF.ME ULLN 260400Z 2605/2614 VRB02MPS 5000 BR BKN009 TX11/2611Z TN07/2605Z
FM260600 VRB02MPS 3000 BR BKN005
FM260800 VRB02MPS 9999 BKN016
BECMG 2610/2611 BKN021TCU
 
Санкт-Петербург (Хелидрайв)
 


NOWCAST.SU ULLO 260600Z VRB02MPS 3000 BR BKN005 07/06 Q1008 NOSIG
RMK ICE: MOD FL70/FL80 FBL FL50/FL60 TURB: MOD FL70/FL80
AUTOTAF.ME ULLO 260400Z 2605/2614 VRB02MPS 3000 BR BKN005 TX11/2610Z TN06/2605Z
FM260800 VRB02MPS 9999 BKN012
BECMG 2608/2609 BKN016
FM261100 VRB02MPS 9999 VCSH BKN021CB
FM261400 VRB02MPS 9999 -RA BKN025
 
Пушкин
 


NOWCAST.SU ULLP 260600Z VRB02MPS 1000 BR BKN003 06/06 Q1008 NOSIG
RMK ICE: MOD FL70/FL80 FBL FL50/FL60 TURB: MOD FL70/FL80
AUTOTAF.ME ULLP 260400Z 2605/2614 VRB02MPS 3000 BR BKN005 TX11/2611Z TN06/2605Z
FM260600 VRB02MPS 1000 BR BKN003
FM260900 VRB02MPS 9999 VCSH BKN019CB
FM261100 VRB02MPS 9999 BKN026TCU
 
Санкт-Петербург (КАД-52)
 


NOWCAST.SU ULLR 260600Z VRB02MPS 3000 BR BKN005 07/06 Q1008 NOSIG
RMK ICE: MOD FL70/FL80 FBL FL50/FL60 TURB: MOD FL70/FL80
AUTOTAF.ME ULLR 260400Z 2605/2614 VRB02MPS 3000 BR BKN005 TX11/2610Z TN06/2605Z
FM260900 VRB02MPS 9999 BKN015
BECMG 2609/2610 BKN020
FM261100 VRB02MPS 9999 VCSH BKN022CB
FM261400 VRB02MPS 9999 -RA BKN026
 
Сиверский
 


NOWCAST.SU ULLS 260600Z VRB02MPS 3000 BR BKN005 07/06 Q1008 NOSIG
RMK ICE: MOD FL70/FL80 FBL FL50/FL60 TURB: MOD FL70/FL80
AUTOTAF.ME ULLS 260400Z 2605/2614 VRB02MPS 9999 BKN014 TX10/2610Z TN06/2605Z
FM260600 VRB02MPS 3000 BR BKN005
FM260800 VRB02MPS 9999 BKN020
BECMG 2610/2611 BKN028TCU
 
Кронштадт (Бычье Поле)
 


NOWCAST.SU ULLY 260600Z 19003MPS 5000 BR BKN016 08/06 Q1008 NOSIG
RMK ICE: MOD FL70/FL80
AUTOTAF.ME ULLY 260400Z 2605/2614 18003MPS 9999 BKN016 TX11/2612Z TN08/2605Z
FM260600 19003MPS 5000 BR BKN016
FM260800 VRB02MPS 9999 BKN019
BECMG 2609/2610 BKN021
BECMG 2610/2611 VRB02MPS
 
С.-Петербург (Речной Яхт-клуб)
 


NOWCAST.SU ULLZ 260600Z VRB02MPS 3000 BR BKN005 07/06 Q1008 NOSIG
RMK ICE: MOD FL70/FL80
AUTOTAF.ME ULLZ 260400Z 2605/2614 VRB02MPS 3000 BR BKN005 TX11/2611Z TN07/2605Z
FM260800 VRB02MPS 9999 BKN015
BECMG 2609/2610 BKN020
FM261400 VRB02MPS 9999 VCSH BKN025CB
 
Ковдор
 


NOWCAST.SU ULMD 260600Z VRB02MPS 3000 -DZ BR OVC005 03/02 Q1013 NOSIG
RMK ICE: MOD FL90/FL110 FBL FL150/FL190
AUTOTAF.ME ULMD 260400Z 2605/2614 VRB02MPS 5000 -RA BR OVC010 TX07/2612Z TN03/2605Z
FM260600 VRB02MPS 3000 -DZ BR OVC005
FM260700 VRB02MPS 5000 -RA BR OVC010
BECMG 2607/2608 BR
FM260900 VRB02MPS 9999 OVC012
BECMG 2610/2611 BKN013TCU
 
Апатиты (Хибины)
 


NOWCAST.SU ULMK 260600Z 09003MPS 9999 OVC012 05/03 Q1014 NOSIG
RMK ICE: SEV FL90/FL100 MOD FL110/FL120
AUTOTAF.ME ULMK 260400Z 2605/2614 09003MPS 9999 OVC012 TX07/2612Z TN04/2605Z  
Ловозеро
 


NOWCAST.SU ULML 260600Z 15003MPS 9999 BKN012 05/03 Q1014 NOSIG
RMK ICE: SEV FL110/FL120 MOD FL90/FL120
AUTOTAF.ME ULML 260400Z 2605/2614 15003MPS 9999 BKN011 TX08/2611Z TN05/2605Z
BECMG 2607/2608 BKN015
 
Мурманск
METAR ULMM 260530Z 00000MPS CAVOK 03/03 Q1014 R31/090070 NOSIG RMK QFE753


NOWCAST.SU ULMM 260600Z VRB02MPS 9999 BKN030 04/01 Q1014 NOSIG
RMK ICE: MOD FL90/FL120 FBL FL150/FL170
AUTOTAF.ME ULMM 260400Z 2605/2614 VRB02MPS 9999 BKN029 TX09/2612Z TN04/2605Z
BECMG 2611/2612 BKN020
BECMG 2612/2613 NSC
BECMG 2613/2614 BKN015
TAF ULMM 260153Z 2603/2703 16003MPS 6000 SCT016
TEMPO 2603/2606 0300 FZFG VV002=
Мурманск (Килпъявр)
 


NOWCAST.SU ULMW 260600Z VRB02MPS 9999 BKN027 04/01 Q1014 NOSIG
RMK ICE: MOD FL90/FL110 FBL FL120/FL190
AUTOTAF.ME ULMW 260400Z 2605/2614 VRB02MPS CAVOK TX08/2611Z TN04/2605Z
BECMG 2605/2606 BKN027
BECMG 2612/2613 NSC
 
Валдай-Авиа
 


NOWCAST.SU ULNA 260600Z VRB02MPS 9999 BKN018 07/06 Q1008 NOSIG
RMK ICE: MOD FL70/FL90 FBL FL50/FL60
AUTOTAF.ME ULNA 260400Z 2605/2614 VRB02MPS 9999 BKN018 TX10/2611Z TN06/2605Z
BECMG 2608/2609 BKN026
FM261100 VRB02MPS 9999 -SHRA BKN025CB
BECMG 2613/2614 VCSH
 
Боровичи
 


NOWCAST.SU ULNB 260600Z VRB02MPS 9999 BKN012 07/06 Q1008 NOSIG
RMK ICE: MOD FL50/FL90 TURB: MOD FL50/FL60
AUTOTAF.ME ULNB 260400Z 2605/2614 VRB02MPS 9999 OVC012 TX10/2611Z TN06/2605Z
BECMG 2607/2608 BKN016
FM261100 VRB02MPS 9999 VCSH BKN021CB
FM261300 VRB02MPS 9999 BKN024
 
Новгород
 


NOWCAST.SU ULNN 260600Z VRB02MPS 9999 BKN013 07/06 Q1009 NOSIG
RMK ICE: MOD FL50/FL70
AUTOTAF.ME ULNN 260400Z 2605/2614 VRB02MPS CAVOK TX11/2612Z TN06/2605Z
BECMG 2605/2606 BKN013
BECMG 2608/2609 BKN017
FM261100 VRB02MPS 9999 VCSH BKN021CB
FM261400 VRB02MPS 9999 -RA BKN023
 
Старая Русса
 


NOWCAST.SU ULNR 260600Z VRB02MPS 5000 BR BKN012 07/07 Q1009 NOSIG
RMK ICE: MOD FL50/FL70
AUTOTAF.ME ULNR 260400Z 2605/2614 VRB02MPS 9999 BKN011 TX10/2611Z TN07/2605Z
FM260600 VRB02MPS 5000 BR BKN012
FM260700 VRB02MPS 2000 BR BKN005
FM260900 VRB02MPS 9999 BKN017
 
Валдай
 


NOWCAST.SU ULNW 260600Z VRB02MPS 9999 BKN024 06/05 Q1008 NOSIG
RMK ICE: MOD FL70/FL90 FBL FL50/FL60
AUTOTAF.ME ULNW 260400Z 2605/2614 VRB02MPS 9999 BKN023 TX10/2611Z TN06/2605Z
FM260900 VRB02MPS 9999 VCSH BKN026CB
FM261000 VRB02MPS 9999 BKN028
FM261200 VRB02MPS 9999 VCSH BKN031CB
BECMG 2613/2614 -SHRA
 
Великие Луки
 


NOWCAST.SU ULOL 260600Z VRB02MPS 3000 BR BKN005 06/04 Q1009 NOSIG
RMK ICE: MOD FL50/FL70 FBL FL110/FL190
AUTOTAF.ME ULOL 260400Z 2605/2614 VRB02MPS 1000 BR BKN003 TX13/2611Z TN05/2605Z
FM260600 VRB02MPS 3000 BR BKN005
FM260700 VRB02MPS 9999 BKN014
FM260800 VRB02MPS 9999 VCSH BKN026CB
FM260900 VRB02MPS 9999 BKN034TCU
 
Псков (Кресты)
METAR ULOO 260530Z VRB01MPS 8000 -RA BKN006 OVC018 07/06 Q1008 R19/290050 NOSIG RMK OBST OBSC QFE752


NOWCAST.SU ULOO 260600Z VRB02MPS 0500 FG BKN002 05/04 Q1008 NOSIG
RMK ICE: MOD FL50/FL70
AUTOTAF.ME ULOO 260400Z 2605/2614 VRB02MPS 0200 FG VV001 TX12/2611Z TN05/2605Z
FM260600 VRB02MPS 0500 FG BKN002
FM260800 VRB02MPS CAVOK
BECMG 2608/2609 BKN015TCU
BECMG 2610/2611 BKN028
TAF ULOO 260200Z 2603/2612 23003MPS 6000 BKN004 BKN016
TEMPO 2603/2607 0400 -DZ FG OVC003=
Петрозаводск (Бесовец)
METAR ULPB 260530Z 03002MPS 360V070 9999 OVC002 07/06 Q1010 NOSIG RMK QBB080 OBST OBSC QFE753/1004


NOWCAST.SU ULPB 260600Z VRB02MPS 9999 BKN012 08/07 Q1010 NOSIG
RMK ICE: MOD FL50/FL170 FBL FL120/FL190
AUTOTAF.ME ULPB 260400Z 2605/2614 VRB02MPS 9999 BKN011 TX09/2607Z TN08/2605Z
BECMG 2608/2609 OVC015
BECMG 2609/2610 -RA
TAF ULPB 260158Z 2603/2612 04003MPS 6000 BKN005 OVC010
TEMPO 2603/2606 2000 -DZ BR BKN003 OVC016
BECMG 2608/2609 BKN016=
Валаам
 


NOWCAST.SU ULPL 260600Z 09005MPS 9999 SCT030 10/07 Q1009 NOSIG
RMK ICE: SEV FL90/FL100 MOD FL70/FL80
AUTOTAF.ME ULPL 260400Z 2605/2614 09004MPS 9999 BKN030 TX11/2611Z TN10/2605Z
BECMG 2606/2607 BKN020
BECMG 2609/2610 OVC035
 
Костомукша
 


NOWCAST.SU ULPM 260600Z 11003MPS 5000 BR BKN010 06/05 Q1011 NOSIG
RMK ICE: SEV FL70/FL80 MOD FL90/FL120 FBL FL110/FL120
AUTOTAF.ME ULPM 260400Z 2605/2614 VRB02MPS 5000 BR OVC010 TX08/2612Z TN05/2605Z
FM261000 VRB02MPS 9999 BKN011
BECMG 2610/2611 BKN013TCU
BECMG 2613/2614 -RA
 
Петрозаводск (Пески)
 


NOWCAST.SU ULPP 260600Z 04003MPS 5000 BR BKN014 09/07 Q1010 NOSIG
RMK ICE: MOD FL70/FL170 FBL FL110/FL190 TURB: MOD SFC/FL20
AUTOTAF.ME ULPP 260400Z 2605/2614 05003MPS 9999 BKN013 TX09/2605Z TN08/2613Z
FM260600 04003MPS 5000 BR BKN014
BECMG 2607/2608 -RA BR
FM260900 02003MPS 9999 -RA OVC011
BECMG 2611/2612 9000
FM261300 07004MPS 9999 -SHRA OVC012CB
BECMG 2613/2614 OVC016CB
 
Сортавала
 


NOWCAST.SU ULPW 260600Z 09005MPS 9999 -RA BKN018 09/08 Q1009 NOSIG
RMK ICE: MOD FL70/FL90 FBL FL50/FL60 TURB: MOD FL40/FL50
AUTOTAF.ME ULPW 260400Z 2605/2614 09005MPS 9999 -RA BKN018 TX11/2610Z TN09/2605Z
FM260700 09005MPS 9999 -SHRA BKN018CB
BECMG 2609/2610 BKN030CB
FM261200 09004MPS 9999 SCT035
 
Сельцо
 


NOWCAST.SU ULSC 260600Z VRB02MPS 9999 BKN011 06/05 Q1008 NOSIG
RMK ICE: MOD FL70/FL80 FBL FL50/FL60 TURB: MOD FL70/FL80
AUTOTAF.ME ULSC 260400Z 2605/2614 VRB02MPS 9999 BKN011 TX10/2610Z TN05/2605Z
BECMG 2607/2608 BKN017
BECMG 2609/2610 BKN026TCU
 
Местаново
 


NOWCAST.SU ULSF 260600Z VRB02MPS 9999 BKN011 06/05 Q1008 NOSIG
RMK ICE: MOD FL50/FL90 TURB: MOD FL70/FL80
AUTOTAF.ME ULSF 260400Z 2605/2614 VRB02MPS 9999 BKN011 TX10/2610Z TN05/2605Z
BECMG 2607/2608 BKN017
BECMG 2609/2610 BKN025TCU
 
Гостилицы
 


NOWCAST.SU ULSG 260600Z VRB02MPS 9999 BKN011 06/06 Q1008 NOSIG
RMK ICE: MOD FL50/FL70 TURB: MOD FL70/FL80
AUTOTAF.ME ULSG 260400Z 2605/2614 VRB02MPS 9999 BKN011 TX10/2609Z TN06/2605Z
BECMG 2607/2608 BKN019
BECMG 2609/2610 BKN028TCU
 
Санкт-Петербург (Геркулес гидро)
 


NOWCAST.SU ULSH 260600Z VRB02MPS 3000 BR BKN005 07/06 Q1008 NOSIG
RMK ICE: MOD FL70/FL80
AUTOTAF.ME ULSH 260400Z 2605/2614 VRB02MPS 5000 BR BKN009 TX11/2611Z TN07/2605Z
FM260600 VRB02MPS 3000 BR BKN005
FM260800 VRB02MPS 9999 BKN016
BECMG 2610/2611 BKN021TCU
FM261400 VRB02MPS 9999 VCSH BKN023CB
 
Корпикюля
 


NOWCAST.SU ULSK 260600Z VRB02MPS 3000 BR BKN005 07/06 Q1008 NOSIG
RMK ICE: MOD FL50/FL70 TURB: MOD FL70/FL80
AUTOTAF.ME ULSK 260400Z 2605/2614 VRB02MPS 3000 BR BKN005 TX11/2611Z TN06/2605Z
FM260800 VRB02MPS 3000 VCSH BR BKN005 BKN010CB
FM260900 VRB02MPS 9999 VCSH BKN018CB
FM261100 VRB02MPS 9999 BKN025TCU
 
Манушкино
 


NOWCAST.SU ULSM 260600Z VRB02MPS 1000 BR BKN003 07/06 Q1008 NOSIG
RMK ICE: MOD FL70/FL80 FBL FL50/FL60
AUTOTAF.ME ULSM 260400Z 2605/2614 VRB02MPS CAVOK TX11/2611Z TN07/2605Z
FM260600 VRB02MPS 1000 BR BKN003
FM260700 VRB02MPS 0500 FG BKN002
FM260900 VRB02MPS 9999 BKN017
FM261100 VRB02MPS 9999 VCSH BKN025CB
BECMG 2611/2612 -SHRA
 
Аэродром Тихвин
 


NOWCAST.SU ULST 260600Z VRB02MPS 9999 BKN014 06/05 Q1008 NOSIG
RMK ICE: MOD FL70/FL80 FBL FL50/FL60
AUTOTAF.ME ULST 260400Z 2605/2614 VRB02MPS 9999 BKN021 TX11/2611Z TN05/2605Z
BECMG 2605/2606 BKN014
BECMG 2607/2608 BKN019
FM261000 VRB02MPS 9999 VCSH BKN026CB
FM261200 VRB02MPS 9999 BKN032
FM261300 VRB02MPS 9999 VCSH BKN031CB
BECMG 2613/2614 -SHRA
 
Куммолово
 


NOWCAST.SU ULSU 260600Z VRB02MPS 9999 BKN012 07/06 Q1008 NOSIG
RMK ICE: SEV FL90/FL100 MOD FL50/FL70 TURB: MOD FL40/FL50
AUTOTAF.ME ULSU 260400Z 2605/2614 VRB02MPS 9999 BKN012 TX10/2610Z TN06/2605Z
BECMG 2607/2608 BKN019
FM260900 VRB02MPS 9999 VCSH BKN024CB
FM261000 VRB02MPS 9999 BKN027TCU
FM261100 VRB02MPS 9999 VCSH BKN029CB
FM261400 VRB02MPS 9999 BKN025
 
Северный ветер
 


NOWCAST.SU ULSW 260600Z VRB02MPS 9999 SCT250 07/06 Q1009 NOSIG
RMK ICE: MOD FL70/FL80 FBL FL50/FL60
AUTOTAF.ME ULSW 260400Z 2605/2614 16003MPS 9999 BKN014 TX11/2611Z TN06/2605Z
BECMG 2605/2606 NSC
BECMG 2607/2608 BKN016
BECMG 2608/2609 BKN021
FM261100 VRB02MPS 9999 BKN027TCU
 
Сиворицы-2
 


NOWCAST.SU ULSY 260600Z VRB02MPS 9999 BKN015 06/06 Q1008 NOSIG
RMK ICE: MOD FL70/FL80 TURB: MOD FL70/FL80
AUTOTAF.ME ULSY 260400Z 2605/2614 VRB02MPS 9999 BKN014 TX11/2612Z TN06/2605Z
FM260700 VRB02MPS 3000 BR BKN005
FM260800 VRB02MPS 9999 VCSH BKN020CB
FM260900 VRB02MPS 9999 BKN022
 
Озеро Красногвардейское
 


NOWCAST.SU ULSZ 260600Z VRB02MPS 9999 BKN013 08/07 Q1008 NOSIG
RMK ICE: MOD FL50/FL90 TURB: MOD FL70/FL80
AUTOTAF.ME ULSZ 260400Z 2605/2614 VRB02MPS CAVOK TX11/2610Z TN07/2605Z
BECMG 2605/2606 BKN013
BECMG 2606/2607 BKN017
FM260900 VRB02MPS 9999 VCSH BKN024CB
FM261000 VRB02MPS 9999 BKN027TCU
 
Череповец
METAR ULWC 260530Z 00000MPS 9999 BKN006 BKN017 08/08 Q1005 R21/110060 NOSIG RMK QFE744/0992


NOWCAST.SU ULWC 260600Z VRB02MPS 9999 -RA OVC011 08/07 Q1006 NOSIG
RMK ICE: SEV FL150/FL160 MOD FL50/FL190
AUTOTAF.ME ULWC 260400Z 2605/2614 VRB02MPS 9999 -RA OVC011 TX09/2608Z TN07/2605Z
FM260700 VRB02MPS 5000 -SHRA BR OVC011CB
FM260900 VRB02MPS 9999 -SHRA OVC012CB
BECMG 2610/2611 OVC016CB
FM261200 VRB02MPS 9999 -RA OVC017
TAF ULWC 260200Z 2603/2612 36003MPS 6000 BKN020
TEMPO 2603/2606 0500 FG VV002
TEMPO 2606/2612 34005MPS 2100 -RA BR BKN003 OVC010=
Великий Устюг
 


NOWCAST.SU ULWU 260600Z 08005G11MPS 9999 BKN022TCU 05/01 Q1010 NOSIG
RMK ICE: SEV FL90/FL110 MOD FL30/FL120 FBL FL150/FL160 TURB: MOD SFC/FL30
AUTOTAF.ME ULWU 260400Z 2605/2614 08005G11MPS 9999 BKN021 TX08/2611Z TN05/2605Z  
Вологда
 


NOWCAST.SU ULWW 260600Z 05003MPS 9999 -SHRA OVC015CB 08/07 Q1005 NOSIG
RMK ICE: MOD FL50/FL170
AUTOTAF.ME ULWW 260400Z 2605/2614 VRB02MPS 9999 -SHRA OVC011CB TX08/2605Z TN07/2614Z
BECMG 2605/2606 OVC015CB
FM260700 06003MPS 3000 -SHRA BR BKN005 OVC010CB
BECMG 2608/2609 -DZ BR
BECMG 2609/2610 BR
FM261200 07003MPS 5000 BR BKN020
 
Брест
METAR UMBB 260500Z 22001MPS 0300 FG NSC 08/07 Q1008 NOSIG


NOWCAST.SU UMBB 260600Z VRB02MPS 1000 BR OVC003 09/07 Q1008 NOSIG
RMK ICE: MOD FL90/FL110 TURB: MOD FL70/FL80
AUTOTAF.ME UMBB 260400Z 2605/2614 VRB02MPS 1000 BR OVC003 TX18/2612Z TN09/2605Z
FM260700 VRB02MPS 9999 OVC011
BECMG 2607/2608 BKN016
BECMG 2608/2609 NSC
BECMG 2610/2611 BKN042
FM261300 VRB02MPS 9999 BKN026CB
TEMPO 2613/2615 VCTS
TAF UMBB 251341Z 2512/2521 CNL=
Лида
 


NOWCAST.SU UMDD 260600Z VRB02MPS 9999 BKN026 08/05 Q1009 NOSIG
RMK ICE: MOD FL110/FL120 FBL FL70/FL190
AUTOTAF.ME UMDD 260400Z 2605/2614 VRB02MPS 9999 SCT042 TX16/2612Z TN08/2605Z  
Гомель
METAR UMGG 260530Z 18003MPS 9000 NSC 07/06 Q1011 NOSIG


NOWCAST.SU UMGG 260600Z 19003MPS 9999 OVC043 09/05 Q1012 TEMPO FM0800 VCSH
RMK ICE: MOD FL90/FL170 FBL FL70/FL80 TURB: MOD FL50/FL70
AUTOTAF.ME UMGG 260400Z 2605/2614 19003MPS 9999 OVC043 TX14/2609Z TN08/2605Z
FM260700 19003MPS 9999 VCSH OVC043CB
BECMG 2607/2608
TEMPO 2608/2615 VCTS
BECMG 2613/2614 BKN016CB
TAF UMGG 252254Z 2600/2624 20004MPS 6000 BKN020
TEMPO 2600/2606 VRB02MPS 2000 BR BKN005
TEMPO 2606/2615 17006MPS SCT020CB
TEMPO 2615/2624 VRB02MPS 0300 FG VV002
2022/09/25 00:21=
Витебск (Восточный)
METAR UMII 260500Z 23001MPS 9999 BKN035CB 06/05 Q1008 TEMPO 2000 SHRA BKN005


NOWCAST.SU UMII 260600Z VRB02MPS 9999 FEW180 08/05 Q1010 NOSIG
RMK ICE: FBL FL50/FL190 TURB: MOD FL70/FL80
AUTOTAF.ME UMII 260400Z 2605/2614 VRB02MPS CAVOK TX14/2612Z TN07/2605Z
BECMG 2608/2609 BKN033
FM261100 VRB02MPS 9999 VCSH BKN037CB
BECMG 2612/2613 -SHRA
TAF UMII 260202Z 2603/2612 24003MPS 9999 BKN015
TEMPO 2603/2612 22003G08MPS 2000 SHRA BR BKN005 BKN017CB=
Орша
METAR UMIO 260530Z 23002MPS CAVOK 07/06 Q1009 NOSIG RMK QFE739/0986


NOWCAST.SU UMIO 260600Z 23003MPS 9999 BKN017 08/05 Q1010 NOSIG
RMK ICE: SEV FL90/FL100 MOD FL70/FL110 FBL FL150/FL190 TURB: MOD FL70/FL80
AUTOTAF.ME UMIO 260400Z 2605/2614 23003MPS 9999 BKN017 TX14/2612Z TN07/2605Z
BECMG 2607/2608 BKN027
FM260900 23003MPS 9999 VCSH BKN034CB
TAF UMIO 260300Z 2604/2612 VRB02MPS 8000 FEW030
TEMPO 2604/2607 0300 FG VV002
TEMPO 2607/2612 18005G10MPS 5000 -SHRA BKN010 BKN020CB=
Калининград (Храброво)
METAR UMKK 260530Z 17002MPS 130V230 CAVOK 08/07 Q1005 R24/CLRD95 NOSIG RMK QFE753/1004


TSAR UMKK 260500Z LAST HOUR TS OBS: 030/151-190KM, 040/158KM, 330/186KM
NEAREST TS 30/151KM
NOWCAST.SU UMKK 260600Z 18004MPS 9999 OVC045 09/06 Q1006 NOSIG
RMK ICE: FBL FL90/FL170
AUTOTAF.ME UMKK 260400Z 2605/2614 18005MPS 9999 BKN040 TX16/2611Z TN09/2605Z
BECMG 2606/2607 NSC
BECMG 2607/2608 BKN045
TAF UMKK 260154Z 2603/2703 17003G08MPS 6000 FEW005 SCT016
TEMPO 2603/2607 0300 PRFG BKN002
TEMPO 2610/2624 21005G10MPS 3100 -SHRA BR FEW005 BKN014CB
PROB40 TEMPO 2612/2621 -TSRA FEW005 BKN010CB=
МЛСП Д-6
 


TSAR UMKM 260500Z LAST HOUR TS OBS: 030/145-167KM, 040/114-152KM, 050/122KM, 320/152KM, 330/161-183KM, 340/156-173KM
NEAREST TS 40/114KM
NOWCAST.SU UMKM 260600Z 18005MPS 9999 BKN040 13/09 Q1005 NOSIG
RMK ICE: FBL FL120/FL170 TURB: MOD SFC/FL20
AUTOTAF.ME UMKM 260400Z 2605/2614 19005MPS 9999 BKN047 TX15/2613Z TN13/2605Z
FM261300 21009G14MPS 9999 BKN035CB
TEMPO 2613/2614 VRB11G16MPS VCTS
BECMG 2613/2614 VCSH
 
Минск (Мачулищи)
 


NOWCAST.SU UMLI 260600Z VRB02MPS 9999 BKN040 08/04 Q1010 NOSIG
RMK ICE: MOD FL70/FL120 TURB: MOD FL50/FL60
AUTOTAF.ME UMLI 260400Z 2605/2614 VRB02MPS 9999 BKN040 TX14/2611Z TN07/2605Z  
Барановичи
 


NOWCAST.SU UMMA 260600Z 13003MPS 9999 BKN010CB 09/06 Q1009 TEMPO VCSH
RMK ICE: MOD FL90/FL120
AUTOTAF.ME UMMA 260400Z 2605/2614 13003MPS 9999 BKN010CB TX16/2612Z TN08/2605Z
TEMPO 2605/2608 VCTS
TEMPO 2608/2613 VRB08G13MPS VCTS
BECMG 2608/2609 BKN019CB
FM261100 19003MPS 9999 BKN030CB
TEMPO 2613/2615 VCTS
 
Гродно (Обухово)
METAR UMMG 260500Z 11001MPS 6000 NSC 08/07 Q1008 NOSIG


NOWCAST.SU UMMG 260600Z VRB02MPS 9999 BKN042 09/06 Q1008 NOSIG
RMK ICE: MOD FL90/FL110 TURB: MOD FL50/FL60
AUTOTAF.ME UMMG 260400Z 2605/2614 VRB02MPS 9999 BKN042 TX17/2611Z TN08/2605Z
FM260900 14004MPS 9999 VCSH BKN037CB
FM261000 16003MPS 9999 BKN042
BECMG 2611/2612 20003MPS
TAF UMMG 251354Z 2512/2521 CNL=
Минск (Липки)
 


NOWCAST.SU UMMI 260600Z VRB02MPS 9999 BKN039 08/04 Q1010 NOSIG
RMK ICE: MOD FL70/FL150 TURB: MOD FL50/FL60
AUTOTAF.ME UMMI 260400Z 2605/2614 VRB02MPS 9999 BKN039 TX14/2611Z TN07/2605Z
BECMG 2613/2614 BKN020
 
Поставы (Озерки)
 


NOWCAST.SU UMMK 260600Z VRB02MPS 9999 OVC021 09/06 Q1009 NOSIG
RMK ICE: MOD FL70/FL120 FBL FL150/FL170
AUTOTAF.ME UMMK 260400Z 2605/2614 VRB02MPS 9999 BKN019 TX15/2611Z TN08/2605Z
BECMG 2606/2607 BKN028
FM260800 18003MPS 9999 VCSH BKN036CB
 
Минск-1
 


NOWCAST.SU UMMM 260600Z VRB02MPS 9999 BKN039 08/04 Q1010 NOSIG
RMK ICE: MOD FL70/FL120 TURB: MOD FL50/FL60
AUTOTAF.ME UMMM 260400Z 2605/2614 VRB02MPS 9999 BKN039 TX14/2612Z TN07/2605Z  
Минск-2
METAR UMMS 260530Z VRB01MPS CAVOK 08/08 Q1009 NOSIG


NOWCAST.SU UMMS 260600Z VRB02MPS 9999 BKN040CB 08/05 Q1010 TEMPO VCSH
RMK ICE: MOD FL70/FL150 TURB: MOD FL50/FL60
AUTOTAF.ME UMMS 260400Z 2605/2614 VRB02MPS 9999 BKN040CB TX14/2610Z TN07/2605Z
TEMPO 2605/2613 VCTS
FM261300 17004MPS 9999 BKN023
TAF UMMS 252318Z 2600/2624 24005MPS 8000 BKN010
TEMPO 2600/2607 0300 FG BKN002
BECMG 2607/2608 18005G10MPS 9999 BKN015
TEMPO 2608/2617 16007G12MPS -RA BKN010
BECMG 2617/2618 12005MPS BKN010
TEMPO 2618/2624 3000 BCFG BR
2022/09/25 00:21=
Бобруйск (Носовка)
 


NOWCAST.SU UMNB 260600Z VRB02MPS 9999 OVC042 09/05 Q1011 NOSIG
RMK ICE: MOD FL70/FL150 FBL FL170/FL180
AUTOTAF.ME UMNB 260400Z 2605/2614 VRB02MPS 9999 OVC042 TX15/2610Z TN08/2605Z
FM261100 18003MPS 9999 BKN039CB
TEMPO 2611/2615 VCTS
 
Гродно (Каролино)
 


NOWCAST.SU UMNG 260600Z 15003MPS 9999 BKN043 10/06 Q1008 NOSIG
RMK ICE: MOD FL90/FL100 FBL FL70/FL150 TURB: MOD FL50/FL60
AUTOTAF.ME UMNG 260400Z 2605/2614 14003MPS 9999 BKN043 TX17/2611Z TN09/2605Z
FM261000 16003MPS 9999 VCSH BKN045CB
BECMG 2611/2612 21003MPS
FM261300 VRB02MPS 9999 BKN027
 
Витебск (Куковячино)
 


NOWCAST.SU UMNI 260600Z VRB02MPS 9999 FEW180 08/06 Q1010 NOSIG
RMK ICE: FBL FL70/FL190 TURB: MOD FL50/FL60
AUTOTAF.ME UMNI 260400Z 2605/2614 VRB02MPS CAVOK TX14/2611Z TN07/2605Z
BECMG 2607/2608 BKN025
FM260900 VRB02MPS 9999 VCSH BKN034CB
BECMG 2609/2610 -SHRA
 
Могилев
METAR UMOO 260500Z 16002MPS 6000 NSC 06/06 Q1011 NOSIG


NOWCAST.SU UMOO 260600Z VRB02MPS 9999 BKN018 08/05 Q1011 NOSIG
RMK ICE: MOD FL70/FL120 FBL FL150/FL190
AUTOTAF.ME UMOO 260400Z 2605/2614 VRB02MPS 9999 BKN017 TX14/2610Z TN07/2605Z
BECMG 2606/2607 BKN025
FM260900 20003MPS 9999 VCSH BKN043CB
FM261100 VRB02MPS 9999 BKN045TCU
TAF UMOO 251345Z 2512/2521 CNL=
Хожево
 


NOWCAST.SU UMOV 260600Z VRB02MPS 9999 SCT040 09/06 Q1009 NOSIG
RMK ICE: MOD FL70/FL110 FBL FL120/FL190 TURB: MOD FL50/FL60
AUTOTAF.ME UMOV 260400Z 2605/2614 VRB02MPS 9999 SCT040 TX15/2610Z TN08/2605Z
FM260900 18003MPS 9999 VCSH BKN046CB
FM261400 VRB02MPS 9999 BKN029
 
Абакан
METAR UNAA 260530Z 36005MPS 9999 -SHRA SCT014CB 08/05 Q1007 R02/290155 NOSIG RMK QFE733


NOWCAST.SU UNAA 260600Z 02005MPS 6000 -RA OVC020 07/05 Q1008 NOSIG
RMK ICE: SEV FL110/FL190 MOD FL90/FL100 TURB: MOD FL160/FL170
AUTOTAF.ME UNAA 260400Z 2605/2614 01004MPS 5000 -RA OVC015 TX07/2605Z TN04/2613Z
FM260600 02005MPS 6000 -RA OVC020
BECMG 2606/2607 7000
BECMG 2607/2608 9000
BECMG 2608/2609 9999
FM261300 02003MPS 9000 -RA OVC023
FM261400 02003MPS 4000 -RA OVC021
TAF UNAA 260155Z 2603/2703 36003G08MPS 6000 -SHRA BKN016CB=
Краснотуранск
 


NOWCAST.SU UNAT 260600Z 34004MPS 9999 BKN028TCU 05/03 Q1009 NOSIG
RMK ICE: SEV FL90/FL100 MOD FL40/FL190 TURB: MOD SFC/FL40
AUTOTAF.ME UNAT 260400Z 2605/2614 34004MPS 9999 -RASN OVC028 TX05/2605Z TN03/2614Z  
Шушенское (Казанцево)
 


NOWCAST.SU UNAU 260600Z 02005MPS 5000 -RA OVC027 07/06 Q1008 NOSIG
RMK ICE: SEV FL120/FL190 MOD FL110/FL120 TURB: MOD FL160/FL190
AUTOTAF.ME UNAU 260400Z 2605/2614 01004MPS 5000 -RA OVC024 TX08/2605Z TN04/2614Z
BECMG 2610/2611 9000
BECMG 2611/2612 9999
BECMG 2613/2614 9000
 
Барнаул (Имени Германа Титова)
METAR UNBB 260530Z 01004MPS 9999 -SHRA BKN005 BKN020CB 07/06 Q1010 R06/290150 NOSIG RMK QFE735


NOWCAST.SU UNBB 260600Z 03003MPS 9999 -RA OVC016 07/05 Q1011 NOSIG
RMK ICE: SEV FL120/FL170 MOD FL110/FL190 TURB: MOD SFC/FL30
AUTOTAF.ME UNBB 260400Z 2605/2614 03003MPS 9999 -RA OVC016 TX08/2607Z TN06/2612Z
BECMG 2607/2608 OVC023
BECMG 2612/2613 OVC016
TAF UNBB 260200Z 2603/2703 36006G13MPS 8000 BKN006 BKN020CB
TEMPO 2603/2609 3000 -SHRA SCT003 BKN010CB
FM260900 05005G13MPS 6000 -SHRA BKN020CB
TEMPO 2609/2624 2000 SHRA BKN003 BKN010CB=
Аккем
 


NOWCAST.SU UNBC 260600Z 23005G11MPS 9999 FEW130 10/M02 Q1025 NOSIG
RMK TURB: MOD FL110/FL150
AUTOTAF.ME UNBC 260400Z 2605/2614 24004MPS CAVOK TX10/2605Z TN06/2612Z  
Горно-Алтайск
 


NOWCAST.SU UNBG 260600Z 31004MPS 9999 VCSH OVC085CB 19/05 Q1009 TEMPO FM0700 VCSH
RMK ICE: SEV FL120/FL130 MOD FL110/FL170 TURB: MOD FL90/FL100 MOD SFC/FL110
AUTOTAF.ME UNBG 260400Z 2605/2614 31003MPS 9999 VCSH OVC085CB TX19/2606Z TN10/2614Z
BECMG 2606/2607
TEMPO 2607/2613 VCTS
FM261200 01003MPS 9999 BKN020CB
BECMG 2612/2613 VCSH
 
Бия
 


NOWCAST.SU UNBI 260600Z 33004MPS 9999 BKN034TCU 16/08 Q1009 NOSIG
RMK ICE: SEV FL150/FL160 MOD FL110/FL120 FBL FL190/FL200 TURB: MOD SFC/FL110
AUTOTAF.ME UNBI 260400Z 2605/2614 32003MPS 9999 BKN030TCU TX16/2605Z TN09/2613Z
BECMG 2609/2610 02005MPS
BECMG 2611/2612 -RA
 
Волчиха
 


NOWCAST.SU UNBM 260600Z 06003MPS 9999 BKN180 19/07 Q1008 NOSIG
RMK ICE: FBL FL120/FL190 TURB: MOD SFC/FL110
AUTOTAF.ME UNBM 260400Z 2605/2614 07003MPS CAVOK TX19/2606Z TN14/2613Z
BECMG 2607/2608 01004MPS
BECMG 2611/2612 07004MPS
 
Онгудай
 


NOWCAST.SU UNBN 260600Z 23008MPS 9999 FEW160 14/00 Q1022 NOSIG
RMK ICE: FBL FL170/FL190 TURB: MOD FL110/FL120
AUTOTAF.ME UNBN 260400Z 2605/2614 23007G12MPS CAVOK TX15/2607Z TN10/2614Z  
ТурСиб
 


NOWCAST.SU UNBY 260600Z 24005G11MPS 9999 VCSH BKN089CB 21/04 Q1010 TEMPO FM0700 VCSH
RMK ICE: SEV FL120/FL170 MOD FL110/FL120 TURB: MOD FL50/FL110
AUTOTAF.ME UNBY 260400Z 2605/2614 22004MPS 9999 VCSH BKN089CB TX22/2607Z TN12/2614Z
BECMG 2606/2607
TEMPO 2607/2610 VCTS
BECMG 2607/2608 VRB02MPS
FM261000 VRB02MPS 9999 VCSH NSC
BECMG 2610/2611 -RA
 
Новосибирск (Северный)
 


NOWCAST.SU UNCC 260600Z 02004MPS 9999 SCT038 06/M02 Q1013 NOSIG
RMK ICE: FBL FL30/FL40 TURB: MOD SFC/FL40
AUTOTAF.ME UNCC 260400Z 2605/2614 02004MPS 9999 SCT033 TX07/2608Z TN04/2614Z
BECMG 2607/2608 OVC014
BECMG 2608/2609 SCT045
 
Карасук
 


NOWCAST.SU UNCX 260600Z 24005G11MPS 9999 VCSH BKN089CB 21/04 Q1010 TEMPO FM0700 VCSH
RMK ICE: SEV FL120/FL170 MOD FL110/FL120 TURB: MOD FL50/FL110
AUTOTAF.ME UNCX 260400Z 2605/2614 22004MPS 9999 VCSH BKN089CB TX22/2607Z TN12/2614Z
BECMG 2606/2607
TEMPO 2607/2610 VCTS
BECMG 2607/2608 VRB02MPS
FM261000 VRB02MPS 9999 VCSH NSC
BECMG 2610/2611 -RA
 
Кемерово (Имени Алексея Леонова)
METAR UNEE 260530Z 32003MPS 9999 BKN018CB 03/M00 Q1011 R23/CLRD60 NOSIG RMK QFE735


NOWCAST.SU UNEE 260600Z 36003MPS 9999 BKN030 05/M01 Q1012 NOSIG
RMK ICE: MOD FL40/FL50 FBL FL30/FL40 TURB: MOD SFC/FL40
AUTOTAF.ME UNEE 260400Z 2605/2614 36003MPS 9999 BKN032 TX05/2605Z TN03/2613Z TAF UNEE 260200Z 2603/2703 34003G08MPS 8000 BKN020CB
TEMPO 2603/2609 36008G13MPS -SHRA BKN005 BKN020CB
BECMG 2609/2612 BKN040CB=
Тура МВЛ
 


NOWCAST.SU UNHT 260600Z 05009MPS 1300 SN BLSN BKN019 M01/M03 Q1009 NOSIG
RMK ICE: MOD FL30/FL110 FBL FL20/FL120 TURB: MOD SFC/FL40
AUTOTAF.ME UNHT 260400Z 2605/2614 04007MPS 2000 SN OVC018 TXM01/2605Z TNM03/2612Z
FM260600 05009MPS 1300 SN BLSN BKN019
BECMG 2606/2607 1500
BECMG 2607/2608 OVC014CB
BECMG 2609/2610 2000
FM261100 05008G13MPS 2000 SN BLSN BKN016
FM261200 04005G11MPS 9999 -SN BKN018
FM261300 03005G11MPS 9000 -SN BKN020
FM261400 02004MPS 4000 -SN BKN020
 
Байкит
 


NOWCAST.SU UNIB 260600Z VRB02MPS 9999 BKN021TCU 01/M05 Q1007 NOSIG
RMK ICE: MOD FL50/FL70 FBL FL40/FL150 TURB: MOD SFC/FL40
AUTOTAF.ME UNIB 260400Z 2605/2614 VRB02MPS 9999 BKN018TCU TX02/2608Z TNM02/2614Z
BECMG 2607/2608 BKN025
 
Енисейск
 


NOWCAST.SU UNII 260600Z 31004MPS 9999 BKN025TCU 03/M02 Q1009 NOSIG
RMK ICE: MOD FL30/FL70 FBL FL10/FL150 TURB: MOD SFC/FL30
AUTOTAF.ME UNII 260400Z 2605/2614 31004MPS 9999 BKN023TCU TX04/2607Z TN00/2614Z
BECMG 2612/2613 NSC
 
Мотыгино
 


NOWCAST.SU UNIM 260600Z 29003MPS 9999 -SHRASN OVC028CB 05/00 Q1006 NOSIG
RMK ICE: SEV FL40/FL70 MOD FL30/FL110 FBL FL120/FL130 TURB: MOD SFC/FL30
AUTOTAF.ME UNIM 260400Z 2605/2614 VRB02MPS 7000 -RASN OVC025 TX06/2608Z TN01/2613Z
FM260600 29003MPS 9999 -SHRASN OVC028CB
BECMG 2609/2610 BKN017CB
FM261200 27004MPS 9999 BKN012
 
Подкаменная Тунгуска
 


NOWCAST.SU UNIP 260600Z 32003MPS 9999 BKN032TCU 00/M04 Q1011 NOSIG
RMK ICE: MOD FL30/FL70 FBL FL10/FL20 TURB: MOD SFC/FL30
AUTOTAF.ME UNIP 260400Z 2605/2614 32003MPS 9999 BKN028TCU TX01/2607Z TNM02/2614Z
BECMG 2610/2611 -SN
FM261400 VRB02MPS 9999 BKN016
 
Ярцево
 


NOWCAST.SU UNIQ 260600Z 34004MPS 9999 BKN024TCU 01/M04 Q1011 NOSIG
RMK ICE: MOD FL30/FL50 FBL FL20/FL150 TURB: MOD SFC/FL30
AUTOTAF.ME UNIQ 260400Z 2605/2614 34004MPS 9999 BKN022TCU TX01/2605Z TNM01/2613Z  
Северо-Енисейск
 


NOWCAST.SU UNIS 260600Z VRB02MPS 9999 -SN BKN028 00/M04 Q1007 NOSIG
RMK ICE: MOD FL50/FL70 FBL FL20/FL150 TURB: MOD SFC/FL40
AUTOTAF.ME UNIS 260400Z 2605/2614 VRB02MPS 9999 -SN BKN026 TX00/2605Z TNM04/2614Z
FM260900 VRB02MPS 7000 BR BKN021TCU
FM261000 VRB02MPS 9999 BKN020TCU
BECMG 2611/2612 BKN016TCU
 
Тура (Горный)
 


NOWCAST.SU UNIT 260600Z 05010G15MPS 2000 SN BLSN OVC015 M01/M03 Q1008 NOSIG
RMK ICE: MOD FL40/FL110 FBL FL20/FL120 TURB: MOD SFC/FL40
AUTOTAF.ME UNIT 260400Z 2605/2614 05009G14MPS 2000 SN BLSN OVC016 TXM01/2605Z TNM03/2612Z
FM260700 06010G15MPS 1500 SN BLSN OVC014CB
BECMG 2607/2608 1000
FM261100 06011G16MPS 9999 -SN DRSN OVC014CB
BECMG 2612/2613 DRSN
FM261400 04005G11MPS 8000 BR BKN022TCU
 
Ванавара
 


NOWCAST.SU UNIW 260600Z VRB02MPS 3500 -SHRASN OVC030CB 04/M01 Q1005 NOSIG
RMK ICE: MOD FL40/FL110 FBL FL30/FL150 TURB: MOD SFC/FL40
AUTOTAF.ME UNIW 260400Z 2605/2614 VRB02MPS 8000 -SHSN BKN029CB TX04/2606Z TN01/2612Z
FM260600 VRB02MPS 3500 -SHRASN OVC030CB
BECMG 2606/2607 8000
FM260800 VRB02MPS 2000 SHRASN BKN034CB
BECMG 2609/2610 1500
BECMG 2612/2613 BKN016CB
FM261400 VRB02MPS 2000 RASN BKN013
 
Осиновый Мыс
 


NOWCAST.SU UNJS 260600Z VRB02MPS 0800 +RASN OVC014 03/01 Q1004 NOSIG
RMK ICE: MOD FL50/FL120 FBL FL20/FL40
AUTOTAF.ME UNJS 260400Z 2605/2614 VRB02MPS 1000 RASN OVC013 TX03/2606Z TN00/2614Z
FM260600 VRB02MPS 0800 +RASN OVC014
FM260700 VRB02MPS 1000 RASN BKN015
BECMG 2607/2608 1500
BECMG 2608/2609 2000
FM261000 VRB02MPS 9999 -SHRASN OVC012CB
FM261100 VRB02MPS 2000 SHRASN BR OVC010CB
FM261300 29003MPS 1000 SHRASN BR BKN003 BKN010CB
BECMG 2613/2614 SN BR
 
Богучаны
 


NOWCAST.SU UNKB 260600Z VRB02MPS 2000 RASN OVC012CB 03/01 Q1004 TEMPO TL0800 VCSHRASN
RMK ICE: MOD FL20/FL110 FBL FL120/FL150
AUTOTAF.ME UNKB 260400Z 2605/2614 VRB02MPS 2000 RASN OVC012 TX03/2605Z TN00/2614Z
FM260600 VRB02MPS 2000 RASN OVC012CB
TEMPO 2606/2608 VCTSRASN
FM260800 VRB02MPS 1500 SHRASN BKN016CB
FM261100 VRB02MPS 1500 SHRASN BR BKN005 OVC010CB
FM261200 VRB02MPS 1000 SHRASN BR BKN003 BKN010CB
BECMG 2613/2614 SN BR
 
Кодинск
 


NOWCAST.SU UNKI 260600Z VRB02MPS 2000 RASN OVC012 03/00 Q1004 TEMPO FM0800 VCSHRASN
RMK ICE: MOD FL20/FL150 FBL FL30/FL40
AUTOTAF.ME UNKI 260400Z 2605/2614 VRB02MPS 5000 -RASN OVC012 TX03/2605Z TN01/2612Z
FM260600 VRB02MPS 2000 RASN OVC012
BECMG 2606/2607 1500
FM260800 VRB02MPS 1500 RASN OVC014CB
TEMPO 2608/2609 VCTSRASN
BECMG 2608/2609 SN
TEMPO 2609/2610 VCTSSN
BECMG 2609/2610 SHSN
FM261100 VRB02MPS 2000 SHRASN OVC012CB
FM261200 VRB02MPS 5000 -SHRASN BR OVC012CB
FM261300 VRB02MPS 5000 -SHSN BR OVC012CB
FM261400 31003MPS 5000 -SN BR OVC012
 
Красноярск (Северный)
 


NOWCAST.SU UNKK 260600Z 31004MPS 9000 -SHRASN OVC025CB 04/02 Q1009 NOSIG
RMK ICE: MOD FL30/FL50 FBL FL20/FL30
AUTOTAF.ME UNKK 260400Z 2605/2614 30004MPS 6000 -SHSN OVC022CB TX04/2605Z TN01/2614Z
FM260600 31004MPS 9000 -SHRASN OVC025CB
BECMG 2606/2607 9999
FM260800 32004MPS 2000 RASN OVC034
BECMG 2609/2610 SN
FM261200 VRB02MPS 9999 -SN OVC036
 
Красноярск (Емельяново)
METAR UNKL 260530Z 30004MPS 9000 -SHRA BKN013CB 04/03 Q1006 R29/290055 NOSIG RMK QFE729


NOWCAST.SU UNKL 260600Z 31003MPS 9000 -RASN OVC027 03/01 Q1009 NOSIG
RMK ICE: MOD FL30/FL50 FBL FL20/FL30 TURB: MOD SFC/FL40
AUTOTAF.ME UNKL 260400Z 2605/2614 30003MPS 6000 BR BKN026TCU TX03/2605Z TN01/2612Z
FM260600 31003MPS 9000 -RASN OVC027
BECMG 2606/2607 9999
FM260800 32003MPS 9999 -SHRASN BKN031CB
FM261000 32003MPS 9999 -RASN BKN032
FM261100 VRB02MPS 2000 SN BKN029
FM261400 VRB02MPS 9999 -SN BKN023
TAF UNKL 260159Z 2603/2703 30005G12MPS 9999 BKN016CB
TEMPO 2603/2606 4000 -SHRA BKN004 BKN016CB
BECMG 2612/2614 05003MPS=
Красноярск (Черемшанка)
 


NOWCAST.SU UNKM 260600Z 31003MPS 9000 -RASN BKN015 03/01 Q1009 NOSIG
RMK ICE: MOD FL30/FL50 FBL FL20/FL30
AUTOTAF.ME UNKM 260400Z 2605/2614 30003MPS 6000 BR BKN015 TX03/2605Z TN01/2612Z
FM260600 31003MPS 9000 -RASN BKN015
BECMG 2606/2607 9999
FM260900 32003MPS 9999 -SHRASN BKN038CB
FM261000 32003MPS 2000 RASN BKN022
BECMG 2611/2612 SN
FM261300 VRB02MPS 9999 -SN BKN024
 
Канск (Восточный)
 


NOWCAST.SU UNKN 260600Z 30010MPS 9999 BKN018 03/01 Q1006 NOSIG
RMK ICE: MOD FL20/FL70
AUTOTAF.ME UNKN 260400Z 2605/2614 29007MPS 9999 BKN012 TX03/2605Z TN00/2614Z
BECMG 2605/2606 BKN018
FM260800 29008G13MPS 9999 -RASN OVC026
BECMG 2613/2614 BKN016
 
Шарыпово
 


NOWCAST.SU UNKO 260600Z 32003MPS 9999 -RASN BKN032 03/M01 Q1011 NOSIG
RMK ICE: MOD FL40/FL50 FBL FL30/FL40 TURB: MOD SFC/FL40
AUTOTAF.ME UNKO 260400Z 2605/2614 32003MPS 9999 BKN029TCU TX03/2606Z TN01/2613Z
BECMG 2605/2606 -RASN
BECMG 2612/2613 VRB02MPS
 
Красноярск (Бобровый Лог)
 


NOWCAST.SU UNKP 260600Z 31004MPS 9000 -SHRASN OVC024CB 04/02 Q1009 NOSIG
RMK ICE: MOD FL30/FL50 FBL FL20/FL30
AUTOTAF.ME UNKP 260400Z 2605/2614 30004MPS 6000 -SHRASN OVC022CB TX04/2606Z TN01/2614Z
BECMG 2605/2606 9000
BECMG 2606/2607 9999
FM260800 32004MPS 9999 -RASN OVC028
FM261200 VRB02MPS 2000 RASN BR OVC033
FM261300 VRB02MPS 9999 -RASN BKN032
 
Ачинск
 


NOWCAST.SU UNKS 260600Z 32004MPS 9999 -SN OVC031 02/M01 Q1011 NOSIG
RMK ICE: MOD FL30/FL50 FBL FL20/FL30 TURB: MOD SFC/FL30
AUTOTAF.ME UNKS 260400Z 2605/2614 32004MPS 9999 BKN030TCU TX02/2605Z TN01/2613Z
BECMG 2605/2606 -SN
BECMG 2613/2614 BKN018TCU
 
Вознесенка
 


NOWCAST.SU UNKW 260600Z 31004MPS 9000 -SHRASN OVC026CB 04/02 Q1009 NOSIG
RMK ICE: SEV FL30/FL40 MOD FL20/FL70
AUTOTAF.ME UNKW 260400Z 2605/2614 30004MPS 6000 -SHSN OVC023CB TX04/2605Z TN02/2612Z
FM260600 31004MPS 9000 -SHRASN OVC026CB
BECMG 2606/2607 9999
FM260800 32004MPS 9999 -RASN OVC035
FM260900 32004MPS 2000 RASN BKN039
BECMG 2609/2610 1500
BECMG 2611/2612 SN
FM261400 VRB02MPS 2000 SN BKN032
 
Кызыл
 


NOWCAST.SU UNKY 260600Z 29004MPS 9999 OVC085 18/00 Q1007 NOSIG
RMK ICE: FBL FL120/FL190 TURB: MOD FL110/FL120
AUTOTAF.ME UNKY 260400Z 2605/2614 29003MPS CAVOK TX21/2608Z TN14/2614Z
BECMG 2608/2609 29008G14MPS
FM261000 30007G13MPS 9999 VCSH OVC119CB
FM261200 36004MPS 9999 OVC098CB
TEMPO 2612/2615 VCTS
 
Колпашево
 


NOWCAST.SU UNLL 260600Z 34003MPS 9999 BKN032TCU 03/M05 Q1015 NOSIG
RMK ICE: MOD FL40/FL50 FBL FL30/FL110 TURB: MOD SFC/FL40
AUTOTAF.ME UNLL 260400Z 2605/2614 34003MPS 9999 BKN027TCU TX03/2606Z TN00/2613Z
BECMG 2612/2613 VRB02MPS
 
Новосибирск (Ельцовка)
 


NOWCAST.SU UNNE 260600Z 02004MPS 9999 SCT038 06/M02 Q1013 NOSIG
RMK ICE: FBL FL30/FL40 TURB: MOD SFC/FL40
AUTOTAF.ME UNNE 260400Z 2605/2614 02004MPS 9999 SCT033 TX07/2608Z TN04/2614Z
BECMG 2607/2608 OVC014
BECMG 2608/2609 SCT045
 
Новосибирск (Городской Аэропорт)
 


NOWCAST.SU UNNG 260600Z 02004MPS 9999 SCT038 06/M02 Q1013 NOSIG
RMK ICE: FBL FL30/FL40 TURB: MOD SFC/FL40
AUTOTAF.ME UNNG 260400Z 2605/2614 02004MPS 9999 SCT033 TX07/2608Z TN04/2614Z
BECMG 2607/2608 OVC014
BECMG 2608/2609 SCT045
 
Мочище
 


NOWCAST.SU UNNM 260600Z 02004MPS 9999 SCT037 05/M02 Q1013 NOSIG
RMK ICE: FBL FL30/FL40 TURB: MOD SFC/FL40
AUTOTAF.ME UNNM 260400Z 2605/2614 02004MPS 9999 SCT032 TX07/2609Z TN04/2605Z
BECMG 2607/2608 OVC012
BECMG 2608/2609 SCT046TCU
 
Северное
 


NOWCAST.SU UNNS 260600Z 04004MPS 9999 SCT033 03/M05 Q1015 NOSIG
RMK ICE: FBL FL40/FL50 TURB: MOD SFC/FL40
AUTOTAF.ME UNNS 260400Z 2605/2614 03004MPS 9999 SCT029 TX04/2608Z TN01/2614Z  
Новосибирск (Толмачево)
METAR UNNT 260530Z 01004MPS 9999 OVC018 04/M01 Q1013 R25/150065 R34/120065 NOSIG RMK QFE750/1000


NOWCAST.SU UNNT 260600Z 03004MPS 9999 SCT038 06/M02 Q1013 NOSIG
RMK ICE: FBL FL30/FL40 TURB: MOD SFC/FL40
AUTOTAF.ME UNNT 260400Z 2605/2614 02004MPS CAVOK TX07/2608Z TN04/2614Z
BECMG 2605/2606 SCT038
BECMG 2607/2608 OVC016
BECMG 2608/2609 BKN021
TAF UNNT 260200Z 2603/2703 01006G13MPS 8000 BKN007 BKN016CB
TEMPO 2603/2606 BKN003 BKN011CB
BECMG 2606/2609 BKN016CB
TEMPO 2609/2703 06003G08MPS BKN010CB=
Усть-Ишим
 


NOWCAST.SU UNOI 260600Z 07005G11MPS 9999 SCT031 03/M06 Q1016 NOSIG
RMK ICE: FBL FL40/FL50 TURB: MOD SFC/FL40
AUTOTAF.ME UNOI 260400Z 2605/2614 07005G11MPS CAVOK TX05/2608Z TN02/2605Z
BECMG 2605/2606 SCT031
BECMG 2607/2608 NSC
 
Омск (Калачево)
 


NOWCAST.SU UNOL 260600Z 09005G11MPS 1000 RASN OVC020 03/01 Q1013 NOSIG
RMK ICE: SEV FL110/FL190 MOD FL120/FL130 FBL FL10/FL30 TURB: MOD SFC/FL30
AUTOTAF.ME UNOL 260400Z 2605/2614 09009G15MPS 1000 RASN OVC020 TX03/2605Z TN02/2611Z
FM260900 08006G12MPS 0800 +RASN OVC019
BECMG 2609/2610 500
BECMG 2611/2612 +SN
BECMG 2612/2613 OVC014
 
Омск (Центральный)
METAR UNOO 260530Z 08007MPS 9999 -SHRA BKN033CB 04/00 Q1013 R07/290050 NOSIG RMK QFE751


NOWCAST.SU UNOO 260600Z 09007G13MPS 1500 RASN OVC014 04/00 Q1013 NOSIG
RMK ICE: SEV FL110/FL190 MOD FL20/FL30 FBL FL30/FL40 TURB: MOD SFC/FL30
AUTOTAF.ME UNOO 260400Z 2605/2614 09009G15MPS 1500 RASN OVC015 TX04/2605Z TN02/2611Z
BECMG 2607/2608 1000
FM261000 08006G12MPS 0800 +RASN OVC016
BECMG 2610/2611 500
BECMG 2611/2612 +SN
TAF UNOO 260150Z 2603/2703 07008G14MPS 8000 -SHRA BKN010 BKN025CB
TEMPO 2603/2624 09013MPS 2100 -SHRA BKN005 BKN020CB=
Омск (Северный)
 


NOWCAST.SU UNOS 260600Z 09007G13MPS 1500 RASN OVC014 04/00 Q1013 NOSIG
RMK ICE: SEV FL90/FL170 MOD FL20/FL190 TURB: MOD SFC/FL30
AUTOTAF.ME UNOS 260400Z 2605/2614 09009G15MPS 1500 RASN OVC015 TX04/2605Z TN02/2611Z
BECMG 2608/2609 1000
FM261000 08006G12MPS 0800 +RASN OVC016
BECMG 2610/2611 500
BECMG 2611/2612 +SN
 
Тара
 


NOWCAST.SU UNOT 260600Z 06004MPS 9999 BKN031TCU 03/M05 Q1016 NOSIG
RMK ICE: MOD FL40/FL50 FBL FL30/FL40 TURB: MOD SFC/FL40
AUTOTAF.ME UNOT 260400Z 2605/2614 06004MPS CAVOK TX05/2608Z TN02/2605Z
BECMG 2605/2606 BKN031TCU
BECMG 2607/2608 NSC
 
Омск (Поповка)
 


NOWCAST.SU UNOY 260600Z 09010G16MPS 1000 RASN OVC015 03/00 Q1012 NOSIG
RMK ICE: SEV FL110/FL170 MOD FL190/FL200 FBL FL10/FL30 TURB: MOD SFC/FL20
AUTOTAF.ME UNOY 260400Z 2605/2614 09010G16MPS 1000 RASN OVC015 TX03/2605Z TN02/2611Z
FM260900 08006G12MPS 0800 +RASN OVC015
BECMG 2609/2610 500
BECMG 2610/2611 +SN
BECMG 2611/2612 07005G11MPS
 
Красноярск (Кузнецово)
 


NOWCAST.SU UNQK 260600Z 31004MPS 9000 -SHRASN OVC026CB 03/02 Q1009 NOSIG
RMK ICE: SEV FL40/FL50 MOD FL20/FL50
AUTOTAF.ME UNQK 260400Z 2605/2614 30004MPS 6000 -SHRASN OVC024CB TX04/2607Z TN01/2614Z
BECMG 2605/2606 9000
BECMG 2606/2607 9999
FM260800 32004MPS 9999 -RASN OVC030
FM261100 31003MPS 2000 SN OVC034
BECMG 2611/2612 1500
FM261300 VRB02MPS 2000 SN BKN033
FM261400 VRB02MPS 9999 -SN BKN031
 
Манский
 


NOWCAST.SU UNQM 260600Z 30005G11MPS 9999 -SN OVC025 03/01 Q1008 NOSIG
RMK ICE: MOD FL30/FL50
AUTOTAF.ME UNQM 260400Z 2605/2614 30005G11MPS 3000 -SN BR OVC005 TX03/2605Z TN01/2611Z
FM260600 30005G11MPS 9999 -SN OVC025
FM260800 30004MPS 2000 SN OVC030
FM261000 30003MPS 9999 -SN OVC027
FM261400 VRB02MPS 2000 SN OVC021
 
Назарово
 


NOWCAST.SU UNQN 260600Z 32004MPS 9999 -SN OVC029 03/00 Q1010 NOSIG
RMK ICE: MOD FL30/FL40 FBL FL20/FL30 TURB: MOD SFC/FL30
AUTOTAF.ME UNQN 260400Z 2605/2614 32004MPS 9999 BKN027 TX03/2606Z TN01/2613Z
BECMG 2605/2606 -SN
 
Красноярск (Солнечный)
 


NOWCAST.SU UNQS 260600Z 31004MPS 9000 -SHRASN OVC027CB 04/02 Q1009 NOSIG
RMK ICE: SEV FL40/FL50 MOD FL20/FL50
AUTOTAF.ME UNQS 260400Z 2605/2614 30004MPS 6000 -SHSN OVC024CB TX04/2605Z TN02/2612Z
FM260600 31004MPS 9000 -SHRASN OVC027CB
BECMG 2606/2607 9999
FM260800 32004MPS 9999 -RASN OVC033
BECMG 2609/2610 -SN
FM261100 31003MPS 2000 SN OVC038
BECMG 2611/2612 1500
FM261300 VRB02MPS 2000 SN BKN035
FM261400 VRB02MPS 9999 -SN BKN032
 
Тасеево
 


NOWCAST.SU UNQT 260600Z 30004MPS 9999 -RASN OVC014 03/01 Q1006 NOSIG
RMK ICE: MOD FL20/FL30 FBL FL40/FL90 TURB: MOD SFC/FL30
AUTOTAF.ME UNQT 260400Z 2605/2614 31003MPS 9999 -RASN OVC014 TX04/2608Z TN00/2614Z
FM260700 30004MPS 3500 BR BKN014
BECMG 2607/2608 9000
FM260900 29004MPS 9999 -RASN OVC016
FM261000 28004MPS 2000 RASN BKN019
FM261100 28004MPS 1500 SN BKN023
BECMG 2611/2612 SN BR
FM261300 28003MPS 1000 SN BR BKN003
 
Долгий Мост
 


NOWCAST.SU UNQX 260600Z VRB02MPS 1000 SN OVC014 03/01 Q1004 NOSIG
RMK ICE: MOD FL20/FL90
AUTOTAF.ME UNQX 260400Z 2605/2614 VRB02MPS 0800 +SN OVC013 TX03/2606Z TN01/2614Z
FM260600 VRB02MPS 1000 SN OVC014
FM260800 30003MPS 2000 RASN OVC014
FM260900 30003MPS 9999 BKN014
FM261000 29004MPS 7000 BR BKN009
FM261100 28004MPS 9999 -SHSN NSC
FM261200 28004MPS 9999 -SHRASN BKN009 OVC010CB
FM261300 28004MPS 9999 BKN011
 
Барабинск
 


NOWCAST.SU UNRR 260600Z 05005MPS 9999 BKN028TCU 05/M02 Q1015 NOSIG
RMK ICE: MOD FL190/FL200 FBL FL30/FL170 TURB: MOD SFC/FL40
AUTOTAF.ME UNRR 260400Z 2605/2614 05005MPS 9999 BKN025 TX06/2608Z TN03/2613Z
BECMG 2613/2614 SCT017TCU
 
301 Шингинская
 


NOWCAST.SU UNSI 260600Z 02003MPS 9999 BKN026TCU 01/M06 Q1017 NOSIG
RMK ICE: MOD FL40/FL50 FBL FL20/FL30 TURB: MOD SFC/FL40
AUTOTAF.ME UNSI 260400Z 2605/2614 01004MPS 9999 BKN019TCU TX02/2607Z TNM01/2614Z
BECMG 2605/2606 BKN026TCU
 
Стрежевой
 


NOWCAST.SU UNSS 260600Z 36004MPS 9999 BKN023TCU 01/M06 Q1019 NOSIG
RMK ICE: MOD FL40/FL50 FBL FL20/FL170 TURB: MOD SFC/FL30
AUTOTAF.ME UNSS 260400Z 2605/2614 36004MPS 9999 BKN020TCU TX01/2606Z TN00/2605Z
BECMG 2606/2607 BKN027TCU
 
Бакчар
 


NOWCAST.SU UNTB 260600Z 01003MPS 9999 BKN028TCU 03/M04 Q1015 NOSIG
RMK ICE: MOD FL40/FL50 FBL FL20/FL30 TURB: MOD SFC/FL40
AUTOTAF.ME UNTB 260400Z 2605/2614 36003MPS 9999 BKN021TCU TX04/2608Z TNM01/2614Z
BECMG 2610/2611 NSC
 
Томск (Богашево)
METAR UNTT 260530Z 32003MPS 270V360 9999 BKN011 BKN045 03/02 Q1012 R21/290150 NOSIG RMK QFE744


NOWCAST.SU UNTT 260600Z 34003MPS 9999 BKN025TCU 03/M01 Q1014 NOSIG
RMK ICE: SEV FL50/FL60 MOD FL30/FL70 FBL FL20/FL30 TURB: MOD SFC/FL30
AUTOTAF.ME UNTT 260400Z 2605/2614 34003MPS 9999 BKN025TCU TX04/2607Z TNM01/2614Z
BECMG 2611/2612 VRB02MPS
BECMG 2612/2613 NSC
TAF AMD UNTT 260219Z 2602/2612 32003G08MPS 8000 -SHRA BKN004 BKN016CB
TEMPO 2602/2606 BKN011 BKN016CB
BECMG 2606/2609 BKN016CB=
Таштагол
 


NOWCAST.SU UNWI 260600Z VRB02MPS 4500 -RA BR BKN016 10/09 Q1009 NOSIG
RMK ICE: SEV FL120/FL150 MOD FL110/FL170 FBL FL190/FL200
AUTOTAF.ME UNWI 260400Z 2605/2614 VRB02MPS 9999 -RA OVC016 TX11/2605Z TN06/2613Z
FM260600 VRB02MPS 4500 -RA BR BKN016
FM260700 VRB02MPS 9999 -RA OVC016
FM260800 VRB02MPS 4000 -RA BR OVC015
BECMG 2608/2609 7000
FM261000 VRB02MPS 9999 -RA OVC016
 
Новокузнецк (Спиченково)
METAR UNWW 260530Z 31004MPS 9999 BKN010 OVC030 06/04 Q1010 R01/290250 NOSIG RMK QFE731


NOWCAST.SU UNWW 260600Z 34005MPS 9999 -RA BKN024 06/04 Q1011 NOSIG
RMK ICE: SEV FL170/FL180 MOD FL120/FL190 FBL FL90/FL110 TURB: MOD SFC/FL30
AUTOTAF.ME UNWW 260400Z 2605/2614 34005MPS 9999 -RA BKN020 TX07/2607Z TN04/2614Z
BECMG 2606/2607 BKN030
BECMG 2611/2612 -RA
BECMG 2612/2613 VRB02MPS
FM261400 VRB02MPS 2000 RASN BKN018
TAF AMD UNWW 260300Z 2603/2703 34005G12MPS 8000 -SHRA BKN005 BKN030CB
BECMG 2605/2607 BKN030CB
TEMPO 2607/2703 BKN006 BKN011CB
BECMG 2611/2613 03003G08MPS=
Диксон (Остров)
 


NOWCAST.SU UODD 260600Z 03007MPS 5000 -SN BKN021 01/M02 Q1028 NOSIG
RMK ICE: MOD FL20/FL50 FBL FL10/FL70 TURB: MOD SFC/FL20
AUTOTAF.ME UODD 260400Z 2605/2614 03008G13MPS 8000 BR BKN021TCU TX01/2605Z TN01/2605Z
FM260600 03007MPS 5000 -SN BKN021
BECMG 2606/2607 4500
BECMG 2608/2609 7000
BECMG 2609/2610 9999
 
Остров Средний
 


NOWCAST.SU UODS 260600Z 21006MPS 9999 BKN022TCU M01/M03 Q1028 NOSIG
RMK ICE: MOD FL70/FL90 FBL FL10/FL190 TURB: MOD SFC/FL20
AUTOTAF.ME UODS 260400Z 2605/2614 21006MPS 9999 BKN023 TX00/2609Z TNM01/2605Z
FM260800 21006MPS 8000 BR BKN014TCU
FM260900 20005MPS 9999 BKN010
BECMG 2609/2610 -SN
FM261300 20005MPS 2000 SN BR OVC010
 
Хатанга
 


NOWCAST.SU UOHH 260600Z 03009MPS 9999 DRSN BKN014 00/M01 Q1019 NOSIG
RMK ICE: MOD FL10/FL70 FBL FL10/FL170
AUTOTAF.ME UOHH 260400Z 2605/2614 03007MPS 9999 -SN BKN015 TX00/2605Z TNM01/2613Z
BECMG 2605/2606 DRSN
BECMG 2607/2608 BKN010TCU
FM261200 03008G14MPS 5000 BR BKN011
FM261400 03008G14MPS 3000 BLSN BKN005
 
Новая
 


NOWCAST.SU UOHN 260600Z 03008MPS 9999 -SN DRSN BKN014 00/M01 Q1019 NOSIG
RMK ICE: MOD FL10/FL170 FBL FL10/FL150
AUTOTAF.ME UOHN 260400Z 2605/2614 03006MPS 2000 SN BKN015 TX00/2606Z TNM01/2605Z
FM260600 03008MPS 9999 -SN DRSN BKN014
BECMG 2609/2610 OVC010
FM261100 03007G13MPS 6000 BR BKN010
FM261200 03008G14MPS 3000 BLSN BKN005
BECMG 2612/2613 BR
 
Светлогорск
 


NOWCAST.SU UOIG 260600Z 09008G13MPS 9999 BKN015TCU M01/M05 Q1013 NOSIG
RMK ICE: MOD FL40/FL50 FBL FL20/FL120 TURB: MOD SFC/FL40
AUTOTAF.ME UOIG 260400Z 2605/2614 09008G13MPS 9999 BKN014TCU TX00/2607Z TNM05/2614Z
FM260700 09008G13MPS 9999 DRSN BKN020
FM260900 09007MPS 9999 BKN028
BECMG 2609/2610 NSC
BECMG 2611/2612 06003MPS
BECMG 2612/2613 BKN016
FM261400 05003MPS CAVOK
 
Хантайское озеро
 


NOWCAST.SU UOIH 260600Z VRB02MPS 9999 FEW140 M02/M06 Q1013 NOSIG
RMK ICE: FBL FL110/FL120
AUTOTAF.ME UOIH 260400Z 2605/2614 VRB02MPS CAVOK TXM02/2606Z TNM07/2613Z
BECMG 2608/2609 BKN041
BECMG 2609/2610 NSC
 
Игарка
 


NOWCAST.SU UOII 260600Z 06008G13MPS 9999 BKN032 02/M05 Q1015 NOSIG
RMK ICE: FBL FL20/FL70 TURB: MOD SFC/FL30
AUTOTAF.ME UOII 260400Z 2605/2614 05008G13MPS 9999 BKN028 TX02/2606Z TNM02/2614Z
BECMG 2610/2611 NSC
 
Снежногорск
 


NOWCAST.SU UOIS 260600Z 06008G13MPS 9999 FEW140 01/M06 Q1016 NOSIG
RMK TURB: MOD SFC/FL20
AUTOTAF.ME UOIS 260400Z 2605/2614 06007MPS CAVOK TX01/2606Z TNM02/2613Z  
Дудинка
 


NOWCAST.SU UOOD 260600Z 04012G17MPS 9999 BKN024 M01/M06 Q1018 NOSIG
RMK ICE: FBL FL10/FL120 TURB: MOD SFC/FL20
AUTOTAF.ME UOOD 260400Z 2605/2614 04011G16MPS 9999 BKN023 TXM01/2605Z TNM02/2612Z
BECMG 2609/2610 BKN015
 
Ванкор
 


NOWCAST.SU UOOG 260600Z 02009G14MPS 9999 BKN028 00/M07 Q1017 NOSIG
RMK ICE: FBL FL20/FL70 TURB: MOD SFC/FL20
AUTOTAF.ME UOOG 260400Z 2605/2614 02010G15MPS 9999 BKN026 TX00/2606Z TNM03/2614Z
FM261100 02005G10MPS 9999 BKN014
BECMG 2611/2612 BKN022
BECMG 2612/2613 BKN010
BECMG 2613/2614 NSC
 
Северо-Соленое
 


NOWCAST.SU UOOI 260600Z 02010G15MPS 9999 BKN030TCU M01/M07 Q1020 NOSIG
RMK ICE: MOD FL30/FL40 FBL FL20/FL30 TURB: MOD SFC/FL20
AUTOTAF.ME UOOI 260400Z 2605/2614 02010MPS CAVOK TXM01/2606Z TNM03/2613Z
BECMG 2605/2606 BKN030TCU
BECMG 2609/2610 BKN018
BECMG 2612/2613 OVC010
 
Южно-Соленое
 


NOWCAST.SU UOOJ 260600Z 02010MPS 9999 BKN029 M01/M07 Q1020 NOSIG
RMK ICE: FBL FL20/FL150 TURB: MOD SFC/FL20
AUTOTAF.ME UOOJ 260400Z 2605/2614 02010MPS CAVOK TXM01/2606Z TNM03/2613Z
BECMG 2605/2606 BKN029
BECMG 2609/2610 NSC
BECMG 2610/2611 OVC017
FM261200 03009G14MPS 9999 BKN011
 
Факел
 


NOWCAST.SU UOOK 260600Z 03012G17MPS 9999 BKN022TCU M02/M06 Q1020 NOSIG
RMK ICE: MOD FL20/FL30 FBL FL10/FL150 TURB: MOD SFC/FL20
AUTOTAF.ME UOOK 260400Z 2605/2614 03010G15MPS 9999 BKN021 TXM01/2607Z TNM03/2614Z
BECMG 2608/2609 BKN014TCU
 
Пелятка Норильская
 


NOWCAST.SU UOOL 260600Z 03009G14MPS 9999 BKN022TCU M02/M07 Q1021 NOSIG
RMK ICE: MOD FL30/FL40 FBL FL10/FL40 TURB: MOD SFC/FL20
AUTOTAF.ME UOOL 260400Z 2605/2614 02010MPS CAVOK TXM01/2607Z TNM03/2612Z
BECMG 2605/2606 BKN022TCU
BECMG 2609/2610 NSC
BECMG 2610/2611 OVC012
FM261400 04009G15MPS CAVOK
 
Мессояха
 


NOWCAST.SU UOOM 260600Z 02010G15MPS 9999 BKN024 M02/M07 Q1020 NOSIG
RMK ICE: FBL FL10/FL150 TURB: MOD SFC/FL20
AUTOTAF.ME UOOM 260400Z 2605/2614 02011MPS CAVOK TXM01/2608Z TNM03/2605Z
BECMG 2605/2606 BKN024
BECMG 2609/2610 BKN016
BECMG 2611/2612 BKN009
 
Волочанка
 


NOWCAST.SU UOON 260600Z 04005G10MPS 1500 SN BKN012 M01/M03 Q1021 NOSIG
RMK ICE: MOD FL30/FL90 FBL FL10/FL150 TURB: MOD SFC/FL20
AUTOTAF.ME UOON 260400Z 2605/2614 04005MPS 1500 SN BKN011 TXM01/2605Z TNM02/2611Z
BECMG 2610/2611 2000
 
Норильск (Алыкель)
METAR UOOO 260530Z 03013MPS CAVOK M02/M06 Q1017 R01/31//60 NOSIG RMK QFE748/0998


NOWCAST.SU UOOO 260600Z 04005MPS 9999 FEW100 M01/M07 Q1017 NOSIG
RMK ICE: FBL FL110/FL120 TURB: MOD SFC/FL20
AUTOTAF.ME UOOO 260400Z 2605/2614 04007MPS CAVOK TX00/2607Z TNM03/2612Z
BECMG 2608/2609 OVC012
BECMG 2609/2610 NSC
TAF UOOO 260148Z 2603/2703 03009G14MPS 6000 SCT016
TEMPO 2621/2703 SCT011 BKN016=
Караул
 


NOWCAST.SU UOOR 260600Z 04009G14MPS 9999 DRSN BKN019TCU M02/M06 Q1022 NOSIG
RMK ICE: MOD FL20/FL30 FBL FL10/FL150 TURB: MOD SFC/FL20
AUTOTAF.ME UOOR 260400Z 2605/2614 03009MPS 9999 DRSN BKN021 TXM01/2608Z TNM02/2605Z
BECMG 2611/2612 BKN012
 
Усть-Тарея
 


NOWCAST.SU UOOU 260600Z 01003MPS 9999 FEW140 M05/M07 Q1025 NOSIG
RMK ICE: FBL FL10/FL170
AUTOTAF.ME UOOU 260400Z 2605/2614 01003MPS CAVOK TXM05/2606Z TNM09/2614Z
FM261000 36003MPS 3000 BR OVC005
FM261100 01003MPS 1000 BR OVC003
 
Валек
 


NOWCAST.SU UOOW 260600Z VRB02MPS 9999 BKN095 M01/M07 Q1016 NOSIG
RMK ICE: FBL FL90/FL120
AUTOTAF.ME UOOW 260400Z 2605/2614 VRB02MPS CAVOK TXM01/2606Z TNM04/2613Z  
Туруханск
 


NOWCAST.SU UOTT 260600Z VRB02MPS 9999 BKN016 02/M02 Q1012 NOSIG
RMK ICE: MOD FL20/FL120 FBL FL10/FL20 TURB: MOD SFC/FL20
AUTOTAF.ME UOTT 260400Z 2605/2614 VRB02MPS 9000 -SN BKN017 TX02/2606Z TNM01/2614Z
FM260600 VRB02MPS 9999 BKN016
FM260800 VRB02MPS 6000 BR NSC
FM260900 VRB02MPS 5000 VCSH BR BKN008 OVC010CB
TEMPO 2609/2610 1500 SHSN
FM261000 VRB02MPS 9999 BKN009 OVC010CB
TEMPO 2610/2611 1500 VCTS
FM261100 VRB02MPS 9999 -TSSN OVC013CB
BECMG 2611/2612 OVC017CB
FM261400 07003MPS 9999 -SN BKN019
 
Севастополь (Бельбек)
 


NOWCAST.SU URFB 260600Z 14005MPS 9999 FEW210 17/13 Q1017 NOSIG
RMK ICE: FBL FL250/FL260 TURB: MOD SFC/FL30
AUTOTAF.ME URFB 260400Z 2605/2614 14005MPS CAVOK TX21/2611Z TN16/2605Z
BECMG 2606/2607 BKN031
BECMG 2608/2609 14010G15MPS
BECMG 2609/2610 NSC
 
Симферополь
METAR URFF 060700Z 24006MPS CAVOK 11/02 Q1015 R19/090095 NOSIG


NOWCAST.SU URFF 260600Z VRB02MPS 9999 OVC184 14/10 Q1017 NOSIG
AUTOTAF.ME URFF 260400Z 2605/2614 VRB02MPS CAVOK TX22/2611Z TN12/2605Z
BECMG 2608/2609 SCT020
BECMG 2609/2610 SCT028
BECMG 2610/2611 NSC
FM261200 30003MPS 9999 FEW043
FM261400 31003MPS CAVOK
TAF AMD URFF 060600Z 0606/0706 24007G12MPS 9999 SCT030CB TX14/0611Z TN01/0703Z
BECMG 0618/0620 15003MPS=
Саки
 


NOWCAST.SU URFI 260600Z 13004MPS 9999 OVC190 16/11 Q1017 NOSIG
AUTOTAF.ME URFI 260400Z 2605/2614 14004MPS CAVOK TX21/2611Z TN15/2605Z
BECMG 2606/2607 SCT036
BECMG 2609/2610 20005G10MPS
BECMG 2610/2611 NSC
 
Симферополь (Заводское)
 


NOWCAST.SU URFW 260600Z VRB02MPS 9999 OVC181 14/10 Q1017 NOSIG
AUTOTAF.ME URFW 260400Z 2605/2614 VRB02MPS CAVOK TX22/2611Z TN12/2605Z
BECMG 2607/2608 FEW046
BECMG 2610/2611 NSC
FM261200 30003MPS 9999 FEW040
BECMG 2613/2614 NSC
 
Анапа (Витязево)
METAR URKA 260530Z 15002MPS 9999 SCT044 19/13 Q1018 R22/010070 NOSIG RMK QFE759/1012


NOWCAST.SU URKA 260600Z 19004MPS 9999 SCT034 19/11 Q1019 NOSIG
RMK ICE: FBL FL250/FL260 TURB: MOD SFC/FL40
AUTOTAF.ME URKA 260400Z 2605/2614 18003MPS CAVOK TX22/2609Z TN17/2605Z
BECMG 2605/2606 SCT034
BECMG 2607/2608 NSC
TAF URKA 260159Z 2603/2703 16003G08MPS 9999 SCT030
TEMPO 2605/2616 23006G12MPS=
Геленджик
 


NOWCAST.SU URKG 260600Z 16005MPS 9999 BKN039 20/12 Q1019 NOSIG
RMK ICE: FBL FL250/FL260 TURB: MOD SFC/FL40
AUTOTAF.ME URKG 260400Z 2605/2614 16005MPS 9999 SCT038 TX21/2610Z TN19/2605Z
BECMG 2609/2610 NSC
BECMG 2611/2612 SCT042TCU
BECMG 2612/2613 NSC
 
Краснодар (Пашковский)
METAR URKK 260530Z 14002MPS 120V180 9999 BKN036 14/11 Q1019 R23L/CLRD70 NOSIG RMK QFE761


NOWCAST.SU URKK 260600Z 14003MPS 9999 FEW190 16/09 Q1020 NOSIG
RMK ICE: FBL FL250/FL260
AUTOTAF.ME URKK 260400Z 2605/2614 14003MPS CAVOK TX23/2612Z TN15/2605Z
BECMG 2611/2612 08003MPS
TAF AMD URKK 260416Z 2604/2703 16003MPS 9999 SCT030
BECMG 2608/2610 21003G08MPS
BECMG 2615/2617 12003MPS=
Майкоп
 


NOWCAST.SU URKM 260600Z VRB02MPS 9999 FEW180 15/04 Q1021 NOSIG
AUTOTAF.ME URKM 260400Z 2605/2614 VRB02MPS CAVOK TX22/2611Z TN12/2605Z  
Геленджик Бухта
 


NOWCAST.SU URKN 260600Z 16005MPS 9999 SCT035 19/12 Q1019 NOSIG
RMK ICE: FBL FL250/FL260 TURB: MOD SFC/FL40
AUTOTAF.ME URKN 260400Z 2605/2614 16005MPS 9999 BKN032 TX21/2610Z TN18/2605Z
BECMG 2609/2610 NSC
BECMG 2611/2612 SCT038TCU
BECMG 2612/2613 NSC
 
Армавир (Центральный)
 


NOWCAST.SU URKR 260600Z 14004MPS 9999 FEW180 15/08 Q1021 NOSIG
RMK ICE: FBL FL250/FL260
AUTOTAF.ME URKR 260400Z 2605/2614 15004MPS CAVOK TX21/2610Z TN12/2605Z
BECMG 2613/2614 VRB02MPS
 
Энем-АС
 


NOWCAST.SU URKS 260600Z 14003MPS 9999 FEW190 16/09 Q1020 NOSIG
RMK ICE: FBL FL250/FL260
AUTOTAF.ME URKS 260400Z 2605/2614 14003MPS CAVOK TX23/2611Z TN14/2605Z
BECMG 2611/2612 08003MPS
 
Тихорецк
 


NOWCAST.SU URKT 260600Z 21004MPS 9999 FEW170 15/09 Q1020 NOSIG
AUTOTAF.ME URKT 260400Z 2605/2614 21004MPS CAVOK TX21/2612Z TN13/2605Z
BECMG 2608/2609 SCT044TCU
BECMG 2609/2610 NSC
BECMG 2613/2614 VRB02MPS
 
Краснодар (Белевцы)
 


NOWCAST.SU URKY 260600Z 14003MPS 9999 FEW190 16/10 Q1020 NOSIG
RMK ICE: FBL FL250/FL260
AUTOTAF.ME URKY 260400Z 2605/2614 14003MPS CAVOK TX23/2612Z TN14/2605Z
BECMG 2609/2610 FEW033
BECMG 2610/2611 NSC
BECMG 2611/2612 08003MPS
 
Новотитаровская (Азимут)
 


NOWCAST.SU URKZ 260600Z 18003MPS 9999 BKN032 16/10 Q1020 NOSIG
RMK ICE: FBL FL250/FL260
AUTOTAF.ME URKZ 260400Z 2605/2614 18003MPS CAVOK TX22/2611Z TN14/2605Z
BECMG 2605/2606 BKN032
BECMG 2609/2610 NSC
BECMG 2611/2612 SCT033TCU
FM261400 VRB02MPS CAVOK
 
Ессентуки
 


NOWCAST.SU URME 260600Z 12003MPS 9999 FEW300 13/07 Q1023 NOSIG
RMK TURB: MOD FL40/FL50
AUTOTAF.ME URME 260400Z 2605/2614 VRB02MPS CAVOK TX18/2610Z TN11/2605Z  
Грозный (Северный)
METAR URMG 260530Z VRB01MPS CAVOK 14/08 Q1023 R26/090070 NOSIG RMK QFE752/1003


NOWCAST.SU URMG 260600Z 06003MPS 9999 FEW320 16/07 Q1023 NOSIG
RMK TURB: MOD SFC/FL120
AUTOTAF.ME URMG 260400Z 2605/2614 VRB02MPS CAVOK TX22/2611Z TN13/2605Z
BECMG 2606/2607 SCT030
BECMG 2607/2608 NSC
BECMG 2610/2611 FEW045
FM261300 08005MPS CAVOK
TAF URMG 260200Z 2603/2612 06003G08MPS 6000 BKN016
TEMPO 2603/2606 0300 FG OVC002
BECMG 2606/2608 9999 BKN030=
Кисловодск
 


NOWCAST.SU URMK 260600Z VRB02MPS 9999 FEW280 10/03 Q1024 NOSIG
AUTOTAF.ME URMK 260400Z 2605/2614 VRB02MPS CAVOK TX17/2611Z TN08/2605Z
BECMG 2608/2609 07003MPS
 
Махачкала (Уйташ)
METAR URML 260530Z 14004MPS 9999 NSC 19/11 Q1022 R14/01//70 NOSIG RMK QFE767/1022


NOWCAST.SU URML 260600Z 14005MPS 9999 SKC 19/10 Q1023 NOSIG
RMK TURB: MOD SFC/FL20
AUTOTAF.ME URML 260400Z 2605/2614 14004MPS CAVOK TX21/2610Z TN18/2605Z
BECMG 2607/2608 SCT041
BECMG 2608/2609 12009G14MPS
TAF URML 260200Z 2603/2612 15005G11MPS 9999 FEW033
TEMPO 2606/2612 13009G14MPS SCT016=
Минеральные Воды
METAR URMM 260530Z VRB01MPS 9999 NSC 13/08 Q1022 R30/090070 NOSIG RMK QFE738/0984


NOWCAST.SU URMM 260600Z 12003MPS 9999 FEW310 14/07 Q1023 NOSIG
RMK TURB: MOD FL40/FL50
AUTOTAF.ME URMM 260400Z 2605/2614 VRB02MPS CAVOK TX19/2611Z TN11/2605Z TAF URMM 260200Z 2603/2703 28003G08MPS 9999 SCT055 TX21/2612Z TN07/2603Z
BECMG 2605/2607 10003G08MPS
TEMPO 2607/2618 12006G14MPS
TEMPO 2618/2703 BKN016=
Нальчик
METAR URMN 260530Z 22001MPS 9999 NSC 14/07 Q1022 R24/010070 NOSIG RMK QFE729


NOWCAST.SU URMN 260600Z VRB02MPS 9999 SCT036 14/06 Q1024 NOSIG
RMK TURB: MOD SFC/FL50
AUTOTAF.ME URMN 260400Z 2605/2614 VRB02MPS 9999 SCT036 TX18/2610Z TN11/2605Z
BECMG 2607/2608 NSC
TAF URMN 260200Z 2603/2612 24003G09MPS 9999 BKN020=
Владикавказ (Беслан)
METAR URMO 260530Z VRB01MPS 9999 NSC 12/10 Q1023 R09/010070 NOSIG RMK QFE723/0964


NOWCAST.SU URMO 260600Z VRB02MPS 9999 FEW310 12/04 Q1025 NOSIG
AUTOTAF.ME URMO 260400Z 2605/2614 VRB02MPS CAVOK TX18/2610Z TN09/2605Z TAF URMO 260200Z 2603/2612 10003G08MPS 6000 BKN016
TEMPO 2603/2606 0300 FG OVC002
BECMG 2606/2608 9999 BKN030=
Слепцовская (Магас)
 


NOWCAST.SU URMS 260600Z 07003MPS 9999 SCT042 16/06 Q1023 NOSIG
RMK TURB: MOD SFC/FL40
AUTOTAF.ME URMS 260400Z 2605/2614 VRB02MPS 9999 SCT039 TX20/2610Z TN13/2605Z
BECMG 2607/2608 NSC
 
Ставрополь (Шпаковское)
METAR URMT 260530Z 22003MPS CAVOK 15/09 Q1021 R25/010070 NOSIG RMK QFE727


NOWCAST.SU URMT 260600Z VRB02MPS 9999 FEW170 14/08 Q1022 NOSIG
RMK ICE: FBL FL190/FL200 TURB: MOD SFC/FL40
AUTOTAF.ME URMT 260400Z 2605/2614 VRB02MPS CAVOK TX19/2610Z TN12/2605Z
BECMG 2612/2613 11003MPS
TAF URMT 260200Z 2603/2612 16003G08MPS 9999 SCT020=
Грачевка
 


NOWCAST.SU URMX 260600Z VRB02MPS 9999 FEW180 14/07 Q1022 NOSIG
RMK ICE: FBL FL190/FL200 TURB: MOD SFC/FL30
AUTOTAF.ME URMX 260400Z 2605/2614 VRB02MPS CAVOK TX21/2612Z TN12/2605Z
BECMG 2612/2613 13003MPS
 
Казачья
 


NOWCAST.SU URMZ 260600Z 15003MPS 9999 FEW170 14/07 Q1022 NOSIG
RMK ICE: FBL FL190/FL250
AUTOTAF.ME URMZ 260400Z 2605/2614 15003MPS CAVOK TX20/2610Z TN11/2605Z
BECMG 2612/2613 VRB02MPS
 
Шахты
 


NOWCAST.SU URRH 260600Z 23004MPS 9999 BKN017 14/08 Q1019 NOSIG
RMK ICE: MOD FL90/FL150 FBL FL120/FL190
AUTOTAF.ME URRH 260400Z 2605/2614 23004MPS 9999 BKN015 TX19/2611Z TN12/2605Z
BECMG 2606/2607 BKN021
BECMG 2610/2611 -RA
FM261400 24003MPS CAVOK
 
Миллерово
 


NOWCAST.SU URRI 260600Z 24003MPS 9999 BKN045 12/04 Q1017 NOSIG
RMK ICE: MOD FL90/FL100 TURB: MOD FL50/FL70
AUTOTAF.ME URRI 260400Z 2605/2614 24003MPS CAVOK TX19/2611Z TN11/2605Z
BECMG 2605/2606 BKN045
 
Ростов-на-Дону (Платов)
METAR URRP 260530Z 23003MPS 9999 FEW007 SCT033CB 14/13 Q1018 R23/CLRD70 TEMPO 1000 TSRA SCT002 BKN020CB RMK QFE756/1008


NOWCAST.SU URRP 260600Z 23004MPS 9999 BKN016 15/11 Q1018 NOSIG
RMK ICE: FBL FL150/FL190
AUTOTAF.ME URRP 260400Z 2605/2614 23004MPS 9999 BKN010 TX19/2611Z TN13/2605Z
BECMG 2605/2606 BKN016
BECMG 2606/2607 BKN027
FM261100 24008G13MPS 9999 VCSH BKN042CB
FM261400 24003MPS CAVOK
TAF URRP 260156Z 2603/2703 24003G11MPS 6000 SCT016 SCT030CB TX17/2613Z TN10/2703Z
PROB40 TEMPO 2603/2606 0300 FG SCT001 SCT020CB
BECMG 2605/2606 24006G12MPS
TEMPO 2606/2615 26007G14MPS -SHRA FEW006 BKN020CB
BECMG 2618/2620 15003G10MPS=
Ростов-на-Дону
 


NOWCAST.SU URRR 260600Z 23004MPS 9999 VCSH BKN024CB 16/12 Q1018 NOSIG
RMK ICE: MOD FL110/FL120 FBL FL170/FL190
AUTOTAF.ME URRR 260400Z 2605/2614 23004MPS 9999 BKN017 TX20/2611Z TN14/2605Z
FM260600 23004MPS 9999 VCSH BKN024CB
FM260700 23004MPS 9999 BKN032
FM261100 24008G13MPS 9999 -SHRA BKN040CB
FM261400 24003MPS CAVOK
 
Таганрог (Южный)
 


NOWCAST.SU URRT 260600Z 24005G10MPS 9999 -SHRA BKN014CB 15/12 Q1019 NOSIG
RMK ICE: MOD FL110/FL120 FBL FL170/FL190
AUTOTAF.ME URRT 260400Z 2605/2614 24005G10MPS 9999 -SHRA OVC011CB TX18/2609Z TN14/2605Z
BECMG 2606/2607 OVC021TCU
BECMG 2607/2608 BKN028CB
FM261200 28004MPS 9999 OVC035
BECMG 2612/2613 NSC
FM261400 VRB02MPS 9999 SCT033
 
Сочи
METAR URSS 260530Z 04006MPS 9999 NSC 15/07 Q1019 R02/010070 R06/010070 NOSIG RMK R06/07004MPS QFE763


NOWCAST.SU URSS 260600Z VRB02MPS 9999 FEW350 17/06 Q1020 NOSIG
AUTOTAF.ME URSS 260400Z 2605/2614 VRB02MPS CAVOK TX21/2609Z TN15/2605Z TAF URSS 260155Z 2603/2703 04007MPS 9999 NSC
BECMG 2608/2609 27003G08MPS FEW040
BECMG 2614/2615 05004G09MPS NSC
BECMG 2618/2620 04007MPS=
Астрахань
METAR URWA 260530Z 25006MPS CAVOK 16/08 Q1021 R27/010070 NOSIG RMK QFE768/1024


NOWCAST.SU URWA 260600Z 26008G13MPS 9999 FEW230 16/06 Q1021 NOSIG
RMK TURB: MOD SFC/FL20
AUTOTAF.ME URWA 260400Z 2605/2614 26007MPS CAVOK TX21/2611Z TN15/2605Z TAF URWA 260200Z 2603/2612 26005G11MPS CAVOK
TEMPO 2603/2612 23006G12MPS=
Элиста
METAR URWI 260530Z 23005MPS CAVOK 14/06 Q1021 NOSIG


NOWCAST.SU URWI 260600Z 26008G13MPS 9999 BKN184 15/06 Q1021 NOSIG
RMK ICE: FBL FL190/FL200 TURB: MOD SFC/FL20
AUTOTAF.ME URWI 260400Z 2605/2614 26006MPS CAVOK TX20/2610Z TN13/2605Z
BECMG 2610/2611 BKN045
BECMG 2612/2613 NSC
TAF URWI 260156Z 2603/2612 25005G12MPS 9999 SCT020CB
TEMPO 2606/2612 25009G15MPS=
Камышин
 


NOWCAST.SU URWK 260600Z 27011G16MPS 9999 SCT044 12/04 Q1015 NOSIG
RMK ICE: FBL FL50/FL70 TURB: MOD SFC/FL30
AUTOTAF.ME URWK 260400Z 2605/2614 26010G16MPS 9999 FEW045 TX16/2612Z TN11/2605Z
BECMG 2613/2614 28005G11MPS
 
МЛСК им. В.Филановского
 


NOWCAST.SU URWO 260600Z 27008G13MPS 9999 FEW270 19/11 Q1023 NOSIG
RMK TURB: MOD SFC/FL30
AUTOTAF.ME URWO 260400Z 2605/2614 27008G13MPS CAVOK TX19/2605Z TN18/2608Z
BECMG 2610/2611 26003MPS
BECMG 2613/2614 VRB02MPS
 
Волгоград (Гумрак)
METAR URWW 260530Z 25006MPS CAVOK 12/06 Q1017 R24/010070 NOSIG


NOWCAST.SU URWW 260600Z 27011G16MPS 9999 SCT038TCU 13/05 Q1017 NOSIG
RMK ICE: MOD FL70/FL80 TURB: MOD SFC/FL20
AUTOTAF.ME URWW 260400Z 2605/2614 27010G16MPS 9999 SCT044 TX17/2610Z TN11/2605Z
BECMG 2611/2612 NSC
BECMG 2612/2613 28005G11MPS
TAF URWW 260157Z 2603/2612 24009G14MPS 6000 BKN016 BKN020CB
TEMPO 2603/2606 27006G12MPS
TEMPO 2606/2612 27011G17MPS -SHRA=
Челябинск (Баландино)
METAR USCC 260530Z 36005MPS 4700 -SHRA SCT005 BKN016CB 03/03 Q1005 R27/290240 NOSIG RMK QFE734


NOWCAST.SU USCC 260600Z 04006MPS 5000 -RA OVC011 04/04 Q1006 NOSIG
RMK ICE: SEV FL70/FL110 MOD FL190/FL200 FBL FL170/FL180 TURB: MOD FL160/FL190 MOD SFC/FL30
AUTOTAF.ME USCC 260400Z 2605/2614 04007MPS 5000 -RA OVC011 TX05/2605Z TN01/2612Z
FM260700 03005MPS 8000 -RA OVC015
FM260800 02005MPS 0800 +RASN OVC016
BECMG 2608/2609 +SN
FM261000 01005MPS 1000 SN OVC019
FM261100 02005G10MPS 0800 +SN OVC018
BECMG 2613/2614 OVC010
TAF USCC 260157Z 2603/2703 03003G10MPS 4000 -SHRA BKN006 BKN016CB
TEMPO 2603/2606 05008G14MPS 0300 SHRA FG VV003
FM260600 01003G12MPS 6000 -SHRASN BKN016CB=
Челябинск (Шагол)
 


NOWCAST.SU USCG 260600Z 04006MPS 5000 -RA OVC014 05/04 Q1006 NOSIG
RMK ICE: SEV FL110/FL120 MOD FL50/FL190 FBL FL170/FL180 TURB: MOD FL170/FL190 MOD SFC/FL30
AUTOTAF.ME USCG 260400Z 2605/2614 04007MPS 5000 -RA OVC014 TX05/2605Z TN01/2613Z
BECMG 2606/2607 8000
FM260800 02005MPS 0800 +RASN OVC017
FM260900 01005MPS 0800 +SN OVC020
BECMG 2613/2614 OVC012
 
Магнитогорск
METAR USCM 260530Z 26006MPS 9999 BKN040CB 10/05 Q1007 R18/090060 TEMPO 27012MPS RMK QFE718


NOWCAST.SU USCM 260600Z 28005G10MPS 9999 BKN031CB 11/05 Q1008 TEMPO VRB11G16MPS VCSH
RMK ICE: MOD FL70/FL90 FBL FL120/FL150 TURB: MOD SFC/FL40
AUTOTAF.ME USCM 260400Z 2605/2614 27005G10MPS 9999 BKN027CB TX13/2608Z TN10/2614Z
TEMPO 2605/2609 VRB11G16MPS VCTS
FM260900 27005G10MPS 9999 BKN041TCU
FM261100 27009G14MPS 9999 BKN039CB
TEMPO 2611/2615 VRB11G16MPS VCTS
BECMG 2611/2612 27010G15MPS
BECMG 2613/2614 26004MPS
TAF USCM 260155Z 2603/2612 26003G10MPS 6000 BKN016CB
TEMPO 2603/2612 24008G16MPS=
Сабетта
METAR USDA 260530Z 36007MPS 9999 BKN023 01/M04 Q1030 R04/350145 NOSIG RMK QFE771/1028


NOWCAST.SU USDA 260600Z 01005MPS 9999 BKN026TCU 01/M04 Q1029 NOSIG
RMK ICE: MOD FL20/FL40 FBL FL10/FL20 TURB: MOD SFC/FL20
AUTOTAF.ME USDA 260400Z 2605/2614 01005MPS 9999 BKN022 TX01/2606Z TN00/2605Z TAF USDA 260157Z 2603/2612 01009MPS 6000 BKN016
TEMPO 2603/2606 35008MPS -SN
TEMPO 2609/2612 03008MPS -SN=
Бованенково
 


NOWCAST.SU USDB 260600Z VRB02MPS 9999 BKN014 M01/M05 Q1030 NOSIG
RMK ICE: MOD FL40/FL50 FBL FL10/FL170
AUTOTAF.ME USDB 260400Z 2605/2614 VRB02MPS 9999 BKN014 TX00/2608Z TNM02/2605Z
BECMG 2612/2613 NSC
 
Салехард
 


NOWCAST.SU USDD 260600Z 03004MPS 9999 SCT028TCU 01/M05 Q1029 NOSIG
RMK ICE: MOD FL30/FL40 FBL FL20/FL40 TURB: MOD SFC/FL20
AUTOTAF.ME USDD 260400Z 2605/2614 03003MPS 9999 BKN022 TX02/2607Z TN00/2605Z
BECMG 2613/2614 NSC
 
Сеяха-1
 


NOWCAST.SU USDE 260600Z 02009G14MPS 9999 BKN029TCU 01/M02 Q1028 NOSIG
RMK ICE: MOD FL30/FL90 FBL FL10/FL110 TURB: MOD SFC/FL30
AUTOTAF.ME USDE 260400Z 2605/2614 01007MPS 9999 BKN025TCU TX02/2607Z TN01/2605Z
FM260800 02009G14MPS 9999 -SHSN BKN029CB
FM261100 02009G14MPS 9999 BKN030TCU
BECMG 2613/2614 -RASN
 
Гыда
 


NOWCAST.SU USDG 260600Z 04008G13MPS 9999 BKN038TCU 01/M03 Q1026 NOSIG
RMK ICE: MOD FL30/FL40 FBL FL10/FL20 TURB: MOD SFC/FL20
AUTOTAF.ME USDG 260400Z 2605/2614 04009G14MPS 9999 BKN031TCU TX01/2606Z TNM01/2613Z
BECMG 2610/2611 NSC
BECMG 2612/2613 BKN032
 
Харасавей
 


NOWCAST.SU USDH 260600Z VRB02MPS 9999 BKN016TCU 02/M02 Q1030 NOSIG
RMK ICE: MOD FL30/FL170 FBL FL10/FL110
AUTOTAF.ME USDH 260400Z 2605/2614 VRB02MPS 9999 BKN015 TX03/2608Z TN01/2614Z
FM261100 VRB02MPS 5000 BR BKN014TCU
FM261200 VRB02MPS CAVOK
FM261300 09003MPS 6000 BR NSC
FM261400 08003MPS 9999 BKN014
 
Мыс Каменный
 


NOWCAST.SU USDK 260600Z 02010G15MPS 9999 -SN BKN026 02/M02 Q1026 NOSIG
RMK ICE: MOD FL20/FL70 FBL FL10/FL120 TURB: MOD SFC/FL20
AUTOTAF.ME USDK 260400Z 2605/2614 02010G15MPS 9999 -SN BKN025 TX02/2605Z TN02/2605Z
FM260800 02010G15MPS 9000 BR BKN028TCU
BECMG 2608/2609 8000
FM261000 02010G15MPS 9999 BKN026TCU
FM261100 02010G15MPS 9999 -SHSN BKN026CB
FM261300 03011G16MPS 9999 -SN BKN033
 
Утренний
 


NOWCAST.SU USDM 260600Z 02007MPS 9999 BKN014 00/M02 Q1028 NOSIG
RMK ICE: MOD FL20/FL50 FBL FL10/FL110 TURB: MOD SFC/FL20
AUTOTAF.ME USDM 260400Z 2605/2614 01007MPS 9999 BKN012TCU TX01/2607Z TNM01/2613Z
BECMG 2606/2607 BKN018
BECMG 2607/2608 -SN
BECMG 2608/2609 BKN024
FM261200 02005G10MPS 9999 BKN013
FM261400 01004MPS 7000 BR BKN012
 
Толька
 


NOWCAST.SU USDO 260600Z 35005G10MPS 9999 BKN025TCU M01/M07 Q1016 NOSIG
RMK ICE: MOD FL30/FL40 FBL FL20/FL150 TURB: MOD SFC/FL40
AUTOTAF.ME USDO 260400Z 2605/2614 35005G11MPS 9999 BKN025TCU TXM01/2605Z TNM01/2605Z
BECMG 2612/2613 -SN
 
Красноселькуп
 


NOWCAST.SU USDP 260600Z 36008G13MPS 9999 BKN029TCU M01/M06 Q1015 NOSIG
RMK ICE: MOD FL30/FL50 FBL FL10/FL70 TURB: MOD SFC/FL30
AUTOTAF.ME USDP 260400Z 2605/2614 36009G14MPS 9999 BKN027TCU TX01/2608Z TNM01/2605Z
BECMG 2607/2608 -SN
 
Яр-Сале
 


NOWCAST.SU USDR 260600Z 01008G13MPS 9999 BKN022TCU 01/M03 Q1026 NOSIG
RMK ICE: MOD FL30/FL70 FBL FL10/FL20 TURB: MOD SFC/FL20
AUTOTAF.ME USDR 260400Z 2605/2614 36007MPS 9999 BKN018TCU TX02/2607Z TN00/2614Z
BECMG 2607/2608 BKN024TCU
BECMG 2611/2612 BKN016TCU
 
Тарко-Сале
 


NOWCAST.SU USDS 260600Z 36009G14MPS 9999 BKN028TCU 00/M07 Q1019 NOSIG
RMK ICE: MOD FL40/FL50 FBL FL20/FL30 TURB: MOD SFC/FL40
AUTOTAF.ME USDS 260400Z 2605/2614 36010G15MPS 9999 BKN022TCU TX01/2608Z TNM02/2614Z
BECMG 2612/2613 NSC
 
Тазовский
 


NOWCAST.SU USDT 260600Z 01011G16MPS 9999 DRSN BKN032 00/M06 Q1021 NOSIG
RMK ICE: FBL FL20/FL30 TURB: MOD SFC/FL30
AUTOTAF.ME USDT 260400Z 2605/2614 01011G16MPS 9999 DRSN BKN028 TX01/2608Z TNM01/2613Z
BECMG 2610/2611 DRSN
 
Новый Порт
 


NOWCAST.SU USDW 260600Z 02011G16MPS 9999 BKN030TCU 02/M02 Q1025 NOSIG
RMK ICE: MOD FL20/FL70 FBL FL10/FL90 TURB: MOD SFC/FL30
AUTOTAF.ME USDW 260400Z 2605/2614 01011G16MPS 9999 BKN028TCU TX02/2605Z TN02/2605Z
FM260700 02011G16MPS 9000 BR BKN031TCU
FM260800 02011G16MPS 8000 -SN BKN032
FM260900 02012G17MPS 8000 -SHSN BKN030CB
BECMG 2609/2610 6000
FM261100 02012G17MPS 5000 -SN BKN026
BECMG 2611/2612 6000
BECMG 2612/2613 9999
FM261400 03012G17MPS 9999 -SHSN BKN038CB
 
Березово
 


NOWCAST.SU USHB 260600Z 04003MPS 9999 BKN033 02/M04 Q1027 NOSIG
RMK ICE: FBL FL20/FL40 TURB: MOD SFC/FL30
AUTOTAF.ME USHB 260400Z 2605/2614 03003MPS CAVOK TX04/2609Z TN00/2605Z
BECMG 2605/2606 BKN033
BECMG 2612/2613 NSC
 
Ханты-Мансийск
METAR USHH 260530Z 06004MPS 010V080 9999 SCT038 01/M04 Q1023 R06/010060 NOSIG


NOWCAST.SU USHH 260600Z 05008G13MPS 9999 BKN037 02/M05 Q1023 NOSIG
RMK ICE: FBL FL30/FL40 TURB: MOD SFC/FL30
AUTOTAF.ME USHH 260400Z 2605/2614 05007MPS 9999 BKN030 TX04/2609Z TN01/2605Z TAF USHH 260143Z 2603/2703 04003G12MPS 9999 BKN020
TEMPO 2603/2612 SCT005 BKN016
TEMPO 2612/2703 5000 -SHRASN SCT004 BKN016CB=
Игрим
 


NOWCAST.SU USHI 260600Z 06004MPS 9999 BKN036 02/M04 Q1026 NOSIG
RMK ICE: FBL FL30/FL40 TURB: MOD SFC/FL30
AUTOTAF.ME USHI 260400Z 2605/2614 06004MPS 9999 BKN030 TX04/2608Z TN01/2605Z
BECMG 2607/2608 NSC
BECMG 2608/2609 BKN045
BECMG 2612/2613 NSC
 
Междуреченский
 


NOWCAST.SU USHM 260600Z 07009G14MPS 9999 SCT040 03/M05 Q1020 NOSIG
RMK ICE: FBL FL40/FL50 TURB: MOD SFC/FL40
AUTOTAF.ME USHM 260400Z 2605/2614 07005G11MPS CAVOK TX05/2610Z TN02/2605Z
BECMG 2605/2606 SCT040
BECMG 2607/2608 NSC
BECMG 2609/2610 SCT048
 
Нягань
 


NOWCAST.SU USHN 260600Z 06004MPS 9999 BKN032 02/M05 Q1024 NOSIG
RMK ICE: FBL FL30/FL40 TURB: MOD SFC/FL40
AUTOTAF.ME USHN 260400Z 2605/2614 06003MPS 9999 BKN024 TX05/2610Z TN01/2605Z  
Горноправдинск
 


NOWCAST.SU USHP 260600Z 06004MPS 9999 BKN032 02/M06 Q1021 NOSIG
RMK ICE: FBL FL30/FL40 TURB: MOD SFC/FL40
AUTOTAF.ME USHP 260400Z 2605/2614 05004MPS 9999 BKN026 TX04/2609Z TN00/2614Z
BECMG 2612/2613 NSC
 
Белоярский
 


NOWCAST.SU USHQ 260600Z 04003MPS 9999 BKN030TCU 01/M05 Q1026 NOSIG
RMK ICE: MOD FL40/FL50 FBL FL30/FL40 TURB: MOD SFC/FL30
AUTOTAF.ME USHQ 260400Z 2605/2614 03003MPS CAVOK TX04/2609Z TN00/2605Z
BECMG 2605/2606 BKN030TCU
BECMG 2612/2613 NSC
 
Советский
 


NOWCAST.SU USHS 260600Z 07005G10MPS 9999 BKN038 02/M06 Q1024 NOSIG
RMK ICE: FBL FL40/FL50 TURB: MOD SFC/FL30
AUTOTAF.ME USHS 260400Z 2605/2614 07004MPS CAVOK TX05/2609Z TN01/2605Z
BECMG 2605/2606 BKN038
BECMG 2607/2608 NSC
BECMG 2608/2609 SCT047
FM261300 04003MPS CAVOK
FM261400 04003MPS 9999 SCT030
 
Урай
 


NOWCAST.SU USHU 260600Z 07009G14MPS 9999 SCT041 03/M06 Q1021 NOSIG
RMK ICE: FBL FL40/FL50 TURB: MOD SFC/FL40
AUTOTAF.ME USHU 260400Z 2605/2614 07005G11MPS CAVOK TX05/2608Z TN02/2605Z
BECMG 2605/2606 SCT041
BECMG 2607/2608 NSC
BECMG 2608/2609 SCT027
FM261100 06005G11MPS CAVOK
 
Няксимволь
 


NOWCAST.SU USHW 260600Z 08004MPS 9999 SKC 02/M06 Q1025 NOSIG
RMK ICE: FBL FL40/FL50 TURB: MOD SFC/FL30
AUTOTAF.ME USHW 260400Z 2605/2614 08003MPS CAVOK TX05/2610Z TN00/2605Z  
Ижевск
 


NOWCAST.SU USII 260600Z VRB02MPS 9999 -RA BKN019 09/07 Q1007 NOSIG
RMK ICE: SEV FL50/FL60 MOD FL70/FL90 FBL FL110/FL190 TURB: MOD FL190/FL210 MOD SFC/FL30
AUTOTAF.ME USII 260400Z 2605/2614 VRB02MPS 9999 BKN020TCU TX09/2605Z TN04/2614Z
BECMG 2605/2606 -RA
FM260700 VRB02MPS 9999 VCSH BKN016CB
BECMG 2607/2608 -SHRA
BECMG 2608/2609 OVC011CB
FM261000 07003MPS 9999 -SHRA BKN012CB
FM261100 07004MPS 9999 -RA OVC015
FM261400 07005MPS 8000 -RA BR OVC019
 
Киров (Победилово)
 


NOWCAST.SU USKK 260600Z 09009G14MPS 9999 -RA OVC013 06/05 Q1005 NOSIG
RMK ICE: MOD FL70/FL80 FBL FL90/FL190 TURB: MOD SFC/FL30
AUTOTAF.ME USKK 260400Z 2605/2614 09009G15MPS 9999 BKN011 TX06/2605Z TN04/2614Z
BECMG 2605/2606 -RA
BECMG 2606/2607 OVC015
BECMG 2612/2613 10004MPS
 
Котельнич
 


NOWCAST.SU USKO 260600Z 08010G16MPS 9999 -RA OVC012 07/06 Q1004 NOSIG
RMK ICE: MOD FL90/FL100 FBL FL170/FL190 TURB: MOD SFC/FL30
AUTOTAF.ME USKO 260400Z 2605/2614 08010G16MPS 9999 -DZ OVC010 TX07/2605Z TN05/2614Z
BECMG 2605/2606 -RA
BECMG 2606/2607 OVC014
BECMG 2612/2613 09005G11MPS
 
КС Лонг-Юганская
 


NOWCAST.SU USML 260600Z 01008G13MPS 9999 -SN BKN026 01/M03 Q1025 NOSIG
RMK ICE: MOD FL30/FL70 FBL FL20/FL30 TURB: MOD SFC/FL30
AUTOTAF.ME USML 260400Z 2605/2614 01007MPS 9999 -SN BKN021 TX02/2607Z TN00/2614Z
BECMG 2606/2607 -RASN
BECMG 2612/2613 -SN
FM261400 36008MPS 6000 -SN DRSN BKN011
 
Надым
 


NOWCAST.SU USMM 260600Z 02008G13MPS 9999 BKN025TCU 01/M05 Q1024 NOSIG
RMK ICE: MOD FL30/FL70 FBL FL20/FL90 TURB: MOD SFC/FL30
AUTOTAF.ME USMM 260400Z 2605/2614 01007MPS 9999 BKN015 TX02/2607Z TNM01/2614Z
BECMG 2605/2606 BKN025TCU
BECMG 2610/2611 -RASN
FM261200 01009G14MPS 9999 -SN BKN016
BECMG 2612/2613 BKN048
 
Ямбург
 


NOWCAST.SU USMQ 260600Z 03010G15MPS 9999 -SN DRSN BKN021CB 00/M04 Q1024 NOSIG
RMK ICE: MOD FL30/FL40 FBL FL10/FL50 TURB: MOD SFC/FL30
AUTOTAF.ME USMQ 260400Z 2605/2614 02009G14MPS 9000 -SN DRSN BKN015CB TX01/2607Z TNM01/2613Z
FM260600 03010G15MPS 9999 -SN DRSN BKN021CB
BECMG 2606/2607 -SHSN
FM260800 02010G15MPS 9999 BKN032TCU
BECMG 2612/2613 NSC
 
Новый Уренгой
 


NOWCAST.SU USMU 260600Z 01011G16MPS 9999 -SN DRSN BKN025 00/M05 Q1021 NOSIG
RMK ICE: MOD FL40/FL50 FBL FL20/FL30 TURB: MOD SFC/FL30
AUTOTAF.ME USMU 260400Z 2605/2614 01011G16MPS 9999 -SN DRSN OVC020 TX00/2605Z TNM01/2612Z
BECMG 2606/2607 BKN028
BECMG 2612/2613 NSC
 
Нижневартовск
METAR USNN 260530Z 36003G08MPS 9999 BKN023 01/M03 Q1019 R03/0///65 NOSIG RMK QFE760


NOWCAST.SU USNN 260600Z 36005MPS 9999 BKN024TCU 01/M06 Q1020 NOSIG
RMK ICE: MOD FL40/FL50 FBL FL20/FL70 TURB: MOD SFC/FL30
AUTOTAF.ME USNN 260400Z 2605/2614 36005MPS 9999 BKN022TCU TX02/2607Z TN00/2614Z TAF USNN 260152Z 2603/2703 36003G10MPS 9999 BKN016CB
TEMPO 2603/2612 -SHSN FEW007 BKN016CB=
Пермь (Большое Савино)
METAR USPP 260530Z 08007MPS 9999 -RA OVC008 02/01 Q1011 R03/290250 TEMPO OVC006 RMK QFE747


NOWCAST.SU USPP 260600Z 09005G11MPS 0800 +RASN OVC014 02/01 Q1011 NOSIG
RMK ICE: SEV FL110/FL170 MOD FL20/FL190 FBL FL10/FL20
AUTOTAF.ME USPP 260400Z 2605/2614 09005G11MPS 0800 +RASN OVC014 TX04/2612Z TN02/2605Z
FM261000 09005G11MPS 1000 RASN OVC014
BECMG 2610/2611 1500
FM261200 10004MPS 9999 -RA BKN019
BECMG 2612/2613 BKN043
FM261400 08003MPS 9999 BKN012
TAF USPP 260154Z 2603/2703 10008G17MPS 6000 -RA BKN011
TEMPO 2603/2608 3200 -SHRASN BKN016CB
BECMG 2610/2611 08003G13MPS
BECMG 2612/2613 9999 BKN016=
Березники
 


NOWCAST.SU USPT 260600Z 10009G15MPS 9999 BKN280 05/M05 Q1015 NOSIG
RMK ICE: FBL FL40/FL50 TURB: MOD SFC/FL30
AUTOTAF.ME USPT 260400Z 2605/2614 10005G11MPS 9999 SCT028 TX07/2609Z TN04/2605Z
BECMG 2605/2606 NSC
 
Когалым
 


NOWCAST.SU USRK 260600Z 01006MPS 9999 BKN023TCU 00/M07 Q1021 NOSIG
RMK ICE: MOD FL40/FL50 FBL FL20/FL70 TURB: MOD SFC/FL40
AUTOTAF.ME USRK 260400Z 2605/2614 01006MPS 9999 BKN021 TX01/2607Z TN00/2605Z  
Нефтеюганск
 


NOWCAST.SU USRN 260600Z 03005MPS 9999 BKN033 02/M05 Q1021 NOSIG
RMK ICE: FBL FL30/FL40 TURB: MOD SFC/FL40
AUTOTAF.ME USRN 260400Z 2605/2614 03005MPS 9999 BKN025 TX02/2606Z TN00/2614Z  
Ноябрьск
 


NOWCAST.SU USRO 260600Z 36009G14MPS 9999 BKN021TCU 00/M07 Q1020 NOSIG
RMK ICE: MOD FL30/FL50 FBL FL20/FL90 TURB: MOD SFC/FL30
AUTOTAF.ME USRO 260400Z 2605/2614 36009G14MPS 9999 BKN019TCU TX00/2606Z TNM01/2605Z
FM261400 36005G11MPS 9999 -SHSN OVC016CB
 
Сургут
METAR USRR 260530Z 03004MPS 360V060 9999 BKN035 01/M06 Q1021 R07/CLRD60 NOSIG RMK QFE761


NOWCAST.SU USRR 260600Z 02005MPS 9999 BKN031TCU 01/M06 Q1021 NOSIG
RMK ICE: MOD FL40/FL50 FBL FL30/FL40 TURB: MOD SFC/FL40
AUTOTAF.ME USRR 260400Z 2605/2614 02005MPS 9999 BKN027 TX01/2606Z TN00/2605Z TAF USRR 260150Z 2603/2703 02003G10MPS 9999 FEW011 BKN020
TEMPO 2603/2612 5000 -SHSN FEW005 BKN016CB=
Североуральск
 


NOWCAST.SU USSE 260600Z 08005G11MPS 9999 BKN038 02/M06 Q1021 NOSIG
RMK ICE: FBL FL40/FL50 TURB: MOD SFC/FL40
AUTOTAF.ME USSE 260400Z 2605/2614 08004MPS 9999 BKN030 TX05/2610Z TN01/2605Z
BECMG 2607/2608 FEW016
BECMG 2608/2609 SCT024TCU
 
Грань
 


NOWCAST.SU USSG 260600Z 06005G11MPS 0500 +SN OVC010 01/M01 Q1011 NOSIG
RMK ICE: SEV FL40/FL110 MOD FL30/FL120 FBL FL20/FL70
AUTOTAF.ME USSG 260400Z 2605/2614 06009G15MPS 0500 +SN OVC011 TX03/2610Z TN01/2605Z
FM260800 07005G11MPS 0800 +SN OVC015
FM260900 07004MPS 1000 RASN OVC015
BECMG 2609/2610 1500
FM261100 06004MPS 2000 RASN BKN030
FM261200 06004MPS 9999 -RASN BKN042
BECMG 2613/2614 NSC
 
Ивдель
 


NOWCAST.SU USSI 260600Z 08005G11MPS 9999 BKN039 02/M05 Q1021 NOSIG
RMK ICE: FBL FL30/FL40 TURB: MOD SFC/FL40
AUTOTAF.ME USSI 260400Z 2605/2614 08004MPS 9999 BKN031 TX05/2609Z TN01/2605Z
BECMG 2607/2608 FEW018
BECMG 2608/2609 SCT024
 
Екатеринбург (Арамиль)
 


NOWCAST.SU USSK 260600Z 05009G15MPS 0200 +SN OVC009 01/00 Q1008 NOSIG
RMK ICE: SEV FL70/FL190 MOD FL20/FL50 FBL FL10/FL20 TURB: MOD SFC/FL40
AUTOTAF.ME USSK 260400Z 2605/2614 06005G11MPS 0200 +SN OVC009 TX01/2605Z TN00/2607Z
BECMG 2606/2607 SN BLSN
BECMG 2607/2608 +SN
BECMG 2608/2609 500
FM261300 04003MPS 0800 +SN OVC009
 
Алапаевск
 


NOWCAST.SU USSQ 260600Z 07010G16MPS 9999 SCT028TCU 03/M05 Q1014 NOSIG
RMK ICE: MOD FL40/FL50 FBL FL20/FL110 TURB: MOD SFC/FL30
AUTOTAF.ME USSQ 260400Z 2605/2614 07010G16MPS 9999 BKN023TCU TX06/2609Z TN03/2605Z
BECMG 2607/2608 BKN016
BECMG 2608/2609 FEW021
BECMG 2612/2613 05005G11MPS
FM261400 05005G11MPS CAVOK
 
Екатеринбург (Кольцово)
METAR USSS 260530Z 04005MPS 2000 SHSN OVC007CB 01/01 Q1009 R08R/290350 TEMPO 0900 +SHSN VV004 RMK QFE737/0983


NOWCAST.SU USSS 260600Z 05009G15MPS 0200 +SN OVC009 01/00 Q1008 NOSIG
RMK ICE: SEV FL70/FL190 MOD FL20/FL50 FBL FL10/FL20 TURB: MOD SFC/FL40
AUTOTAF.ME USSS 260400Z 2605/2614 06005G11MPS 0200 +SN OVC009 TX01/2605Z TN00/2607Z
BECMG 2606/2607 SN BLSN
BECMG 2607/2608 +SN
BECMG 2608/2609 500
FM261300 04003MPS 0800 +SN OVC009
TAF COR USSS 260158Z 2603/2703 05006G16MPS 6000 -SHRASN BKN011CB
TEMPO 2603/2615 1200 -FZRA SHSN OVC004 BKN007CB
BECMG 2615/2618 01003G12MPS=
Тавда
 


NOWCAST.SU USSW 260600Z 07010G16MPS 9999 FEW240 03/M07 Q1015 NOSIG
RMK TURB: MOD SFC/FL30
AUTOTAF.ME USSW 260400Z 2605/2614 07010G16MPS CAVOK TX06/2609Z TN02/2605Z
BECMG 2610/2611 FEW045
BECMG 2611/2612 06005G11MPS
BECMG 2613/2614 NSC
 
Уват
 


NOWCAST.SU USTA 260600Z 07005G11MPS 9999 SKC 03/M06 Q1019 NOSIG
RMK ICE: FBL FL40/FL50 TURB: MOD SFC/FL40
AUTOTAF.ME USTA 260400Z 2605/2614 07005G11MPS CAVOK TX05/2609Z TN02/2605Z
BECMG 2610/2611 FEW035
BECMG 2612/2613 NSC
 
Тобольск (Новая)
 


NOWCAST.SU USTJ 260600Z 07009G14MPS 9999 SCT270 04/M07 Q1017 NOSIG
RMK TURB: MOD SFC/FL40
AUTOTAF.ME USTJ 260400Z 2605/2614 07009G14MPS CAVOK TX06/2609Z TN02/2605Z
BECMG 2613/2614 06004MPS
 
Тобольск
 


NOWCAST.SU USTO 260600Z 07009G14MPS 9999 SCT260 04/M07 Q1017 NOSIG
RMK TURB: MOD SFC/FL40
AUTOTAF.ME USTO 260400Z 2605/2614 07009G14MPS CAVOK TX06/2609Z TN03/2605Z
BECMG 2613/2614 06004MPS
 
Тюмень (Рощино)
METAR USTR 260530Z 08007G12MPS 9999 OVC015 02/M02 Q1013 R03/CLRD65 R12/CLRD65 TEMPO 08015MPS


NOWCAST.SU USTR 260600Z 07009G15MPS 9999 -RASN BKN021 03/M03 Q1012 NOSIG
RMK ICE: FBL FL20/FL110 TURB: MOD SFC/FL30
AUTOTAF.ME USTR 260400Z 2605/2614 07010G16MPS 9999 -RASN BKN020 TX05/2608Z TN03/2605Z
FM260800 07010G16MPS 9999 -RA BKN028
TAF USTR 260131Z 2603/2703 08008G14MPS 6000 -SHSNRA BKN011 BKN016CB
TEMPO 2603/2615 08015MPS 0500 +SHSNRA VV002
BECMG 2615/2617 06005G10MPS=
Курган
 


NOWCAST.SU USUU 260600Z 08008G14MPS 5000 -RA BR OVC012 04/03 Q1006 NOSIG
RMK ICE: SEV FL90/FL190 TURB: MOD SFC/FL30
AUTOTAF.ME USUU 260400Z 2605/2614 08008G14MPS 5000 -RA OVC013 TX04/2605Z TN02/2612Z
BECMG 2605/2606 -RA BR
BECMG 2606/2607 3500
BECMG 2607/2608 5000
FM260900 07007G13MPS 0500 +RASN OVC016
FM261000 07006G12MPS 0500 +SN OVC018
FM261100 06009G15MPS 0500 +RASN OVC018
FM261200 06008G14MPS 0800 +RASN OVC017
FM261400 05008G14MPS 0500 +RASN OVC013
 
Ashgabat
METAR UTAA 260500Z 30008KT 9999 SCT050 OVC100 21/09 Q1023 R88/70D NOSIG


NOWCAST.SU UTAA 260600Z 33008KT 9999 SKC 23/11 Q1023 NOSIG
RMK TURB: MOD SFC/FL40
AUTOTAF.ME UTAA 260400Z 2605/2614 32008KT 9999 SCT043 TX27/2611Z TN22/2605Z
BECMG 2605/2606 NSC
BECMG 2609/2610 SCT045
FM261200 03006KT CAVOK
TAF UTAA 252245Z 2523/2624 33018KT 6000 SCT050
TEMPO 2523/2604 30020G30KT 1000 DS VV007
TEMPO 2604/2610 29014G24KT 3000 BLDU
BECMG 2610/2612 02016KT
2022/09/25 23:03 Ammendment=
Turkmenbashi
METAR UTAK 260500Z 07012KT CAVOK 21/06 Q1023 R34L/CLRD70 NOSIG


NOWCAST.SU UTAK 260600Z 07020G30KT 9999 SKC 22/04 Q1024 NOSIG
RMK TURB: MOD SFC/FL30
AUTOTAF.ME UTAK 260400Z 2605/2614 06018KT CAVOK TX27/2610Z TN19/2605Z
BECMG 2609/2610 08012KT
TAF UTAK 252230Z 2600/2624 04014G24KT 6000 SCT014 SCT033CB BKN100
TEMPO 2600/2603 2500 BR BKN002 BKN100
PROB30 TEMPO 2600/2603 VRB24KT 3000 -TSSHRA
BECMG 2604/2606 10016KT 9999 NSW
2022/09/25 00:03 Correction=
Mary
METAR UTAM 260500Z 32012G22KT 2000 HZ NSC 23/10 Q1020 R88/CLRD70 NOSIG


NOWCAST.SU UTAM 260600Z 34020G30KT 9999 SKC 26/10 Q1019 NOSIG
RMK TURB: MOD SFC/FL30
AUTOTAF.ME UTAM 260400Z 2605/2614 34014KT CAVOK TX30/2609Z TN25/2605Z
BECMG 2605/2606 34020G30KT
BECMG 2613/2614 36012KT
TAF UTAM 252230Z 2600/2624 32012G22KT 5000 SCT050CB SCT050
TEMPO 2600/2604 2000 DRDU
TEMPO 2604/2612 30018G28KT 1000 DS BKN050
PROB40 TEMPO 2604/2612 -TSSHRA
BECMG 2615/2616 36014KT SCT050
2022/09/25 00:03=
Dashoguz
METAR UTAT 260500Z 01014KT CAVOK 18/09 Q1023 R26/CLRD70 NOSIG


NOWCAST.SU UTAT 260600Z 35014KT 9999 SKC 21/04 Q1023 NOSIG
RMK TURB: MOD SFC/FL30
AUTOTAF.ME UTAT 260400Z 2605/2614 34016G26KT CAVOK TX25/2610Z TN19/2605Z
BECMG 2612/2613 35010KT
TAF COR UTAT 252245Z 2600/2624 32012G22KT 9999 SCT050CB BKN100
TEMPO 2600/2610 01012G22KT
2022/09/25 00:03=
Dushanbe
METAR UTDD 260530Z VRB01MPS 9999 NSC 26/05 Q1020 R09/CLRD// NOSIG RMK QFE696/0928


NOWCAST.SU UTDD 260600Z 23003MPS 9999 SKC 25/04 Q1022 NOSIG
RMK TURB: MOD SFC/FL70
AUTOTAF.ME UTDD 260400Z 2605/2614 VRB02MPS CAVOK TX28/2609Z TN21/2614Z TAF UTDD 260300Z 2604/2616 VRB02MPS 6000 FEW066CB SCT100
TEMPO 2606/2616 27007G12MPS
PROB40 TEMPO 2608/2616 3000 HZ=
METAR UTDK 260530Z VRB02MPS 9999 NSC 29/05 Q1020 R01/09//70 RMK QFE707/0943


NOSIG
TAF UTDK 260300Z 2604/2613 VRB02MPS 6000 FEW066CB SCT100
BECMG 2605/2606 20005MPS
PROB40 TEMPO 2606/2613 3000 HZ=
Khudzhand
METAR UTDL 260530Z 06004MPS 9999 NSC 25/10 Q1017 R08/CLRD70 NOSIG RMK QFE724/0965


NOWCAST.SU UTDL 260600Z 36003MPS 9999 SKC 26/03 Q1021 NOSIG
RMK TURB: MOD FL50/FL70
AUTOTAF.ME UTDL 260400Z 2605/2614 VRB02MPS CAVOK TX29/2609Z TN24/2614Z
BECMG 2610/2611 31005MPS
BECMG 2613/2614 24003MPS
TAF UTDL 260300Z 2604/2616 VRB02MPS 9999 NSC
TEMPO 2604/2608 08005MPS
BECMG 2608/2610 24005MPS=
Namangan
METAR UTFN 260530Z 12004KT 090V180 9999 NSC 26/06 Q1017 R28/CLRD70 NOSIG


NOWCAST.SU UTFN 260600Z 12006KT 9999 SKC 28/03 Q1017 NOSIG
RMK TURB: MOD SFC/FL90
AUTOTAF.ME UTFN 260400Z 2605/2614 10006KT CAVOK TX31/2609Z TN25/2614Z
BECMG 2607/2608 17006KT
BECMG 2610/2611 23006KT
BECMG 2613/2614 VRB02KT
TAF UTFN 252300Z 2600/2624 14010KT 9999 NSC
TEMPO 2600/2605 33008KT
TEMPO 2610/2618 22014G24KT 5000 -DS
2022/09/25 23:00 Ammendment=
Nukus Karakalpak
METAR UTNN 260530Z 34008KT CAVOK 17/07 Q1024 R33/CLRD60 NOSIG


NOWCAST.SU UTNN 260600Z 34014KT 9999 SKC 20/05 Q1023 NOSIG
RMK TURB: MOD SFC/FL30
AUTOTAF.ME UTNN 260400Z 2605/2614 34012KT CAVOK TX24/2610Z TN18/2605Z TAF UTNN 252300Z 2600/2624 31012G22KT CAVOK
TEMPO 2606/2614 SCT040 SCT100
2022/09/25 00:09=
Bukhara
METAR UTSB 260530Z 33002KT CAVOK 26/05 Q1017 R01/CLRD70 NOSIG


NOWCAST.SU UTSB 260600Z 34010KT 9999 SKC 28/01 Q1016 NOSIG
RMK TURB: MOD SFC/FL30
AUTOTAF.ME UTSB 260400Z 2605/2614 34008KT CAVOK TX31/2608Z TN25/2605Z
BECMG 2608/2609 34014KT
TAF UTSB 252300Z 2600/2624 36010KT 7000 NSC
TEMPO 2600/2603 VRB03KT
TEMPO 2603/2612 32014G24KT 4000 -DS
2022/09/25 00:48=
Karshi Khanabad
METAR UTSK 260530Z 23004KT 190V270 CAVOK 26/04 Q1018 R16/CLRD70


NOWCAST.SU UTSK 260600Z VRB02KT 9999 SKC 28/01 Q1017 NOSIG
RMK TURB: MOD SFC/FL70
AUTOTAF.ME UTSK 260400Z 2605/2614 VRB02KT CAVOK TX33/2610Z TN26/2605Z
BECMG 2608/2609 33008KT
TAF UTSK 260251Z 2604/2613 07010KT CAVOK
TEMPO 2606/2613 32014G24KT 3000 DU=
Samarkand
METAR UTSS 260530Z 22004KT 9999 NSC 28/05 Q1018 R09/CLRD70 NOSIG


NOWCAST.SU UTSS 260600Z 36006KT 9999 SKC 28/M01 Q1022 NOSIG
RMK TURB: MOD SFC/FL90
AUTOTAF.ME UTSS 260400Z 2605/2614 36004KT CAVOK TX30/2608Z TN23/2614Z
BECMG 2610/2611 35010KT
BECMG 2613/2614 05006KT
TAF UTSS 252301Z 2600/2624 12010G20KT 9999 NSC
TEMPO 2603/2612 30020G30KT 2000 DU
2022/09/25 00:00=
Termez
METAR UTST 260530Z 23006KT 190V260 CAVOK 27/00 Q1018 R25/CLRD70 NOSIG


NOWCAST.SU UTST 260600Z 26008KT 9999 SKC 28/03 Q1016 NOSIG
RMK TURB: MOD SFC/FL40
AUTOTAF.ME UTST 260400Z 2605/2614 26008KT CAVOK TX33/2610Z TN26/2605Z
BECMG 2610/2611 27014KT
TAF UTST 252300Z 2600/2624 VRB06KT 6000 NSC
TEMPO 2600/2611 26016G26KT 2400 -DS SCT066CB SCT100
2022/09/25 00:00=
Taskent Yuzni
METAR UTTT 260530Z 20004KT 160V250 CAVOK 29/04 Q1017 R08L/CLRD70 NOSIG


NOWCAST.SU UTTT 260600Z 25006KT 9999 SKC 29/01 Q1018 NOSIG
RMK TURB: MOD FL40/FL90
AUTOTAF.ME UTTT 260400Z 2605/2614 24004KT CAVOK TX31/2607Z TN25/2614Z
BECMG 2611/2612 30010KT
TAF UTTT 252300Z 2600/2624 08010KT 7000 NSC
TEMPO 2606/2616 24010G20KT
2022/09/25 00:00=
Ржев (Компрессорная)
 


NOWCAST.SU UUAK 260600Z VRB02MPS 3000 BR BKN005 06/05 Q1008 NOSIG
RMK ICE: MOD FL50/FL90
AUTOTAF.ME UUAK 260400Z 2605/2614 VRB02MPS 3000 BR BKN005 TX09/2611Z TN05/2605Z
BECMG 2606/2607 -DZ BR
FM260800 VRB02MPS 5000 -SHRA BR BKN010CB
FM260900 28003MPS 9999 -SHRA BKN013CB
BECMG 2610/2611 BKN022CB
 
Охотактив
 


NOWCAST.SU UUAO 260600Z 31003MPS 9999 -RA OVC016 08/07 Q1004 NOSIG
RMK ICE: MOD FL50/FL170
AUTOTAF.ME UUAO 260400Z 2605/2614 31003MPS 9999 OVC011 TX10/2609Z TN07/2605Z
FM260600 31003MPS 9999 -RA OVC016
BECMG 2608/2609 -RA
 
Кострома (Сокеркино)
 


NOWCAST.SU UUBA 260600Z 29003MPS 9999 -RA OVC010 08/07 Q1004 NOSIG
RMK ICE: MOD FL50/FL170
AUTOTAF.ME UUBA 260400Z 2605/2614 VRB02MPS 5000 -RA BR OVC010 TX10/2610Z TN07/2605Z
FM260600 29003MPS 9999 -RA OVC010
 
Москва (Быково)
 


NOWCAST.SU UUBB 260600Z 27004MPS 9999 -SHRA BKN011CB 06/05 Q1008 NOSIG
RMK ICE: SEV FL90/FL100 MOD FL50/FL70
AUTOTAF.ME UUBB 260400Z 2605/2614 27004MPS 2000 SHRA BR BKN005 BKN010CB TX10/2609Z TN06/2605Z
FM260600 27004MPS 9999 -SHRA BKN011CB
BECMG 2606/2607 BKN016CB
BECMG 2607/2608 BKN025CB
BECMG 2612/2613 VCSH
 
Калуга (Грабцево)
METAR UUBC 260530Z 26003MPS 230V290 9999 OVC009 07/06 Q1008 R31/290050 NOSIG RMK QFE739/0986


NOWCAST.SU UUBC 260600Z 27004MPS 9999 BKN014TCU 07/06 Q1010 NOSIG
RMK ICE: SEV FL90/FL100 MOD FL50/FL70 FBL FL110/FL120
AUTOTAF.ME UUBC 260400Z 2605/2614 27004MPS 9999 OVC010 TX10/2611Z TN07/2605Z
BECMG 2605/2606 BKN014TCU
BECMG 2607/2608 BKN022TCU
FM261000 27005G11MPS 9999 VCSH BKN028CB
BECMG 2611/2612 -SHRA
FM261400 26003MPS 9999 BKN026
TAF UUBC 260156Z 2603/2612 25003G08MPS 6000 -RA OVC008=
Рязань (Дягилево)
 


NOWCAST.SU UUBD 260600Z 28007MPS 9999 -RA BKN015 08/06 Q1008 NOSIG
RMK ICE: MOD FL50/FL90 TURB: MOD SFC/FL30
AUTOTAF.ME UUBD 260400Z 2605/2614 28005MPS 2000 DZ BR BKN005 TX10/2609Z TN07/2605Z
FM260600 28007MPS 9999 -RA BKN015
BECMG 2606/2607 BKN020
FM260900 27008G13MPS 9999 -SHRA OVC029CB
BECMG 2613/2614 VCSH
 
Сасово
 


NOWCAST.SU UUBG 260600Z 27005MPS 9999 VCSH BKN013CB 08/06 Q1007 NOSIG
RMK ICE: MOD FL50/FL90 TURB: MOD SFC/FL30
AUTOTAF.ME UUBG 260400Z 2605/2614 27005MPS 3000 VCSH BR BKN005 BKN010CB TX11/2610Z TN08/2605Z
FM260600 27005MPS 9999 VCSH BKN013CB
BECMG 2606/2607 BKN018CB
BECMG 2607/2608 -SHRA
BECMG 2608/2609 BKN028CB
 
Иваново (Южный)
 


NOWCAST.SU UUBI 260600Z 31003MPS 1000 BR BKN003 08/06 Q1004 NOSIG
RMK ICE: MOD FL70/FL90 FBL FL150/FL190
AUTOTAF.ME UUBI 260400Z 2605/2614 31003MPS 2000 BR BKN005 TX10/2608Z TN06/2605Z
FM260600 31003MPS 1000 BR BKN003
FM260700 30003MPS 9999 VCSH BKN011CB
FM260800 30003MPS 9999 -SHRA OVC016CB
BECMG 2609/2610 OVC021CB
 
Рыбинск (Староселье)
 


NOWCAST.SU UUBK 260600Z VRB02MPS 9999 BKN013 08/07 Q1005 NOSIG
RMK ICE: MOD FL50/FL170 FBL FL190/FL200
AUTOTAF.ME UUBK 260400Z 2605/2614 VRB02MPS 5000 BR BKN011 TX10/2608Z TN07/2605Z
FM260600 VRB02MPS 9999 BKN013
FM260700 VRB02MPS 9999 VCSH BKN017CB
FM260900 34003MPS 9999 -SHRA BKN023CB
FM261300 34003MPS 9999 -RA OVC020
 
Владимир (Семязино)
 


NOWCAST.SU UUBL 260600Z VRB02MPS 9999 BKN015 08/07 Q1006 NOSIG
RMK ICE: SEV FL90/FL100 MOD FL50/FL70
AUTOTAF.ME UUBL 260400Z 2605/2614 VRB02MPS 9999 OVC015 TX11/2611Z TN07/2605Z
FM260800 27003MPS 9999 VCSH BKN019CB
FM261100 26003MPS 9999 -SHRA BKN027CB
 
Мячково
 


NOWCAST.SU UUBM 260600Z 27004MPS 9999 -SHRA BKN012CB 07/06 Q1008 NOSIG
RMK ICE: SEV FL90/FL100 MOD FL50/FL70
AUTOTAF.ME UUBM 260400Z 2605/2614 27004MPS 5000 -SHRA BR BKN011CB TX11/2610Z TN06/2605Z
FM260600 27004MPS 9999 -SHRA BKN012CB
BECMG 2606/2607 BKN020CB
BECMG 2607/2608 BKN027CB
BECMG 2612/2613 VCSH
 
Тверь (Змеево)
 


NOWCAST.SU UUBN 260600Z VRB02MPS 9999 BKN011 07/06 Q1007 NOSIG
RMK ICE: SEV FL90/FL100 MOD FL50/FL70
AUTOTAF.ME UUBN 260400Z 2605/2614 VRB02MPS 5000 BR BKN011 TX10/2611Z TN07/2605Z
FM260600 VRB02MPS 9999 BKN011
FM260800 30003MPS 3000 VCSH BR BKN005 BKN010CB
FM260900 30003MPS 9999 VCSH BKN017CB
BECMG 2610/2611 BKN024CB
FM261400 VRB02MPS 9999 BKN020
 
Брянск
METAR UUBP 260530Z 20002MPS CAVOK 07/06 Q1011 R34/////// NOSIG RMK QFE741/0988


NOWCAST.SU UUBP 260600Z VRB02MPS 9999 OVC027 08/05 Q1012 NOSIG
RMK ICE: MOD FL70/FL90 FBL FL50/FL190 TURB: MOD FL70/FL80
AUTOTAF.ME UUBP 260400Z 2605/2614 VRB02MPS 9999 BKN040 TX13/2610Z TN08/2605Z TAF AMD UUBP 251504Z 2515/2524 CNL=
Шарья
 


NOWCAST.SU UUBQ 260600Z 04004MPS 9999 -RA OVC014 07/06 Q1003 NOSIG
RMK ICE: SEV FL50/FL90 MOD FL70/FL80 FBL FL110/FL120 TURB: MOD SFC/FL30
AUTOTAF.ME UUBQ 260400Z 2605/2614 04004MPS 9999 -RA OVC015 TX07/2605Z TN07/2605Z  
Рязань (Турлатово)
 


NOWCAST.SU UUBR 260600Z 27005G11MPS 9999 -RA BKN013 07/06 Q1008 NOSIG
RMK ICE: SEV FL90/FL100 MOD FL50/FL70 FBL FL110/FL120 TURB: MOD FL40/FL50
AUTOTAF.ME UUBR 260400Z 2605/2614 27004MPS 9999 -RA BKN011 TX11/2610Z TN07/2605Z
BECMG 2606/2607 BKN020
FM260800 28005G10MPS 9999 -SHRA BKN027CB
BECMG 2611/2612 26009G14MPS
 
Смоленск (Тихвинка)
 


NOWCAST.SU UUBS 260600Z 25003MPS 9999 BKN024 08/05 Q1010 NOSIG
RMK ICE: SEV FL90/FL100 MOD FL50/FL70
AUTOTAF.ME UUBS 260400Z 2605/2614 25003MPS 9999 BKN039 TX13/2611Z TN07/2605Z
FM260800 25003MPS 9999 VCSH BKN031CB
FM260900 26003MPS 9999 BKN035TCU
 
 


NOSIG
 
Жуковский (Раменское)
METAR UUBW 260530Z 26003MPS 9999 BKN016 08/07 Q1007 R30/290050 NOSIG


NOWCAST.SU UUBW 260600Z 27004MPS 9999 -SHRA BKN012CB 07/06 Q1008 NOSIG
RMK ICE: SEV FL50/FL90
AUTOTAF.ME UUBW 260400Z 2605/2614 27004MPS 2000 SHRA BR BKN005 BKN010CB TX11/2610Z TN06/2605Z
FM260600 27004MPS 9999 -SHRA BKN012CB
BECMG 2606/2607 BKN019CB
BECMG 2607/2608 BKN027CB
BECMG 2612/2613 VCSH
TAF UUBW 260156Z 2603/2703 28003MPS 6000 BKN004 OVC016 TX10/2612Z TN04/2702Z
TEMPO 2603/2606 0300 FG OVC002
BECMG 2606/2608 BKN020=
Ярославль (Левцово)
 


NOWCAST.SU UUBX 260600Z VRB02MPS 9999 OVC012 08/07 Q1005 NOSIG
RMK ICE: MOD FL50/FL170 FBL FL190/FL200
AUTOTAF.ME UUBX 260400Z 2605/2614 VRB02MPS 5000 BR BKN011 TX11/2610Z TN07/2605Z
FM260600 VRB02MPS 9999 OVC012
FM260700 32003MPS 9999 VCSH BKN016CB
FM260900 32003MPS 9999 -SHRA OVC021CB
FM261400 30003MPS 9999 -RA OVC018
 
Листвянка
 


NOWCAST.SU UUBZ 260600Z 27005G11MPS 9999 -RA BKN013 07/06 Q1008 NOSIG
RMK ICE: SEV FL50/FL90 FBL FL110/FL120 TURB: MOD FL40/FL50
AUTOTAF.ME UUBZ 260400Z 2605/2614 27004MPS 9999 -RA BKN011 TX11/2611Z TN07/2605Z
BECMG 2606/2607 BKN020
FM260800 28005G10MPS 9999 -SHRA OVC026CB
BECMG 2611/2612 26009G14MPS
 
Белоомут
 


NOWCAST.SU UUCB 260600Z 27004MPS 9999 BKN012 07/06 Q1007 NOSIG
RMK ICE: SEV FL50/FL90
AUTOTAF.ME UUCB 260400Z 2605/2614 27003MPS 3000 BR BKN005 TX11/2610Z TN07/2605Z
FM260600 27004MPS 9999 BKN012
BECMG 2606/2607 -RA
FM260800 28004MPS 9999 -SHRA BKN023CB
 
Дорожный
 


NOWCAST.SU UUCD 260600Z 29003MPS 2000 SHRA BR BKN005 BKN010CB 06/06 Q1007 NOSIG
RMK ICE: SEV FL50/FL90
AUTOTAF.ME UUCD 260400Z 2605/2614 VRB02MPS 1000 SHRA BR BKN003 OVC010CB TX09/2610Z TN06/2605Z
FM260600 29003MPS 2000 SHRA BR BKN005 BKN010CB
FM260700 29003MPS 3000 -SHRA BR BKN005 BKN010CB
FM260800 28003MPS 5000 -SHRA BR BKN011CB
FM260900 28004MPS 9999 -SHRA BKN015CB
FM261400 27003MPS 9999 -RA BKN016
 
Хоругвино
 


NOWCAST.SU UUCH 260600Z 30003MPS 2000 BR BKN005 06/05 Q1008 NOSIG
RMK ICE: MOD FL50/FL90 TURB: MOD SFC/FL30
AUTOTAF.ME UUCH 260400Z 2605/2614 29003MPS 1000 BR BKN003 TX10/2610Z TN05/2605Z
FM260600 30003MPS 2000 BR BKN005
FM260700 29003MPS 9999 VCSH BKN014CB
FM260800 29004MPS 9999 -SHRA BKN022CB
BECMG 2613/2614 VCSH
 
Ильясово
 


NOWCAST.SU UUCI 260600Z 28005MPS 9999 -RA BKN012 07/06 Q1008 NOSIG
RMK ICE: MOD FL70/FL90 FBL FL50/FL60
AUTOTAF.ME UUCI 260400Z 2605/2614 28005MPS 5000 BR BKN009 TX11/2611Z TN07/2605Z
FM260600 28005MPS 9999 -RA BKN012
BECMG 2606/2607 BKN016
BECMG 2607/2608 OVC025
FM260900 28005G10MPS 9999 -SHRA BKN033CB
 
Кузнечково
 


NOWCAST.SU UUCJ 260600Z 29003MPS 5000 BR BKN008 06/05 Q1008 NOSIG
RMK ICE: MOD FL50/FL90 TURB: MOD SFC/FL30
AUTOTAF.ME UUCJ 260400Z 2605/2614 29003MPS CAVOK TX09/2610Z TN05/2605Z
FM260600 29003MPS 5000 BR BKN008
BECMG 2606/2607 BKN014
FM260800 30003MPS 9999 -SHRA BKN022CB
BECMG 2613/2614 VCSH
 
Горка
 


NOWCAST.SU UUCK 260600Z 27003MPS 9999 BKN011 07/05 Q1008 NOSIG
RMK ICE: MOD FL50/FL90 TURB: MOD SFC/FL30
AUTOTAF.ME UUCK 260400Z 2605/2614 27003MPS 3000 BR BKN005 TX10/2610Z TN06/2605Z
FM260600 27003MPS 9999 BKN011
FM260700 27003MPS 9999 -SHRA BKN015CB
BECMG 2607/2608 BKN020CB
BECMG 2609/2610 BKN026CB
BECMG 2613/2614 VCSH
 
Нудоль
 


NOWCAST.SU UUCN 260600Z 29003MPS 5000 BR BKN009 06/05 Q1008 NOSIG
RMK ICE: MOD FL50/FL90 FBL FL110/FL120 TURB: MOD SFC/FL30
AUTOTAF.ME UUCN 260400Z 2605/2614 29003MPS CAVOK TX09/2610Z TN05/2605Z
FM260600 29003MPS 5000 BR BKN009
BECMG 2606/2607 BKN014
FM260800 30003MPS 9999 -SHRA BKN023CB
BECMG 2613/2614 VCSH
 
Павлово
 


NOWCAST.SU UUCO 260600Z 30003MPS 9999 SKC 07/05 Q1008 NOSIG
RMK ICE: MOD FL50/FL90 TURB: MOD SFC/FL30
AUTOTAF.ME UUCO 260400Z 2605/2614 29003MPS CAVOK TX11/2611Z TN06/2605Z
FM260700 29003MPS 9999 VCSH BKN018CB
FM260800 29004MPS 9999 -SHRA BKN026CB
BECMG 2613/2614 VCSH
 
Янино
 


NOWCAST.SU UUCQ 260600Z 27004MPS 9999 BKN012 07/06 Q1007 NOSIG
RMK ICE: MOD FL50/FL90
AUTOTAF.ME UUCQ 260400Z 2605/2614 27003MPS 2000 BR BKN005 TX11/2610Z TN07/2605Z
FM260600 27004MPS 9999 BKN012
BECMG 2606/2607 -RA
FM260800 28004MPS 9999 -SHRA BKN022CB
 
Торбеево
 


NOWCAST.SU UUCT 260600Z 27004MPS 9999 BKN013 08/06 Q1008 NOSIG
RMK ICE: MOD FL70/FL90 FBL FL50/FL60 TURB: MOD SFC/FL30
AUTOTAF.ME UUCT 260400Z 2605/2614 27004MPS CAVOK TX10/2611Z TN07/2605Z
BECMG 2605/2606 BKN013
FM260700 28004MPS 9999 VCSH BKN016CB
BECMG 2607/2608 -SHRA
BECMG 2608/2609 BKN024CB
FM261400 27004MPS 9999 -SHRA BKN016CB
 
Гринвуд
 


NOWCAST.SU UUCU 260600Z 29004MPS 3000 -SHRA BR BKN005 BKN010CB 06/05 Q1007 NOSIG
RMK ICE: MOD FL50/FL90
AUTOTAF.ME UUCU 260400Z 2605/2614 29003MPS 1000 SHRA BR BKN003 BKN010CB TX10/2609Z TN06/2605Z
FM260600 29004MPS 3000 -SHRA BR BKN005 BKN010CB
FM260700 29004MPS 9999 -SHRA BKN013CB
BECMG 2607/2608 BKN024CB
BECMG 2613/2614 VCSH
 
Вихрево
 


NOWCAST.SU UUCW 260600Z 29003MPS 5000 -SHRA BR BKN008 BKN010CB 07/06 Q1007 NOSIG
RMK ICE: MOD FL50/FL90
AUTOTAF.ME UUCW 260400Z 2605/2614 29003MPS 3000 -SHRA BR BKN005 BKN010CB TX10/2611Z TN06/2605Z
FM260600 29003MPS 5000 -SHRA BR BKN008 BKN010CB
BECMG 2606/2607 BKN012CB
FM260800 29003MPS 9999 -SHRA BKN016CB
BECMG 2608/2609 BKN021CB
BECMG 2613/2614 VCSH
 
Университет Сбербанка
 


NOWCAST.SU UUCX 260600Z 30003MPS 9999 BKN011 07/05 Q1008 NOSIG
RMK ICE: MOD FL50/FL90 TURB: MOD SFC/FL30
AUTOTAF.ME UUCX 260400Z 2605/2614 29003MPS 9999 BKN011 TX11/2611Z TN06/2605Z
FM260700 29003MPS 9999 VCSH BKN018CB
FM260800 29004MPS 9999 -SHRA BKN026CB
BECMG 2613/2614 VCSH
 
Дубна
 


NOWCAST.SU UUDB 260600Z 29003MPS 3000 -SHRA BR BKN005 BKN010CB 08/07 Q1007 NOSIG
RMK ICE: MOD FL50/FL90
AUTOTAF.ME UUDB 260400Z 2605/2614 VRB02MPS 3000 -SHRA BR BKN005 OVC010CB TX10/2610Z TN07/2605Z
FM260900 28004MPS 9999 -SHRA BKN022CB
FM261400 27003MPS 9999 -RA BKN023
 
Сонино
 


NOWCAST.SU UUDC 260600Z 27005MPS 9999 -RA OVC011 07/06 Q1009 NOSIG
RMK ICE: SEV FL90/FL100 MOD FL50/FL120 FBL FL110/FL120 TURB: MOD SFC/FL30
AUTOTAF.ME UUDC 260400Z 2605/2614 27005MPS 5000 BR BKN009 TX09/2610Z TN06/2605Z
FM260600 27005MPS 9999 -RA OVC011
BECMG 2606/2607 OVC013
FM260800 27005G10MPS 9999 -SHRA OVC016CB
BECMG 2609/2610 OVC023CB
FM261100 28005G11MPS 9999 -RA OVC026
FM261400 27004MPS 9999 VCSH OVC024CB
 
Москва (Домодедово)
METAR UUDD 260530Z 28005MPS 260V320 9999 SCT009 08/05 Q1007 R32L/CLRD60 NOSIG


NOWCAST.SU UUDD 260600Z 27004MPS 9999 -SHRA BKN014CB 07/06 Q1008 NOSIG
RMK ICE: SEV FL90/FL100 MOD FL50/FL70
AUTOTAF.ME UUDD 260400Z 2605/2614 27004MPS 5000 -SHRA BR BKN010CB TX11/2610Z TN07/2605Z
FM260600 27004MPS 9999 -SHRA BKN014CB
BECMG 2606/2607 BKN020CB
BECMG 2607/2608 BKN027CB
BECMG 2612/2613 VCSH
TAF UUDD 260155Z 2603/2709 26005MPS 6000 FEW004 BKN016 TX12/2709Z TN04/2701Z
TEMPO 2603/2606 BKN004
PROB40 TEMPO 2603/2606 0300 FG
BECMG 2617/2619 20003MPS
TEMPO 2620/2706 0300 FG BKN002=
Большое Грызлово
 


NOWCAST.SU UUDG 260600Z 27004MPS 9999 BKN011 07/06 Q1008 NOSIG
RMK ICE: SEV FL90/FL100 MOD FL50/FL70 FBL FL110/FL120
AUTOTAF.ME UUDG 260400Z 2605/2614 27004MPS 5000 BR BKN009 TX10/2611Z TN07/2605Z
FM260600 27004MPS 9999 BKN011
FM260700 27004MPS 9999 VCSH BKN014CB
FM260800 27004MPS 9999 -SHRA BKN021CB
BECMG 2613/2614 -RA
 
Ярославль (Туношна)
METAR UUDL 260530Z 33002MPS 300V010 9999 OVC004 07/07 Q1005 R23/190155 NOSIG RMK QBB120 QFE745


NOWCAST.SU UUDL 260600Z VRB02MPS 5000 BR OVC013 08/07 Q1005 NOSIG
RMK ICE: MOD FL50/FL190
AUTOTAF.ME UUDL 260400Z 2605/2614 VRB02MPS 9999 BKN012 TX11/2610Z TN08/2605Z
FM260600 VRB02MPS 5000 BR OVC013
FM260700 32003MPS 9999 VCSH BKN018CB
BECMG 2608/2609 -SHRA
FM261400 30003MPS 9999 -RA OVC017
TAF UUDL 260200Z 2603/2703 29003MPS 8000 BKN020 TX12/2612Z TN06/2603Z
TEMPO 2603/2606 0500 FG VV002
TEMPO 2606/2609 BKN006=
Новинки
 


NOWCAST.SU UUDN 260600Z 27004MPS 9999 BKN012 07/06 Q1008 NOSIG
RMK ICE: MOD FL50/FL90
AUTOTAF.ME UUDN 260400Z 2605/2614 27004MPS 9999 VCSH BKN010CB TX09/2609Z TN07/2605Z
FM260600 27004MPS 9999 BKN012
FM260700 27004MPS 9999 VCSH BKN015CB
FM260800 27004MPS 9999 -SHRA BKN020CB
BECMG 2609/2610 BKN026CB
FM261400 26003MPS 9999 -RA OVC020
 
Пахомово
 


NOWCAST.SU UUDP 260600Z 27005MPS 5000 -DZ BR OVC009 07/05 Q1009 NOSIG
RMK ICE: SEV FL90/FL100 MOD FL50/FL70 FBL FL110/FL120 TURB: MOD SFC/FL30
AUTOTAF.ME UUDP 260400Z 2605/2614 27005MPS 5000 BR BKN008 TX09/2610Z TN06/2605Z
BECMG 2605/2606 -DZ BR
FM260700 27005G10MPS 9999 -RA OVC013
FM260800 27005G10MPS 9999 -SHRA OVC016CB
BECMG 2609/2610 OVC023CB
FM261100 28005G11MPS 9999 -RA OVC026
FM261400 27004MPS 9999 VCSH OVC024CB
 
Хелипорт Реутов
 


NOWCAST.SU UUDR 260600Z 29003MPS 3000 -SHRA BR BKN005 BKN010CB 06/05 Q1007 NOSIG
RMK ICE: SEV FL70/FL80 MOD FL50/FL90
AUTOTAF.ME UUDR 260400Z 2605/2614 29003MPS 1000 SHRA BR BKN003 BKN010CB TX10/2610Z TN06/2605Z
FM260600 29003MPS 3000 -SHRA BR BKN005 BKN010CB
FM260800 29003MPS 9999 -SHRA BKN019CB
BECMG 2608/2609 BKN025CB
BECMG 2613/2614 VCSH
 
Чулпаново
 


NOWCAST.SU UUDU 260600Z 28004MPS 9999 -RA BKN017 08/06 Q1008 NOSIG
RMK ICE: MOD FL50/FL90
AUTOTAF.ME UUDU 260400Z 2605/2614 28004MPS 9999 -RA BKN013 TX10/2609Z TN07/2605Z
BECMG 2605/2606 BKN017
FM260700 28004MPS 9999 -SHRA BKN021CB
FM261400 27004MPS CAVOK
 
Взлетная
 


NOWCAST.SU UUDW 260600Z 28004MPS 9999 -RA BKN018 08/06 Q1008 NOSIG
RMK ICE: MOD FL50/FL90
AUTOTAF.ME UUDW 260400Z 2605/2614 28004MPS 9999 -RA BKN013 TX10/2609Z TN07/2605Z
BECMG 2605/2606 BKN018
FM260700 28004MPS 9999 -SHRA BKN022CB
FM261400 27004MPS CAVOK
 
Киверичи (Запад)
 


NOWCAST.SU UUEC 260600Z VRB02MPS 9999 BKN016 08/06 Q1007 NOSIG
RMK ICE: SEV FL90/FL100 MOD FL50/FL70
AUTOTAF.ME UUEC 260400Z 2605/2614 VRB02MPS 9999 BKN014 TX11/2610Z TN07/2605Z
BECMG 2606/2607 BKN019
FM260800 VRB02MPS 9999 -SHRA BKN023CB
 
Москва (Шереметьево)
METAR UUEE 260530Z 27003MPS 9999 FEW008 07/06 Q1006 R24L/CLRD62 R24C/CLRD62 NOSIG


NOWCAST.SU UUEE 260600Z 29004MPS 2000 SHRA BR BKN005 BKN010CB 06/05 Q1007 NOSIG
RMK ICE: SEV FL90/FL100 MOD FL50/FL110
AUTOTAF.ME UUEE 260400Z 2605/2614 29003MPS 1000 SHRA BR BKN003 BKN010CB TX10/2610Z TN06/2605Z
FM260600 29004MPS 2000 SHRA BR BKN005 BKN010CB
FM260700 29004MPS 9999 -SHRA BKN011CB
BECMG 2607/2608 BKN021CB
BECMG 2613/2614 VCSH
TAF UUEE 260154Z 2603/2703 27003MPS 6000 SCT003 BKN007 TX10/2612Z TN05/2604Z
TEMPO 2603/2606 1000 BR OVC002
BECMG 2606/2608 FEW004 BKN016
TEMPO 2608/2612 30008MPS
TEMPO 2621/2703 0300 FG OVC001=
 


NOSIG
 
Кимры (Борки)
 


NOWCAST.SU UUEI 260600Z VRB02MPS 9999 BKN021 07/06 Q1007 NOSIG
RMK ICE: MOD FL50/FL90
AUTOTAF.ME UUEI 260400Z 2605/2614 VRB02MPS 3000 BR OVC005 TX11/2612Z TN07/2605Z
FM260600 VRB02MPS 9999 BKN021
FM260800 VRB02MPS 3000 BR OVC005
FM260900 28003MPS 5000 VCSH BR BKN021CB
FM261000 28003MPS 9999 VCSH BKN024CB
BECMG 2613/2614 -SHRA
 
Волен (Хелипорт)
 


NOWCAST.SU UUEJ 260600Z 29003MPS 2000 BR BKN005 06/05 Q1007 NOSIG
RMK ICE: MOD FL50/FL110
AUTOTAF.ME UUEJ 260400Z 2605/2614 VRB02MPS 1000 BR BKN003 TX10/2610Z TN06/2605Z
FM260600 29003MPS 2000 BR BKN005
BECMG 2606/2607 3000
FM260800 30003MPS 9999 -SHRA BKN013CB
BECMG 2608/2609 BKN019CB
FM261400 27003MPS 9999 -RA BKN013
 
Конаково
 


NOWCAST.SU UUEL 260600Z 29003MPS 9999 -SHRA BKN012CB 08/07 Q1007 NOSIG
RMK ICE: MOD FL50/FL90
AUTOTAF.ME UUEL 260400Z 2605/2614 VRB02MPS 9999 -SHRA OVC011CB TX10/2610Z TN07/2605Z
BECMG 2606/2607 BKN015CB
BECMG 2608/2609 BKN022CB
FM261400 27003MPS 9999 -RA BKN023
 
Тверь (Мигалово)
 


NOWCAST.SU UUEM 260600Z VRB02MPS 5000 BR BKN011 07/06 Q1007 NOSIG
RMK ICE: MOD FL50/FL90
AUTOTAF.ME UUEM 260400Z 2605/2614 VRB02MPS 3000 BR BKN005 TX10/2611Z TN07/2605Z
FM260600 VRB02MPS 5000 BR BKN011
FM260800 30003MPS 3000 VCSH BR BKN005 BKN010CB
FM260900 30003MPS 9999 VCSH BKN016CB
BECMG 2610/2611 BKN024CB
FM261400 VRB02MPS 9999 BKN020
 
Завидово (Русь)
 


NOWCAST.SU UUEP 260600Z 30003MPS 3000 BR BKN005 07/06 Q1008 NOSIG
RMK ICE: SEV FL50/FL70 MOD FL90/FL100
AUTOTAF.ME UUEP 260400Z 2605/2614 VRB02MPS 3000 BR BKN005 TX11/2612Z TN07/2605Z
FM260700 29003MPS 3000 VCSH BR BKN005 BKN010CB
FM260800 29003MPS 9999 VCSH BKN020CB
FM260900 28003MPS 9999 -RA BKN022
FM261100 29003MPS 9999 VCSH BKN031CB
FM261400 VRB02MPS 9999 BKN028
 
Гурбан
 


NOWCAST.SU UUEQ 260600Z 29004MPS 1000 SHRA BR BKN003 BKN010CB 06/05 Q1007 NOSIG
RMK ICE: MOD FL50/FL110
AUTOTAF.ME UUEQ 260400Z 2605/2614 29003MPS 1000 SHRA BR BKN003 BKN010CB TX10/2610Z TN06/2605Z
FM260700 29004MPS 9999 -SHRA BKN011CB
BECMG 2607/2608 BKN020CB
BECMG 2608/2609 BKN027CB
BECMG 2613/2614 VCSH
 
Талдом (Юркино)
 


NOWCAST.SU UUET 260600Z 29003MPS 9999 BKN011 07/06 Q1007 NOSIG
RMK ICE: SEV FL90/FL100 MOD FL50/FL70
AUTOTAF.ME UUET 260400Z 2605/2614 VRB02MPS 5000 BR BKN011 TX10/2610Z TN07/2605Z
FM260600 29003MPS 9999 BKN011
BECMG 2606/2607 BKN015
FM260800 30003MPS 9999 -SHRA BKN018CB
BECMG 2609/2610 BKN024CB
FM261400 27003MPS 9999 -RA BKN019
 
Залесье
 


NOWCAST.SU UUEX 260600Z VRB02MPS 9999 BKN021 06/05 Q1008 NOSIG
RMK ICE: MOD FL50/FL90
AUTOTAF.ME UUEX 260400Z 2605/2614 VRB02MPS 9999 BKN017 TX10/2610Z TN06/2605Z
BECMG 2606/2607 BKN023
FM260800 VRB02MPS 9999 VCSH BKN025CB
FM261100 VRB02MPS 9999 BKN031TCU
 
Юрьевское (Волжанка)
 


NOWCAST.SU UUEY 260600Z VRB02MPS 3000 BR BKN005 07/06 Q1007 NOSIG
RMK ICE: SEV FL50/FL60 MOD FL70/FL90
AUTOTAF.ME UUEY 260400Z 2605/2614 VRB02MPS 3000 BR BKN005 TX11/2612Z TN07/2605Z
FM260800 30003MPS 3000 VCSH BR BKN005 BKN010CB
FM260900 30003MPS 9999 VCSH BKN016CB
FM261000 30003MPS 9999 -RA BKN018
FM261100 29003MPS 9999 VCSH BKN021CB
BECMG 2613/2614 -SHRA
 
Хатенки
 


NOWCAST.SU UUFH 260600Z 25003MPS 9999 BKN021 07/05 Q1011 NOSIG
RMK ICE: MOD FL70/FL80 FBL FL50/FL60
AUTOTAF.ME UUFH 260400Z 2605/2614 25003MPS 9999 BKN017 TX11/2611Z TN06/2605Z
BECMG 2608/2609 BKN024
FM261000 26004MPS 9999 VCSH BKN028CB
FM261200 26004MPS 9999 BKN036TCU
FM261300 26003MPS 9999 VCSH BKN034CB
 
Михеево
 


NOWCAST.SU UUFM 260600Z 26003MPS 9999 -RA OVC011 07/06 Q1009 NOSIG
RMK ICE: SEV FL90/FL100 MOD FL50/FL70 FBL FL110/FL120
AUTOTAF.ME UUFM 260400Z 2605/2614 26003MPS 9999 OVC010 TX10/2612Z TN07/2605Z
BECMG 2605/2606 -RA
FM260800 27003MPS 9999 BKN016TCU
BECMG 2609/2610 BKN023TCU
BECMG 2610/2611 -RA
FM261400 VRB02MPS 9999 VCSH BKN026CB
 
Недельное
 


NOWCAST.SU UUFN 260600Z 26003MPS 9999 -DZ OVC010 07/06 Q1009 NOSIG
RMK ICE: SEV FL90/FL100 MOD FL50/FL70 FBL FL110/FL120
AUTOTAF.ME UUFN 260400Z 2605/2614 26003MPS 5000 BR BKN008 TX08/2609Z TN06/2605Z
FM260600 26003MPS 9999 -DZ OVC010
FM260700 26003MPS 9999 -RA OVC011
BECMG 2608/2609 OVC015
FM261100 27003MPS 9999 -SHRA OVC020CB
 
Калуга (Орешково)
 


NOWCAST.SU UUFO 260600Z 27005G10MPS 9999 BKN016TCU 07/06 Q1010 NOSIG
RMK ICE: SEV FL90/FL100 MOD FL50/FL70 TURB: MOD SFC/FL30
AUTOTAF.ME UUFO 260400Z 2605/2614 27005G10MPS 9999 BKN012TCU TX10/2610Z TN07/2605Z
BECMG 2605/2606 BKN016TCU
FM260800 27005G11MPS 9999 VCSH SCT022CB
FM261000 27005G11MPS 9999 SCT028TCU
FM261300 27004MPS 9999 VCSH BKN028CB
FM261400 26003MPS 9999 -RA BKN027
 
Стародуб
 


NOWCAST.SU UUFS 260600Z 22004MPS 9999 BKN040 09/05 Q1012 NOSIG
RMK ICE: MOD FL90/FL120 FBL FL70/FL170 TURB: MOD FL40/FL70
AUTOTAF.ME UUFS 260400Z 2605/2614 22004MPS 9999 BKN042 TX12/2609Z TN08/2605Z
FM261300 19004MPS 3000 BR OVC005
 
Иваньково
 


NOWCAST.SU UUGI 260600Z 27004MPS 9999 BKN010 07/06 Q1009 NOSIG
RMK ICE: MOD FL50/FL90 FBL FL120/FL130 TURB: MOD SFC/FL30
AUTOTAF.ME UUGI 260400Z 2605/2614 27004MPS 9999 BKN010 TX09/2610Z TN07/2605Z
FM260700 27005G10MPS 9999 -RA OVC013
FM260800 27005G10MPS 9999 -SHRA OVC015CB
BECMG 2609/2610 OVC021CB
FM261100 28005G11MPS 9999 -RA OVC023
FM261300 28004MPS 9999 VCSH BKN025CB
 
Дарьино
 


NOWCAST.SU UUID 260600Z VRB02MPS 9999 BKN015 07/06 Q1006 NOSIG
RMK ICE: SEV FL90/FL100 MOD FL50/FL70
AUTOTAF.ME UUID 260400Z 2605/2614 VRB02MPS 9999 OVC013 TX10/2611Z TN07/2605Z
BECMG 2607/2608 BKN017
FM261000 29003MPS 9999 VCSH BKN024CB
FM261300 28003MPS 9999 BKN026
 
Плес (Спасское)
 


NOWCAST.SU UUIE 260600Z 29003MPS 9999 -RA OVC011 07/06 Q1004 NOSIG
RMK ICE: MOD FL120/FL170 FBL FL50/FL110
AUTOTAF.ME UUIE 260400Z 2605/2614 30003MPS 9999 -RA OVC010 TX09/2608Z TN07/2605Z
BECMG 2607/2608 OVC016
BECMG 2613/2614 OVC011
 
Аэродром Доброград
 


NOWCAST.SU UUIG 260600Z 27003MPS 9999 BKN013 07/06 Q1006 NOSIG
RMK ICE: SEV FL90/FL100 MOD FL50/FL70 FBL FL190/FL200
AUTOTAF.ME UUIG 260400Z 2605/2614 VRB02MPS 9999 BKN012 TX11/2610Z TN07/2605Z
BECMG 2606/2607 BKN016
FM260800 26003MPS 9999 VCSH BKN019CB
BECMG 2609/2610 BKN026CB
BECMG 2610/2611 -SHRA
 
Палех
 


NOWCAST.SU UUIH 260600Z 31003MPS 9999 -RA OVC011 08/06 Q1004 NOSIG
RMK ICE: MOD FL70/FL90 FBL FL150/FL190
AUTOTAF.ME UUIH 260400Z 2605/2614 31003MPS 9999 OVC011 TX10/2610Z TN07/2605Z
BECMG 2605/2606 -RA
FM260800 30003MPS 9999 -SHRA OVC016CB
BECMG 2609/2610 OVC021CB
 
Мордыш
 


NOWCAST.SU UUIM 260600Z 29004MPS 5000 BR BKN015 08/07 Q1005 NOSIG
RMK ICE: SEV FL90/FL100 MOD FL50/FL70
AUTOTAF.ME UUIM 260400Z 2605/2614 29003MPS 3000 BR BKN005 TX11/2610Z TN08/2605Z
FM260600 29004MPS 5000 BR BKN015
FM260700 29004MPS 9999 BKN017
FM260800 28004MPS 9999 VCSH BKN019CB
BECMG 2608/2609 -SHRA
BECMG 2610/2611 BKN026CB
 
Небылое
 


NOWCAST.SU UUIN 260600Z 29004MPS 9999 BKN017 08/06 Q1005 NOSIG
RMK ICE: SEV FL90/FL100 MOD FL50/FL70
AUTOTAF.ME UUIN 260400Z 2605/2614 29004MPS 9999 OVC013 TX11/2612Z TN07/2605Z
BECMG 2605/2606 BKN017
FM260900 29005MPS 9999 VCSH BKN023CB
BECMG 2609/2610 -SHRA
FM261400 31004MPS 9999 -RA BKN022
 
Павловское
 


NOWCAST.SU UUIP 260600Z 29004MPS 9999 BKN014 08/07 Q1005 NOSIG
RMK ICE: SEV FL90/FL100 MOD FL50/FL70
AUTOTAF.ME UUIP 260400Z 2605/2614 29003MPS 9999 BKN012 TX11/2611Z TN08/2605Z
BECMG 2606/2607 BKN016
FM260800 28004MPS 9999 VCSH BKN019CB
BECMG 2608/2609 -SHRA
BECMG 2610/2611 BKN025CB
 
Сновицы
 


NOWCAST.SU UUIS 260600Z VRB02MPS 9999 BKN014 08/07 Q1006 NOSIG
RMK ICE: SEV FL90/FL100 MOD FL50/FL70
AUTOTAF.ME UUIS 260400Z 2605/2614 VRB02MPS 9999 OVC015 TX11/2611Z TN07/2605Z
FM260800 27003MPS 9999 VCSH BKN018CB
BECMG 2609/2610 BKN024CB
BECMG 2610/2611 -SHRA
 
Почаевский проезд
 


NOWCAST.SU UUIX 260600Z VRB02MPS 9999 BKN015 08/07 Q1006 NOSIG
RMK ICE: SEV FL90/FL100 MOD FL50/FL70
AUTOTAF.ME UUIX 260400Z 2605/2614 VRB02MPS 9999 OVC015 TX11/2611Z TN07/2605Z
FM260800 27003MPS 9999 VCSH BKN019CB
FM261100 26003MPS 9999 -SHRA BKN027CB
 
Шилово (Крутицы)
 


NOWCAST.SU UUJK 260600Z 27005MPS 9999 FEW001 08/07 Q0995 NOSIG
RMK ICE: SEV FL90/FL100 MOD FL50/FL120 FBL FL110/FL120 TURB: MOD SFC/FL170
AUTOTAF.ME UUJK 260400Z 2605/2614 27005MPS 3000 BR OVC005 TX11/2611Z TN08/2605Z
FM260600 27005MPS CAVOK
BECMG 2613/2614 2000
 
Кубинка
 


NOWCAST.SU UUMB 260600Z 27003MPS 9999 VCSH BKN013CB 07/06 Q1008 NOSIG
RMK ICE: MOD FL50/FL90 TURB: MOD SFC/FL30
AUTOTAF.ME UUMB 260400Z 2605/2614 27003MPS 9999 VCSH BKN010CB TX10/2611Z TN07/2605Z
BECMG 2605/2606 BKN013CB
BECMG 2606/2607 BKN017CB
BECMG 2607/2608 -SHRA
FM260900 27004MPS 9999 -SHRA BKN024CB
 
Черноголовка
 


NOWCAST.SU UUMC 260600Z VRB02MPS 3000 -SHRA BR BKN005 BKN010CB 07/06 Q1007 NOSIG
RMK ICE: MOD FL50/FL110
AUTOTAF.ME UUMC 260400Z 2605/2614 VRB02MPS 3000 BR BKN005 TX10/2610Z TN06/2605Z
FM260600 VRB02MPS 3000 -SHRA BR BKN005 BKN010CB
FM260700 29003MPS 5000 -SHRA BR BKN011CB
FM260800 28003MPS 9999 -SHRA BKN016CB
BECMG 2609/2610 BKN022CB
 
Сельниково
 


NOWCAST.SU UUMD 260600Z 28005MPS 9999 -RA BKN012 07/06 Q1008 NOSIG
RMK ICE: MOD FL50/FL90
AUTOTAF.ME UUMD 260400Z 2605/2614 28005MPS 1000 BR OVC003 TX11/2610Z TN06/2605Z
FM260600 28005MPS 9999 -RA BKN012
BECMG 2607/2608 OVC024
FM260900 28005G10MPS 9999 -SHRA BKN030CB
 
Северка
 


NOWCAST.SU UUML 260600Z 28005MPS 9999 -RA BKN014 07/06 Q1008 NOSIG
RMK ICE: MOD FL50/FL90 TURB: MOD SFC/FL30
AUTOTAF.ME UUML 260400Z 2605/2614 27005MPS 9999 -RA BKN011 TX10/2609Z TN06/2605Z
FM260700 28007MPS 9999 VCSH BKN020CB
BECMG 2607/2608 -SHRA
BECMG 2608/2609 BKN028CB
BECMG 2613/2614 BKN018CB
 
КС-18 Мышкин
 


NOWCAST.SU UUMN 260600Z VRB02MPS 9999 -SHRA BKN015CB 09/07 Q1006 NOSIG
RMK ICE: SEV FL70/FL90 MOD FL50/FL190 FBL FL120/FL170
AUTOTAF.ME UUMN 260400Z 2605/2614 VRB02MPS 9999 -SHRA BKN011CB TX11/2610Z TN08/2605Z
BECMG 2605/2606 BKN015CB
BECMG 2607/2608 OVC021CB
 
Москва (Остафьево)
METAR UUMO 260530Z 27003MPS 9999 SCT011 BKN020 08/08 Q1007 R25/CLRD60 NOSIG RMK QFE740/0987


NOWCAST.SU UUMO 260600Z 28004MPS 9999 -RA BKN016 07/06 Q1008 NOSIG
RMK ICE: MOD FL50/FL90
AUTOTAF.ME UUMO 260400Z 2605/2614 28004MPS 9999 -RA BKN011 TX10/2609Z TN06/2605Z
BECMG 2605/2606 BKN016
FM260700 28004MPS 9999 -SHRA BKN021CB
FM261400 27004MPS CAVOK
TAF UUMO 260150Z 2603/2612 27003MPS 6000 BKN004
BECMG 2606/2608 BKN016=
Буньково
 


NOWCAST.SU UUMR 260600Z 30003MPS 9999 SKC 07/05 Q1008 NOSIG
RMK ICE: MOD FL50/FL90 FBL FL110/FL120 TURB: MOD SFC/FL30
AUTOTAF.ME UUMR 260400Z 2605/2614 29003MPS 3000 BR BKN005 TX10/2610Z TN06/2605Z
FM260600 30003MPS CAVOK
FM260700 29003MPS 9999 VCSH BKN017CB
FM260800 29004MPS 9999 -SHRA BKN024CB
BECMG 2613/2614 VCSH
 
Чкаловский
 


NOWCAST.SU UUMU 260600Z 29003MPS 3000 -SHRA BR BKN005 BKN010CB 06/05 Q1007 NOSIG
RMK ICE: MOD FL50/FL90 FBL FL110/FL120
AUTOTAF.ME UUMU 260400Z 2605/2614 29003MPS 2000 SHRA BR BKN005 BKN010CB TX10/2610Z TN06/2605Z
FM260600 29003MPS 3000 -SHRA BR BKN005 BKN010CB
FM260700 29003MPS 5000 -SHRA BR BKN011CB
FM260800 29003MPS 9999 -SHRA BKN017CB
BECMG 2609/2610 BKN026CB
BECMG 2613/2614 VCSH
 
Воскресенск
 


NOWCAST.SU UUMV 260600Z 27004MPS 9999 -SHRA BKN012CB 07/06 Q1007 NOSIG
RMK ICE: SEV FL90/FL100 MOD FL50/FL70
AUTOTAF.ME UUMV 260400Z 2605/2614 27003MPS 3000 -SHRA BR BKN005 BKN010CB TX11/2610Z TN06/2605Z
FM260600 27004MPS 9999 -SHRA BKN012CB
BECMG 2606/2607 BKN018CB
BECMG 2608/2609 BKN028CB
 
Аэродром Ватулино
 


NOWCAST.SU UUMW 260600Z 27003MPS 9999 BKN014 07/06 Q1008 NOSIG
RMK ICE: MOD FL50/FL90 TURB: MOD SFC/FL30
AUTOTAF.ME UUMW 260400Z 2605/2614 27003MPS 9999 BKN012 TX10/2611Z TN07/2605Z
BECMG 2606/2607 BKN016
BECMG 2608/2609 BKN022
FM261100 28004MPS 9999 VCSH BKN028CB
 
Благовещенье
 


NOWCAST.SU UUMX 260600Z VRB02MPS 5000 BR BKN009 07/06 Q1007 NOSIG
RMK ICE: MOD FL50/FL110
AUTOTAF.ME UUMX 260400Z 2605/2614 VRB02MPS 5000 BR BKN007 TX10/2611Z TN06/2605Z
FM260700 29003MPS 9999 BKN011
BECMG 2607/2608 BKN015
FM261000 29004MPS 9999 -RA BKN021
FM261100 28004MPS 9999 -SHRA BKN022CB
FM261400 27004MPS 9999 BKN015
 
Озеры
 


NOWCAST.SU UUMY 260600Z 28005G10MPS 9999 -RA BKN014 08/06 Q1008 NOSIG
RMK ICE: MOD FL70/FL80 FBL FL50/FL60 TURB: MOD SFC/FL30
AUTOTAF.ME UUMY 260400Z 2605/2614 27005G10MPS 9999 -RA BKN012 TX10/2610Z TN07/2605Z
FM260700 28007MPS 9999 VCSH BKN019CB
BECMG 2607/2608 -SHRA
BECMG 2608/2609 BKN028CB
BECMG 2613/2614 BKN017CB
 
Белгород
METAR UUOB 260530Z 23002MPS CAVOK 09/05 Q1014 R29/010070 NOSIG


NOWCAST.SU UUOB 260600Z 24004MPS 9999 BKN041 11/06 Q1015 NOSIG
RMK ICE: FBL FL70/FL150 TURB: MOD FL50/FL60
AUTOTAF.ME UUOB 260400Z 2605/2614 24003MPS 9999 BKN045 TX16/2610Z TN10/2605Z
FM261400 VRB02MPS 9999 VCSH BKN042CB
TAF UUOB 260159Z 2603/2612 25003MPS 9999 BKN020=
Воронеж (Придача)
 


NOWCAST.SU UUOD 260600Z 26005G11MPS 9999 BKN044 10/05 Q1014 NOSIG
RMK ICE: MOD FL70/FL80 FBL FL50/FL170 TURB: MOD FL30/FL50
AUTOTAF.ME UUOD 260400Z 2605/2614 26005G11MPS 9999 BKN044 TX14/2610Z TN09/2605Z  
Курск (Восточный)
METAR UUOK 260530Z 24003MPS 210V270 CAVOK 08/05 Q1013 R30/090060 NOSIG RMK QFE741/0988


NOWCAST.SU UUOK 260600Z 25004MPS 9999 BKN041 08/05 Q1013 NOSIG
RMK ICE: MOD FL70/FL80 FBL FL120/FL150 TURB: MOD FL30/FL50
AUTOTAF.ME UUOK 260400Z 2605/2614 25004MPS 9999 BKN041 TX12/2609Z TN07/2605Z
BECMG 2606/2607 NSC
BECMG 2608/2609 BKN018TCU
FM261200 22004MPS 9999 VCSH BKN048CB
BECMG 2612/2613
TEMPO 2613/2615 VCTS
TAF UUOK 260157Z 2603/2612 25003G08MPS 6000 BKN020
TEMPO 2610/2612 -SHRA BKN016CB=
Липецк
METAR UUOL 260530Z 25005MPS 9999 BKN047 08/06 Q1011 R15/290150 NOSIG


NOWCAST.SU UUOL 260600Z 26005G11MPS 9999 BKN041 08/05 Q1012 NOSIG
RMK ICE: MOD FL70/FL80 FBL FL50/FL60 TURB: MOD FL40/FL50
AUTOTAF.ME UUOL 260400Z 2605/2614 26005G11MPS 9999 BKN041 TX12/2610Z TN08/2605Z
BECMG 2610/2611 BKN019TCU
BECMG 2611/2612 BKN049TCU
TAF UUOL 260200Z 2603/2612 26006MPS 6000 -RA SCT007 OVC016=
Воронеж (Чертовицкое)
METAR UUOO 260530Z 25004MPS CAVOK 10/06 Q1012 R30/010070 NOSIG RMK QFE746


NOWCAST.SU UUOO 260600Z 26005G11MPS 9999 BKN042TCU 10/05 Q1013 NOSIG
RMK ICE: MOD FL70/FL80 FBL FL50/FL170 TURB: MOD FL30/FL50
AUTOTAF.ME UUOO 260400Z 2605/2614 26005G11MPS 9999 OVC042 TX14/2612Z TN09/2605Z
BECMG 2612/2613 BKN020TCU
BECMG 2613/2614 BKN049TCU
TAF UUOO 260200Z 2603/2612 25003G08MPS 9999 BKN020=
Орел (Южный)
 


NOWCAST.SU UUOR 260600Z 25003MPS 9999 BKN040 08/05 Q1012 NOSIG
RMK ICE: MOD FL70/FL80 FBL FL50/FL170 TURB: MOD FL40/FL50
AUTOTAF.ME UUOR 260400Z 2605/2614 26003MPS 9999 OVC040 TX13/2611Z TN07/2605Z
BECMG 2606/2607 NSC
BECMG 2608/2609 SCT041TCU
 
Старый Оскол
 


NOWCAST.SU UUOS 260600Z 26004MPS 9999 OVC043 10/05 Q1014 NOSIG
RMK ICE: MOD FL70/FL80 FBL FL50/FL170 TURB: MOD FL30/FL50
AUTOTAF.ME UUOS 260400Z 2605/2614 26005G11MPS 9999 OVC040 TX14/2610Z TN09/2605Z
BECMG 2612/2613 BKN018TCU
 
Тамбов (Донское)
 


NOWCAST.SU UUOT 260600Z 26005G11MPS 9999 -RA OVC012 08/06 Q1010 NOSIG
RMK ICE: SEV FL70/FL80 MOD FL50/FL60 FBL FL90/FL100
AUTOTAF.ME UUOT 260400Z 2605/2614 26005G11MPS 9999 OVC012 TX11/2610Z TN07/2605Z
BECMG 2605/2606 -RA
FM260800 26005G11MPS 9999 VCSH BKN019CB
BECMG 2609/2610 BKN029CB
FM261100 26009G14MPS 9999 BKN035TCU
 
Усмань (Чистоозерская)
 


NOWCAST.SU UUOU 260600Z 26004MPS 9999 BKN042 09/05 Q1013 NOSIG
RMK ICE: MOD FL70/FL80 FBL FL50/FL190 TURB: MOD FL40/FL50
AUTOTAF.ME UUOU 260400Z 2605/2614 26004MPS 9999 OVC042 TX13/2611Z TN09/2605Z
BECMG 2613/2614 NSC
 
Валуйки
 


NOWCAST.SU UUOW 260600Z 24003MPS 9999 BKN045 11/06 Q1016 NOSIG
RMK ICE: MOD FL70/FL80 FBL FL90/FL120 TURB: MOD FL70/FL80
AUTOTAF.ME UUOW 260400Z 2605/2614 23003MPS 9999 BKN045 TX18/2612Z TN10/2605Z  
Воронеж (Солнечная)
 


NOWCAST.SU UUOZ 260600Z 26005G11MPS 9999 BKN042TCU 10/05 Q1013 NOSIG
RMK ICE: MOD FL70/FL80 FBL FL50/FL170 TURB: MOD FL30/FL50
AUTOTAF.ME UUOZ 260400Z 2605/2614 26005G11MPS 9999 OVC042 TX14/2612Z TN09/2605Z
BECMG 2612/2613 BKN020TCU
BECMG 2613/2614 BKN049TCU
 
Гаврилов Ям (Агат)
 


NOWCAST.SU UUQA 260600Z VRB02MPS 3000 BR OVC005 08/06 Q1005 NOSIG
RMK ICE: SEV FL90/FL100 MOD FL70/FL80 FBL FL170/FL190
AUTOTAF.ME UUQA 260400Z 2605/2614 VRB02MPS 2000 BR BKN005 TX10/2609Z TN07/2605Z
BECMG 2605/2606 3000
FM260800 32003MPS 9999 VCSH OVC021CB
BECMG 2608/2609 -SHRA
FM261400 30003MPS 9999 -RA OVC020
 
Ярославль (Любим)
 


NOWCAST.SU UUQL 260600Z VRB02MPS 5000 BR OVC012 08/07 Q1005 NOSIG
RMK ICE: MOD FL70/FL170 FBL FL110/FL190
AUTOTAF.ME UUQL 260400Z 2605/2614 VRB02MPS 5000 BR BKN012 TX11/2610Z TN07/2605Z
FM260700 32003MPS 5000 VCSH BR BKN017CB
FM260800 32003MPS 9999 VCSH OVC022CB
FM260900 32003MPS 9999 -SHRA OVC024CB
FM261400 30003MPS 9999 -RA OVC016
 
Попов Луг
 


NOWCAST.SU UUQP 260600Z VRB02MPS 9999 BKN014 07/06 Q1006 NOSIG
RMK ICE: SEV FL90/FL100 MOD FL50/FL70
AUTOTAF.ME UUQP 260400Z 2605/2614 VRB02MPS 9999 OVC013 TX11/2611Z TN07/2605Z
BECMG 2607/2608 BKN018
FM260900 29003MPS 9999 VCSH BKN020CB
BECMG 2610/2611 BKN028CB
FM261300 28003MPS 9999 BKN026
 
Рыбинск-Аксон
 


NOWCAST.SU UUQR 260600Z VRB02MPS 9999 BKN016 08/07 Q1005 NOSIG
RMK ICE: MOD FL50/FL170 FBL FL110/FL190
AUTOTAF.ME UUQR 260400Z 2605/2614 VRB02MPS 9999 BKN012 TX10/2609Z TN08/2605Z
BECMG 2605/2606 BKN016
FM260700 VRB02MPS 3000 BR OVC005
FM260800 34003MPS 9999 VCSH BKN022CB
BECMG 2608/2609 -SHRA
FM261300 34003MPS 9999 -RA OVC021
 
Лось
 


NOWCAST.SU UUQX 260600Z VRB02MPS 9999 BKN017 07/06 Q1006 NOSIG
RMK ICE: SEV FL90/FL100 MOD FL50/FL70
AUTOTAF.ME UUQX 260400Z 2605/2614 VRB02MPS 9999 OVC016 TX11/2611Z TN07/2605Z
BECMG 2607/2608 BKN021
FM260900 28003MPS 9999 VCSH BKN023CB
BECMG 2610/2611 -SHRA
 
Строгановка
 


NOWCAST.SU UURA 260600Z 11004MPS 9999 BKN230 01/M06 Q1026 NOSIG
RMK TURB: MOD SFC/FL20
AUTOTAF.ME UURA 260400Z 2605/2614 11004MPS CAVOK TX03/2609Z TNM01/2605Z  
Сандивей ДНС
 


NOWCAST.SU UURD 260600Z 11004MPS 9999 FEW200 01/M07 Q1027 NOSIG
RMK TURB: MOD SFC/FL20
AUTOTAF.ME UURD 260400Z 2605/2614 11004MPS CAVOK TX03/2609Z TNM01/2605Z  
 


NOSIG
 
Горовидка
 


NOWCAST.SU UUSG 260600Z 28004MPS 5000 BR BKN009 06/06 Q1009 NOSIG
RMK ICE: SEV FL70/FL90 MOD FL50/FL110 FBL FL120/FL130
AUTOTAF.ME UUSG 260400Z 2605/2614 28004MPS 5000 BR BKN007 TX10/2613Z TN06/2605Z
FM260700 28004MPS 9999 BKN012
BECMG 2607/2608 BKN017
BECMG 2609/2610 BKN024
FM261100 29004MPS 9999 VCSH BKN026CB
FM261400 VRB02MPS 9999 BKN028TCU
 
Кирилловка
 


NOWCAST.SU UUTA 260600Z 30003MPS 9999 BKN014 07/06 Q1008 NOSIG
RMK ICE: SEV FL50/FL90
AUTOTAF.ME UUTA 260400Z 2605/2614 VRB02MPS 9999 BKN012 TX11/2612Z TN07/2605Z
FM260700 29003MPS 9999 VCSH BKN017CB
FM260900 28003MPS 9999 -RA BKN022
FM261100 29003MPS 9999 VCSH BKN031CB
FM261300 29003MPS 9999 BKN032TCU
 
Адмиральская Бухта
 


NOWCAST.SU UUTB 260600Z VRB02MPS 3000 BR BKN005 07/06 Q1007 NOSIG
RMK ICE: SEV FL50/FL60 MOD FL70/FL90
AUTOTAF.ME UUTB 260400Z 2605/2614 VRB02MPS 2000 BR BKN005 TX10/2610Z TN07/2605Z
BECMG 2605/2606 3000
FM260700 30003MPS 3000 VCSH BR BKN005 BKN010CB
FM260900 30003MPS 9999 VCSH BKN017CB
BECMG 2610/2611 BKN023CB
FM261400 VRB02MPS 9999 BKN020
 
Серебряный Бор
 


NOWCAST.SU UUTF 260600Z 29003MPS 5000 BR BKN008 06/05 Q1008 NOSIG
RMK ICE: MOD FL50/FL90 TURB: MOD SFC/FL30
AUTOTAF.ME UUTF 260400Z 2605/2614 29003MPS CAVOK TX09/2610Z TN05/2605Z
FM260600 29003MPS 5000 BR BKN008
BECMG 2606/2607 BKN015
FM260800 30003MPS 9999 -SHRA BKN022CB
BECMG 2613/2614 VCSH
 
 


NOSIG
 
Вараксино
 


NOWCAST.SU UUTH 260600Z 27003MPS 9999 FEW100 06/06 Q1009 NOSIG
RMK ICE: MOD FL50/FL90
AUTOTAF.ME UUTH 260400Z 2605/2614 27003MPS CAVOK TX09/2610Z TN06/2605Z
BECMG 2606/2607 BKN012
FM260800 28003MPS 9999 VCSH BKN014CB
FM261000 28003MPS 9999 BKN021TCU
FM261100 28003MPS 9999 VCSH BKN026CB
 
Завидово (Треуголка)
 


NOWCAST.SU UUTJ 260600Z 29003MPS 3000 BR BKN005 07/06 Q1008 NOSIG
RMK ICE: MOD FL50/FL90
AUTOTAF.ME UUTJ 260400Z 2605/2614 29003MPS 5000 BR OVC011 TX10/2611Z TN07/2605Z
FM260600 29003MPS 3000 BR BKN005
FM260800 27003MPS 3000 VCSH BR BKN005 BKN010CB
FM260900 27003MPS 9999 VCSH BKN016CB
BECMG 2609/2610 BKN021CB
BECMG 2610/2611 -SHRA
FM261400 VRB02MPS 9999 BKN026
 
Калязин
 


NOWCAST.SU UUTK 260600Z VRB02MPS 9999 OVC023 08/07 Q1006 NOSIG
RMK ICE: SEV FL90/FL100 MOD FL50/FL70
AUTOTAF.ME UUTK 260400Z 2605/2614 VRB02MPS 9999 OVC022 TX11/2610Z TN07/2605Z
FM260800 28003MPS 9999 VCSH BKN025CB
FM261000 28004MPS 9999 -RA BKN028
FM261100 28004MPS 9999 -SHRA BKN028CB
 
Александровская Слобода
 


NOWCAST.SU UUTL 260600Z VRB02MPS 3000 BR BKN005 07/07 Q1007 NOSIG
RMK ICE: MOD FL50/FL90
AUTOTAF.ME UUTL 260400Z 2605/2614 VRB02MPS 3000 BR BKN005 TX10/2610Z TN07/2605Z
FM260800 30003MPS 3000 VCSH BR BKN005 BKN010CB
FM260900 30003MPS 9999 VCSH BKN018CB
FM261000 30003MPS 9999 -RA BKN020
FM261100 29003MPS 9999 VCSH BKN023CB
BECMG 2613/2614 -SHRA
 
Орловка
 


NOWCAST.SU UUTO 260600Z VRB02MPS 5000 BR BKN009 06/05 Q1008 NOSIG
RMK ICE: MOD FL50/FL90
AUTOTAF.ME UUTO 260400Z 2605/2614 VRB02MPS 3000 BR BKN005 TX09/2611Z TN06/2605Z
FM260600 VRB02MPS 5000 BR BKN009
FM260700 28003MPS 5000 -SHRA BR BKN009 BKN010CB
FM260800 28003MPS 9999 -SHRA BKN011CB
BECMG 2608/2609 BKN013CB
BECMG 2609/2610 BKN017CB
BECMG 2611/2612 BKN024CB
FM261400 VRB02MPS 9999 BKN020
 
Поповка
 


NOWCAST.SU UUTP 260600Z 31003MPS 9999 BKN020 08/07 Q1006 NOSIG
RMK ICE: SEV FL90/FL100 MOD FL50/FL70 TURB: MOD FL50/FL60
AUTOTAF.ME UUTP 260400Z 2605/2614 31003MPS 9999 BKN019 TX11/2610Z TN08/2605Z
FM260800 31004MPS 9999 -SHRA BKN021CB
 
Свердловка
 


NOWCAST.SU UUTQ 260600Z 29003MPS 9999 VCSH BKN014CB 08/07 Q1008 NOSIG
RMK ICE: MOD FL50/FL90
AUTOTAF.ME UUTQ 260400Z 2605/2614 29003MPS 3000 BR OVC005 TX10/2611Z TN07/2605Z
FM260600 29003MPS 9999 VCSH BKN014CB
BECMG 2608/2609 BKN020CB
FM261100 29003MPS 9999 -SHRA BKN028CB
FM261400 VRB02MPS 9999 BKN027
 
Старица
 


NOWCAST.SU UUTS 260600Z VRB02MPS 0500 FG BKN002 06/04 Q1008 NOSIG
RMK ICE: MOD FL50/FL90
AUTOTAF.ME UUTS 260400Z 2605/2614 VRB02MPS 3000 BR BKN005 TX10/2610Z TN05/2605Z
FM260600 VRB02MPS 0500 FG BKN002
FM260700 VRB02MPS 9999 BKN015
BECMG 2607/2608 BKN025
FM260900 VRB02MPS 9999 VCSH BKN032CB
BECMG 2609/2610 -SHRA
 
Волжская 7
 


NOWCAST.SU UUTV 260600Z 29003MPS 3000 BR BKN005 07/06 Q1008 NOSIG
RMK ICE: MOD FL50/FL90
AUTOTAF.ME UUTV 260400Z 2605/2614 29003MPS 2000 BR OVC005 TX10/2611Z TN07/2605Z
BECMG 2605/2606 3000
FM260800 27003MPS 3000 VCSH BR BKN005 BKN010CB
FM260900 27003MPS 9999 VCSH BKN018CB
FM261100 29003MPS 9999 -SHRA BKN025CB
FM261400 VRB02MPS 9999 BKN026
 
Волга Кантри Клаб
 


NOWCAST.SU UUTW 260600Z 27003MPS 2000 BR BKN005 05/05 Q1009 NOSIG
RMK ICE: MOD FL50/FL90
AUTOTAF.ME UUTW 260400Z 2605/2614 28003MPS 1000 BR BKN003 TX10/2612Z TN05/2605Z
FM260600 27003MPS 2000 BR BKN005
FM260700 28003MPS 3000 -DZ BR BKN005
FM260800 28003MPS 1000 SHRA BR BKN003 BKN010CB
FM260900 28003MPS 9999 -SHRA BKN016CB
BECMG 2610/2611 BKN023CB
BECMG 2611/2612 VCSH
 
Завидово (Большое)
 


NOWCAST.SU UUTZ 260600Z 29003MPS 9999 BKN011 07/06 Q1008 NOSIG
RMK ICE: MOD FL50/FL90
AUTOTAF.ME UUTZ 260400Z 2605/2614 29003MPS 5000 BR OVC011 TX10/2611Z TN07/2605Z
FM260600 29003MPS 9999 BKN011
FM260800 27003MPS 9999 VCSH BKN015CB
BECMG 2609/2610 BKN021CB
BECMG 2610/2611 -SHRA
FM261400 VRB02MPS 9999 BKN026
 
Москва (Кремль)
 


NOWCAST.SU UUUC 260600Z 28004MPS 9999 -RA BKN011 06/05 Q1008 NOSIG
RMK ICE: MOD FL50/FL90
AUTOTAF.ME UUUC 260400Z 2605/2614 28004MPS 9999 -RA BKN011 TX10/2610Z TN06/2605Z
FM260700 28004MPS 9999 -SHRA BKN016CB
BECMG 2607/2608 BKN024CB
FM261400 27004MPS CAVOK
 
ГКБ №15
 


NOWCAST.SU UUUN 260600Z 27004MPS 9999 -SHRA BKN011CB 06/05 Q1008 NOSIG
RMK ICE: SEV FL70/FL80 MOD FL50/FL90
AUTOTAF.ME UUUN 260400Z 2605/2614 27004MPS 1000 SHRA BR BKN003 BKN010CB TX10/2609Z TN06/2605Z
FM260600 27004MPS 9999 -SHRA BKN011CB
BECMG 2606/2607 BKN015CB
BECMG 2607/2608 BKN024CB
BECMG 2612/2613 VCSH
 
 


NOSIG
 
Хелипорт-Москва
 


NOWCAST.SU UUUZ 260600Z 29004MPS 2000 SHRA BR BKN005 BKN010CB 06/05 Q1007 NOSIG
RMK ICE: MOD FL50/FL90
AUTOTAF.ME UUUZ 260400Z 2605/2614 29003MPS 1000 SHRA BR BKN003 BKN010CB TX10/2609Z TN06/2605Z
FM260600 29004MPS 2000 SHRA BR BKN005 BKN010CB
FM260700 29004MPS 9999 -SHRA BKN013CB
BECMG 2607/2608 BKN024CB
BECMG 2613/2614 VCSH
 
Ермолино
 


NOWCAST.SU UUWE 260600Z 26003MPS 5000 -DZ BR OVC010 07/06 Q1009 NOSIG
RMK ICE: SEV FL50/FL90
AUTOTAF.ME UUWE 260400Z 2605/2614 26003MPS 5000 BR OVC009 TX08/2608Z TN06/2605Z
BECMG 2605/2606 -DZ BR
FM260700 26003MPS 9999 -DZ OVC010
FM260800 26004MPS 9999 -RA OVC012
BECMG 2609/2610 OVC016
FM261100 27003MPS 9999 -SHRA OVC019CB
 
Аэроград Можайский
 


NOWCAST.SU UUWH 260600Z 27003MPS 9999 -RA BKN012 07/06 Q1008 NOSIG
RMK ICE: SEV FL50/FL90 TURB: MOD SFC/FL30
AUTOTAF.ME UUWH 260400Z 2605/2614 27003MPS 9999 OVC010 TX10/2611Z TN06/2605Z
BECMG 2605/2606 -RA
BECMG 2606/2607 BKN015
FM260900 28004MPS 9999 VCSH BKN022CB
BECMG 2610/2611 -SHRA
 
Кудиново
 


NOWCAST.SU UUWK 260600Z 26003MPS 9999 -RA OVC010 07/06 Q1009 NOSIG
RMK ICE: SEV FL90/FL100 MOD FL50/FL70
AUTOTAF.ME UUWK 260400Z 2605/2614 26003MPS 5000 BR OVC010 TX09/2611Z TN06/2605Z
FM260600 26003MPS 9999 -RA OVC010
FM260800 27003MPS 9999 BKN015TCU
BECMG 2609/2610 BKN022TCU
BECMG 2610/2611 -RA
FM261400 VRB02MPS 9999 VCSH BKN024CB
 
Лужки
 


NOWCAST.SU UUWL 260600Z 27003MPS 9999 VCSH BKN015CB 07/06 Q1008 NOSIG
RMK ICE: MOD FL50/FL90 TURB: MOD SFC/FL30
AUTOTAF.ME UUWL 260400Z 2605/2614 27003MPS 9999 BKN011 TX10/2610Z TN07/2605Z
FM260600 27003MPS 9999 VCSH BKN015CB
BECMG 2606/2607 -SHRA
BECMG 2607/2608 BKN022CB
BECMG 2613/2614 VCSH
 
Народное Небо
 


NOWCAST.SU UUWN 260600Z 27003MPS 9999 -RA BKN012 07/06 Q1008 NOSIG
RMK ICE: SEV FL50/FL90 TURB: MOD SFC/FL30
AUTOTAF.ME UUWN 260400Z 2605/2614 27003MPS 9999 BKN010 TX10/2611Z TN06/2605Z
BECMG 2605/2606 -RA
BECMG 2606/2607 BKN015
FM260900 28004MPS 9999 VCSH BKN022CB
BECMG 2610/2611 -SHRA
 
ГБУ Областной аэропорт Протасово
 


NOWCAST.SU UUWP 260600Z 27005G11MPS 9999 -RA BKN013 07/06 Q1008 NOSIG
RMK ICE: SEV FL50/FL90 FBL FL110/FL120 TURB: MOD FL40/FL50
AUTOTAF.ME UUWP 260400Z 2605/2614 27004MPS 9999 -RA BKN011 TX11/2611Z TN07/2605Z
BECMG 2606/2607 BKN020
FM260800 28005G10MPS 9999 -SHRA OVC026CB
BECMG 2611/2612 26009G14MPS
 
Шишкин Лес
 


NOWCAST.SU UUWQ 260600Z 27003MPS 9999 VCSH BKN015CB 07/06 Q1008 NOSIG
RMK ICE: MOD FL50/FL90 TURB: MOD SFC/FL30
AUTOTAF.ME UUWQ 260400Z 2605/2614 27003MPS 9999 BKN011 TX10/2611Z TN07/2605Z
FM260600 27003MPS 9999 VCSH BKN015CB
BECMG 2606/2607 -SHRA
BECMG 2607/2608 BKN021CB
BECMG 2613/2614 VCSH
 
Ясенево
 


NOWCAST.SU UUWR 260600Z 28004MPS 9999 -RA BKN014 07/05 Q1008 NOSIG
RMK ICE: MOD FL50/FL90
AUTOTAF.ME UUWR 260400Z 2605/2614 28004MPS 9999 -DZ BKN009 TX10/2609Z TN06/2605Z
FM260600 28004MPS 9999 -RA BKN014
FM260700 28004MPS 9999 -SHRA BKN020CB
BECMG 2607/2608 BKN026CB
FM261400 27004MPS CAVOK
 
Москва (Внуково)
METAR UUWW 260530Z 27004MPS 9999 OVC005 07/05 Q1007 R24/190055 NOSIG


NOWCAST.SU UUWW 260600Z 28004MPS 9999 -RA BKN015 07/05 Q1008 NOSIG
RMK ICE: MOD FL50/FL90
AUTOTAF.ME UUWW 260400Z 2605/2614 28004MPS 9999 -DZ BKN010 TX10/2609Z TN06/2605Z
FM260600 28004MPS 9999 -RA BKN015
FM260700 28004MPS 9999 -SHRA BKN020CB
BECMG 2608/2609 BKN028CB
FM261400 27004MPS CAVOK
TAF UUWW 260150Z 2603/2703 28003MPS 6000 BKN003 OVC016 TX10/2612Z TN03/2703Z
TEMPO 2603/2606 0300 FG OVC001
BECMG 2606/2608 BKN020
PROB40 TEMPO 2619/2624 0500 FG OVC002=
Аносино-2
 


NOWCAST.SU UUWY 260600Z 30003MPS 9999 BKN013 07/06 Q1008 NOSIG
RMK ICE: MOD FL50/FL90 TURB: MOD SFC/FL30
AUTOTAF.ME UUWY 260400Z 2605/2614 29003MPS 5000 BR BKN010 TX11/2611Z TN06/2605Z
FM260600 30003MPS 9999 BKN013
FM260700 29003MPS 9999 VCSH BKN019CB
FM260800 29004MPS 9999 -SHRA BKN027CB
BECMG 2613/2614 VCSH
 
Знаменское
 


NOWCAST.SU UUWZ 260600Z 27003MPS 3000 BR BKN005 06/05 Q1008 NOSIG
RMK ICE: MOD FL50/FL90 TURB: MOD SFC/FL30
AUTOTAF.ME UUWZ 260400Z 2605/2614 27003MPS 2000 BR BKN005 TX10/2610Z TN06/2605Z
BECMG 2605/2606 3000
FM260700 27003MPS 3000 -SHRA BR BKN005 BKN010CB
FM260800 27003MPS 9999 -SHRA BKN019CB
BECMG 2609/2610 BKN027CB
BECMG 2613/2614 VCSH
 
Черпаю (ДНС)
 


NOWCAST.SU UUXZ 260600Z 11004MPS 9999 FEW190 00/M06 Q1027 NOSIG
RMK TURB: MOD SFC/FL20
AUTOTAF.ME UUXZ 260400Z 2605/2614 10003MPS CAVOK TX02/2609Z TNM02/2605Z  
Ухта
 


NOWCAST.SU UUYH 260600Z 12005G11MPS 9999 FEW370 03/M06 Q1022 NOSIG
RMK TURB: MOD SFC/FL20
AUTOTAF.ME UUYH 260400Z 2605/2614 11005G11MPS CAVOK TX06/2610Z TN02/2605Z  
Инта
 


NOWCAST.SU UUYI 260600Z 11003MPS 9999 BKN240 02/M07 Q1026 NOSIG
RMK TURB: MOD SFC/FL20
AUTOTAF.ME UUYI 260400Z 2605/2614 11003MPS CAVOK TX04/2608Z TN01/2605Z  
Вуктыл
 


NOWCAST.SU UUYK 260600Z 11003MPS 9999 FEW300 02/M07 Q1025 NOSIG
RMK TURB: MOD SFC/FL30
AUTOTAF.ME UUYK 260400Z 2605/2614 11003MPS CAVOK TX05/2609Z TN01/2605Z  
Печора
 


NOWCAST.SU UUYP 260600Z VRB02MPS 9999 SCT270 02/M05 Q1026 NOSIG
RMK TURB: MOD SFC/FL20
AUTOTAF.ME UUYP 260400Z 2605/2614 VRB02MPS CAVOK TX05/2610Z TN00/2605Z  
Троицко-Печорск
 


NOWCAST.SU UUYR 260600Z 10009G14MPS 9999 BKN036 02/M06 Q1022 NOSIG
RMK TURB: MOD SFC/FL30
AUTOTAF.ME UUYR 260400Z 2605/2614 10009G14MPS 9999 BKN031 TX05/2609Z TN01/2605Z
BECMG 2606/2607 NSC
BECMG 2611/2612 09004MPS
 
Усинск
 


NOWCAST.SU UUYS 260600Z VRB02MPS 9999 BKN240 01/M05 Q1026 NOSIG
RMK ICE: FBL FL20/FL30 TURB: MOD SFC/FL20
AUTOTAF.ME UUYS 260400Z 2605/2614 VRB02MPS CAVOK TX04/2610Z TNM01/2605Z
BECMG 2613/2614 06003MPS
 
Усть-Кулом
 


NOWCAST.SU UUYT 260600Z 10009G15MPS 9999 SKC 04/M04 Q1017 NOSIG
RMK TURB: MOD SFC/FL40
AUTOTAF.ME UUYT 260400Z 2605/2614 09009G15MPS CAVOK TX07/2610Z TN03/2605Z
BECMG 2612/2613 10004MPS
 
Воркута
 


NOWCAST.SU UUYW 260600Z VRB02MPS 9999 FEW120 M02/M09 Q1028 NOSIG
RMK ICE: FBL FL150/FL160 TURB: MOD SFC/FL20
AUTOTAF.ME UUYW 260400Z 2605/2614 VRB02MPS CAVOK TX01/2609Z TNM04/2605Z  
Усть-Цильма
 


NOWCAST.SU UUYX 260600Z 13004MPS 9999 SCT300 03/M05 Q1024 NOSIG
RMK TURB: MOD SFC/FL20
AUTOTAF.ME UUYX 260400Z 2605/2614 12004MPS CAVOK TX06/2610Z TN01/2605Z  
Сыктывкар
METAR UUYY 260530Z 09006MPS 9999 OVC037 03/M01 Q1015 R36/CLRD61 NOSIG RMK QFE752/1003


NOWCAST.SU UUYY 260600Z 10009G15MPS 9999 FEW350 05/M03 Q1015 NOSIG
RMK ICE: FBL FL30/FL40 TURB: MOD SFC/FL30
AUTOTAF.ME UUYY 260400Z 2605/2614 09007G13MPS CAVOK TX08/2610Z TN04/2605Z
BECMG 2608/2609 FEW045
BECMG 2610/2611 NSC
TAF UUYY 260200Z 2603/2703 08006G14MPS 9999 BKN017CB
TEMPO 2603/2703 6000 -SHRA BKN016CB=
Большое Болдино
 


NOWCAST.SU UWGB 260600Z 26003MPS 9999 BKN017 08/05 Q1005 NOSIG
RMK ICE: SEV FL90/FL100 MOD FL50/FL190 FBL FL150/FL170 TURB: MOD SFC/FL30
AUTOTAF.ME UWGB 260400Z 2605/2614 26003MPS 9999 BKN016 TX10/2610Z TN08/2605Z
BECMG 2606/2607 -RA
FM260800 28004MPS 9999 -SHRA BKN015CB
BECMG 2609/2610
TEMPO 2610/2611 VRB08G13MPS VCTS
FM261100 VRB02MPS 9999 -RA BKN023
FM261400 VRB02MPS 9999 -SHRA BKN026CB
 
Нижний Новгород (Стригино)
METAR UWGG 260530Z 27003MPS 9000 -RA OVC002 07/07 Q1003 R18L/290050 NOSIG RMK QBB070


NOWCAST.SU UWGG 260600Z 26004MPS 9999 -RA OVC012 07/06 Q1004 NOSIG
RMK ICE: MOD FL50/FL120 FBL FL150/FL190
AUTOTAF.ME UWGG 260400Z 2605/2614 26003MPS 5000 BR OVC012 TX10/2610Z TN07/2605Z
FM260600 26004MPS 9999 -RA OVC012
FM261000 26004MPS 9999 BKN017CB
TEMPO 2610/2612 VRB11G16MPS VCTS
TEMPO 2612/2614 VRB08G13MPS VCTS
TAF AMD UWGG 260409Z 2604/2703 27003G09MPS 6000 -RA BKN003 TX12/2612Z TN08/2605Z
BECMG 2609/2611 BKN010=
Бабино
 


NOWCAST.SU UWGI 260600Z 27004MPS 9999 OVC012 07/06 Q1004 NOSIG
RMK ICE: SEV FL90/FL100 MOD FL50/FL120 FBL FL150/FL190
AUTOTAF.ME UWGI 260400Z 2605/2614 27004MPS 5000 BR BKN012 TX10/2610Z TN07/2605Z
FM260600 27004MPS 9999 OVC012
BECMG 2606/2607 -RA
BECMG 2607/2608 OVC016
FM261000 26004MPS 9999 -SHRA BKN019CB
BECMG 2611/2612
TEMPO 2612/2615 VCTS
 
Охлопково
 


NOWCAST.SU UWGO 260600Z 27004MPS 3000 BR BKN005 08/06 Q1005 NOSIG
RMK ICE: SEV FL70/FL90 MOD FL50/FL170 FBL FL110/FL190
AUTOTAF.ME UWGO 260400Z 2605/2614 28004MPS 5000 BR BKN012 TX10/2609Z TN07/2605Z
FM260600 27004MPS 3000 BR BKN005
FM260700 27004MPS 9999 OVC015
FM260900 26004MPS 9999 -RA BKN021
FM261000 26004MPS 9999 -SHRA BKN023CB
 
Вознесенское
 


NOWCAST.SU UWGV 260600Z 26003MPS 5000 BR BKN010 07/06 Q1006 NOSIG
RMK ICE: SEV FL90/FL100 MOD FL50/FL70
AUTOTAF.ME UWGV 260400Z 2605/2614 26003MPS 5000 BR BKN010 TX11/2611Z TN07/2605Z
FM260700 26003MPS 9999 BKN012
FM260800 26003MPS 9999 -RA BKN015
BECMG 2608/2609 BKN020
BECMG 2610/2611 BKN029
FM261300 25003MPS 9999 VCSH BKN033CB
BECMG 2613/2614 -SHRA
 
Бугульма
 


NOWCAST.SU UWKB 260600Z 24005MPS 9999 BKN023CB 10/07 Q1007 TEMPO VRB08G13MPS -SHRA
RMK ICE: MOD FL50/FL120 TURB: MOD SFC/FL30
AUTOTAF.ME UWKB 260400Z 2605/2614 23004MPS 9999 BKN018CB TX12/2608Z TN09/2605Z
TEMPO 2605/2609 VRB08G13MPS -TSRA
BECMG 2606/2607 BKN029CB
BECMG 2608/2609
TEMPO 2609/2610 VRB08G13MPS VCTS
BECMG 2609/2610 -SHRA
FM261400 24004MPS 9999 BKN025CB
 
Казань
METAR UWKD 260530Z 22002MPS 190V250 9999 -RA OVC033 10/09 Q1004 R29/2/0050 NOSIG RMK QFE742/0989


NOWCAST.SU UWKD 260600Z 24004MPS 9999 BKN024CB 10/07 Q1005 TEMPO -SHRA
RMK ICE: MOD FL70/FL90 FBL FL170/FL180 TURB: MOD SFC/FL30
AUTOTAF.ME UWKD 260400Z 2605/2614 24003MPS 9999 BKN021CB TX11/2609Z TN10/2605Z
TEMPO 2605/2606 VRB08G13MPS VCTS
BECMG 2605/2606 NSW
TEMPO 2606/2610 -TSRA
BECMG 2608/2609 18004MPS
BECMG 2609/2610
TEMPO 2610/2611 VCTS
FM261100 18003MPS 9999 -SHRA BKN036CB
FM261300 18003MPS 9999 -RA BKN037
TAF UWKD 260154Z 2603/2703 22003MPS 3100 -RA BR OVC011 TX12/2612Z TN06/2702Z
TEMPO 2603/2606 0500 FG VV002
BECMG 2606/2608 6000 -RA BKN016
BECMG 2612/2614 9999 NSW=
Бегишево
METAR UWKE 260530Z 18003MPS 9000 OVC005 09/09 Q1005 R21/210355 NOSIG RMK OBST OBSC QFE737/0983


NOWCAST.SU UWKE 260600Z VRB02MPS 9999 BKN019CB 09/08 Q1006 TEMPO VRB08G13MPS VCSH
RMK ICE: MOD FL70/FL90 FBL FL110/FL170 TURB: MOD FL250/FL260
AUTOTAF.ME UWKE 260400Z 2605/2614 VRB02MPS 9999 -RA BKN014 TX12/2608Z TN09/2605Z
FM260600 VRB02MPS 9999 BKN019CB
TEMPO 2606/2607 VRB08G13MPS VCTS
TEMPO 2607/2612 VCTS
BECMG 2607/2608 BKN031CB
BECMG 2609/2610 23003MPS
BECMG 2611/2612 -SHRA
FM261300 VRB02MPS 9999 -SHRA BKN030CB
FM261400 VRB02MPS 9999 -RA BKN029
TAF UWKE 260200Z 2603/2703 22003G10MPS 6000 -RA BKN016
TEMPO 2603/2608 27003G14MPS 0500 SHRA FG BKN002 BKN011CB
TEMPO 2608/2621 27003G14MPS -SHRA BKN011CB=
Балтаси
 


NOWCAST.SU UWKF 260600Z 17003MPS 9999 -RA OVC018 08/07 Q1005 NOSIG
RMK ICE: MOD FL50/FL150 TURB: MOD FL250/FL260
AUTOTAF.ME UWKF 260400Z 2605/2614 19003MPS 9999 -RA OVC018 TX12/2611Z TN08/2605Z
FM260900 13003MPS 9999 -SHRA BKN023CB
BECMG 2611/2612 VRB02MPS
 
Казань (Борисоглебское)
 


NOWCAST.SU UWKG 260600Z 20003MPS 5000 -RA BR BKN016 09/08 Q1005 NOSIG
RMK ICE: MOD FL50/FL170 TURB: MOD FL250/FL260
AUTOTAF.ME UWKG 260400Z 2605/2614 VRB02MPS 9999 -RA BKN014 TX12/2611Z TN09/2605Z
FM260600 20003MPS 5000 -RA BR BKN016
FM260700 21003MPS 9999 -RA BKN021
 
Йошкар-Ола
 


NOWCAST.SU UWKJ 260600Z VRB02MPS 3000 -RA BR OVC005 08/08 Q1004 NOSIG
RMK ICE: MOD FL50/FL90 FBL FL110/FL150
AUTOTAF.ME UWKJ 260400Z 2605/2614 VRB02MPS 9999 -RA OVC012 TX10/2611Z TN08/2605Z
FM260600 VRB02MPS 3000 -RA BR OVC005
FM260700 VRB02MPS 3000 -SHRA BR BKN005 OVC010CB
FM260900 20003MPS 5000 -SHRA BR OVC017CB
FM261100 VRB02MPS 9999 -RA BKN022
 
Елабуга (Северный)
 


NOWCAST.SU UWKL 260600Z 16003MPS 9999 -RA BKN023 10/08 Q1006 NOSIG
RMK ICE: SEV FL90/FL100 MOD FL70/FL110 FBL FL150/FL170 TURB: MOD FL210/FL260 MOD SFC/FL30
AUTOTAF.ME UWKL 260400Z 2605/2614 17003MPS 9999 -RA BKN021 TX11/2608Z TN09/2605Z
FM260800 14003MPS 9999 -SHRA BKN026CB
BECMG 2610/2611
TEMPO 2611/2615 VCTS
BECMG 2611/2612 VRB02MPS
 
Мензелинск
 


NOWCAST.SU UWKP 260600Z VRB02MPS 9999 BKN021CB 10/07 Q1007 TEMPO TL0700 VRB08G13MPS VCSH
RMK ICE: SEV FL70/FL110 MOD FL120/FL150 FBL FL170/FL180 TURB: MOD FL250/FL260
AUTOTAF.ME UWKP 260400Z 2605/2614 VRB02MPS 9999 BKN020 TX12/2609Z TN09/2605Z
FM260600 VRB02MPS 9999 BKN021CB
TEMPO 2606/2607 VRB08G13MPS VCTS
BECMG 2606/2607 VCSH
FM260800 VRB02MPS 9999 -RA BKN032
FM260900 VRB02MPS 9999 -SHRA OVC037CB
BECMG 2610/2611
TEMPO 2611/2615 VCTS
 
Сарманово
 


NOWCAST.SU UWKR 260600Z 19003MPS 9999 BKN022CB 10/08 Q1006 TEMPO VRB08G13MPS VCSH
RMK ICE: MOD FL70/FL120 TURB: MOD FL250/FL260 MOD SFC/FL30
AUTOTAF.ME UWKR 260400Z 2605/2614 VRB02MPS 9999 BKN017 TX12/2609Z TN09/2605Z
FM260600 19003MPS 9999 BKN022CB
TEMPO 2606/2607 VRB08G13MPS VCTS
TEMPO 2607/2611 VCTS
BECMG 2610/2611 -SHRA
BECMG 2611/2612 27003MPS
 
Чебоксары (Синьялы)
METAR UWKS 260530Z 22004MPS 9000 -SHRA OVC004CB 08/08 Q1002 R24/290255 NOSIG RMK QFE737


NOWCAST.SU UWKS 260600Z 22004MPS 9999 -RA BKN015 09/07 Q1004 NOSIG
RMK ICE: MOD FL110/FL190 FBL FL50/FL90
AUTOTAF.ME UWKS 260400Z 2605/2614 22004MPS 9999 -RA OVC012 TX10/2609Z TN08/2605Z
BECMG 2606/2607 BKN017
FM260900 25004MPS 9999 BKN022CB
TEMPO 2609/2610 VRB11G16MPS VCTS
TEMPO 2610/2611 VRB08G13MPS VCTS
FM261100 26004MPS 9999 -RA BKN026
TAF UWKS 260158Z 2603/2612 24003G08MPS 8000 -SHRA BKN020CB TX11/2612Z TN08/2603Z
TEMPO 2603/2609 BKN005CB=
Казань (Юдино)
 


NOWCAST.SU UWKW 260600Z 20003MPS 9999 -RA BKN016 09/08 Q1005 NOSIG
RMK ICE: MOD FL50/FL170 TURB: MOD FL250/FL260
AUTOTAF.ME UWKW 260400Z 2605/2614 VRB02MPS 9999 -RA BKN014 TX12/2610Z TN09/2605Z
FM260700 21003MPS 9999 -SHRA BKN020CB
BECMG 2607/2608 BKN027CB
BECMG 2609/2610
TEMPO 2610/2615 VCTS
 
Ульяновск (Баратаевка)
METAR UWLL 260530Z 25007MPS 9999 BKN014 09/06 Q1005 R20/090065 NOSIG RMK QFE744/0992


NOWCAST.SU UWLL 260600Z 24003MPS 9999 BKN020CB 09/05 Q1006 TEMPO TL0700 VCSH
RMK ICE: MOD FL50/FL110 FBL FL120/FL130 TURB: MOD SFC/FL30
AUTOTAF.ME UWLL 260400Z 2605/2614 24003MPS 9999 BKN015 TX12/2609Z TN08/2605Z
FM260600 24003MPS 9999 BKN020CB
TEMPO 2606/2607 VCTS
FM260700 24003MPS 9999 BKN024TCU
FM260900 VRB02MPS 9999 BKN036CB
TEMPO 2609/2613 VCTS
BECMG 2612/2613 -SHRA
FM261400 25003MPS 9999 -RA BKN029
TAF UWLL 260158Z 2603/2703 26003G08MPS 6000 BKN016CB TX14/2610Z TN07/2603Z
TEMPO 2603/2607 21008MPS 2100 -SHRA BR BKN004 BKN012CB
TEMPO 2607/2615 22008G13MPS=
Новоселки
 


NOWCAST.SU UWLN 260600Z 22005MPS 9999 BKN020TCU 09/06 Q1007 TEMPO FM0800 VRB08G13MPS VCSH
RMK ICE: MOD FL50/FL150 FBL FL170/FL180 TURB: MOD SFC/FL30
AUTOTAF.ME UWLN 260400Z 2605/2614 23005MPS 9999 -RA OVC019 TX11/2611Z TN09/2605Z
FM260800 21004MPS 9999 OVC021CB
TEMPO 2608/2610 VRB08G13MPS VCTS
BECMG 2609/2610 -SHRA
BECMG 2610/2611
TEMPO 2611/2615 VCTS
 
Солдатская Ташла
 


NOWCAST.SU UWLS 260600Z 23003MPS 9999 -RA OVC018 08/06 Q1006 TEMPO FM0700 VRB08G13MPS VCSH
RMK ICE: MOD FL50/FL110 FBL FL120/FL130 TURB: MOD SFC/FL30
AUTOTAF.ME UWLS 260400Z 2605/2614 23003MPS 9999 -RA BKN016 TX10/2608Z TN08/2605Z
FM260700 23003MPS 9999 BKN021CB
TEMPO 2607/2609 VRB08G13MPS VCTS
BECMG 2608/2609 -SHRA
BECMG 2609/2610
TEMPO 2610/2611 VRB08G13MPS VCTS
TEMPO 2611/2612 VCTS
BECMG 2611/2612 -SHRA
FM261400 25004MPS 9999 -RA BKN025
 
Ульяновск (Восточный)
METAR UWLW 260500Z 25004MPS 9999 BKN020 09/07 Q1005 R20/150055 NOSIG RMK QFE748/0998


NOWCAST.SU UWLW 260600Z 23004MPS 9999 BKN024CB 10/06 Q1006 TEMPO VCSH
RMK ICE: MOD FL50/FL110 TURB: MOD SFC/FL30
AUTOTAF.ME UWLW 260400Z 2605/2614 23004MPS 9999 BKN022CB TX12/2610Z TN09/2605Z
TEMPO 2605/2609 VCTS
FM260900 23003MPS 9999 BKN032TCU
FM261000 23003MPS 9999 BKN033CB
TEMPO 2610/2615 VCTS
TAF UWLW 260151Z 2603/2703 23003MPS 6000 OVC020 TX12/2611Z TN06/2603Z
TEMPO 2603/2615 26003G09MPS -SHRA BKN010 BKN016CB=
Зилаир
 


NOWCAST.SU UWOI 260600Z 26010G15MPS 9999 -SHRA BKN015CB 08/05 Q1011 NOSIG
RMK ICE: MOD FL70/FL110 TURB: MOD SFC/FL40
AUTOTAF.ME UWOI 260400Z 2605/2614 26009G14MPS 9999 -RA BKN014 TX09/2608Z TN07/2605Z
FM260600 26010G15MPS 9999 -SHRA BKN015CB
BECMG 2607/2608 BKN026CB
BECMG 2612/2613 BKN016CB
FM261400 26004MPS 9999 -RA OVC014
 
Оренбург
METAR UWOO 260530Z 22007MPS 9999 BKN010CB 10/07 Q1011 R26/CLRD65 NOSIG RMK QFE748/0997


NOWCAST.SU UWOO 260600Z 25008G13MPS 9999 VCSH BKN026CB 11/06 Q1011 NOSIG
RMK ICE: MOD FL50/FL110 FBL FL190/FL200 TURB: MOD SFC/FL30
AUTOTAF.ME UWOO 260400Z 2605/2614 25007MPS 9999 BKN021TCU TX12/2608Z TN09/2614Z
FM260600 25008G13MPS 9999 VCSH BKN026CB
FM260700 25009G14MPS 9999 BKN027TCU
FM260800 25009G14MPS 9999 VCSH BKN025CB
BECMG 2608/2609 -SHRA
BECMG 2613/2614 OVC015CB
TAF UWOO 260142Z 2603/2703 24008G17MPS 6000 BKN016 TX14/2610Z TN08/2603Z
TEMPO 2603/2606 21006MPS -SHRA BKN007 BKN015CB
TEMPO 2606/2703 -SHRA BKN020CB
BECMG 2617/2619 25003G12MPS=
Первомайский
 


NOWCAST.SU UWOP 260600Z 22005MPS 9999 -SHRA OVC014CB 09/08 Q1010 NOSIG
RMK ICE: MOD FL50/FL190
AUTOTAF.ME UWOP 260400Z 2605/2614 22005MPS 9999 -RA BKN014 TX10/2611Z TN09/2605Z
FM260600 22005MPS 9999 -SHRA OVC014CB
BECMG 2607/2608 OVC022CB
BECMG 2608/2609 25010G15MPS
FM261200 26009MPS 9999 -RA OVC026
FM261300 27005G11MPS 9999 BKN025
BECMG 2613/2614 -RA
 
Орск
METAR UWOR 260500Z 26008MPS 9999 BKN014CB 09/06 Q1012 R25/CLRD65 NOSIG RMK QFE735/0980


NOWCAST.SU UWOR 260600Z 26011G16MPS 9999 -SHRA BKN028CB 12/05 Q1012 NOSIG
RMK ICE: SEV FL90/FL100 MOD FL70/FL80 TURB: MOD SFC/FL40
AUTOTAF.ME UWOR 260400Z 2605/2614 25010G15MPS 9999 -SHRA BKN027CB TX13/2608Z TN11/2605Z
BECMG 2607/2608 VCSH
FM260900 27012G17MPS 9999 BKN048TCU
TAF UWOR 260143Z 2603/2612 24007G15MPS 6000 BKN016CB TX14/2610Z TN06/2603Z
TEMPO 2603/2605 21003G12MPS
TEMPO 2605/2612 27011G19MPS -SHRA=
Бузулук
 


NOWCAST.SU UWOX 260600Z 23004MPS 9999 VCSH BKN020CB 10/06 Q1009 NOSIG
RMK ICE: MOD FL50/FL190 FBL FL110/FL150 TURB: MOD SFC/FL30
AUTOTAF.ME UWOX 260400Z 2605/2614 23004MPS 9999 BKN018 TX10/2606Z TN09/2605Z
FM260600 23004MPS 9999 VCSH BKN020CB
FM260700 23003MPS 9999 -RA BKN021
FM260800 22003MPS 9999 -SHRA BKN021CB
BECMG 2610/2611 OVC014CB
BECMG 2612/2613 -RA
 
Кушкуль (Сакмара)
 


NOWCAST.SU UWOY 260600Z 25007MPS 9999 VCSH BKN026CB 11/06 Q1011 NOSIG
RMK ICE: MOD FL50/FL110 FBL FL190/FL200 TURB: MOD SFC/FL40
AUTOTAF.ME UWOY 260400Z 2605/2614 25008MPS 9999 BKN021TCU TX11/2606Z TN09/2614Z
FM260600 25007MPS 9999 VCSH BKN026CB
FM260800 24008G13MPS 9999 -RA BKN024
FM260900 24005G11MPS 9999 -SHRA OVC022CB
 
Пенза (Терновка)
 


NOWCAST.SU UWPP 260600Z 26010MPS 9999 -RA OVC016 08/06 Q1008 NOSIG
RMK ICE: SEV FL90/FL100 MOD FL50/FL70 FBL FL170/FL190 TURB: MOD SFC/FL30
AUTOTAF.ME UWPP 260400Z 2605/2614 26008MPS 9999 -RA OVC015 TX09/2610Z TN07/2605Z
FM260700 27009MPS 9999 -SHRA BKN020CB
BECMG 2608/2609 BKN026CB
FM261400 26009MPS 9999 -RA BKN019
 
Саранск
METAR UWPS 260530Z 24005MPS 9000 -RA OVC006 08/08 Q1005 R20/290255 NOSIG RMK QFE736


NOWCAST.SU UWPS 260600Z 28004MPS 9999 -SHRA BKN018CB 08/06 Q1006 NOSIG
RMK ICE: MOD FL50/FL90 TURB: MOD FL40/FL50
AUTOTAF.ME UWPS 260400Z 2605/2614 27005MPS 9999 -SHRA BKN015CB TX10/2609Z TN08/2605Z
BECMG 2606/2607 BKN021CB
 
Балаково (Малая Быковка)
 


NOWCAST.SU UWSB 260600Z 27009G14MPS 9999 -RA OVC023 09/07 Q1010 NOSIG
RMK ICE: MOD FL50/FL170 FBL FL90/FL190 TURB: MOD SFC/FL20
AUTOTAF.ME UWSB 260400Z 2605/2614 27010G15MPS 9999 -SHRA OVC021CB TX11/2611Z TN09/2605Z
FM260600 27009G14MPS 9999 -RA OVC023
FM261200 27009G14MPS 9999 VCSH BKN029CB
FM261300 27009G14MPS 9999 BKN028TCU
BECMG 2613/2614 27005G11MPS
 
Саратов (Гагарин)
METAR UWSG 260530Z 27009MPS 9999 BKN024 BKN033 11/06 Q1010 R26/CLRD70 NOSIG RMK QFE754/1006


NOWCAST.SU UWSG 260600Z 27011G16MPS 9999 BKN030TCU 10/06 Q1011 NOSIG
RMK ICE: MOD FL50/FL150 FBL FL90/FL170 TURB: MOD SFC/FL40
AUTOTAF.ME UWSG 260400Z 2605/2614 27011G16MPS 9999 BKN028TCU TX13/2611Z TN10/2605Z
FM261000 28010G15MPS 9999 VCSH BKN047CB
FM261100 28010G15MPS 9999 BKN024TCU
TAF AMD UWSG 260328Z 2603/2612 26007G14MPS 9999 BKN016 TX13/2612Z TN08/2603Z
TEMPO 2603/2612 27012MPS -SHRA FEW003 BKN007 BKN020CB=
Красный Кут
 


NOWCAST.SU UWSK 260600Z 26010G16MPS 9999 BKN028TCU 11/06 Q1012 NOSIG
RMK ICE: MOD FL50/FL70 FBL FL90/FL100 TURB: MOD SFC/FL40
AUTOTAF.ME UWSK 260400Z 2605/2614 26010G16MPS 9999 BKN024 TX13/2609Z TN10/2605Z
BECMG 2613/2614 NSC
 
Пугачев
 


NOWCAST.SU UWSP 260600Z 26010G15MPS 9999 -SHRA OVC020CB 09/07 Q1009 NOSIG
RMK ICE: MOD FL50/FL120 FBL FL150/FL190 TURB: MOD SFC/FL20
AUTOTAF.ME UWSP 260400Z 2605/2614 25009MPS 9999 -SHRA OVC016CB TX11/2611Z TN09/2605Z
BECMG 2606/2607 OVC023CB
FM261100 26011G16MPS 9999 -RA BKN032
 
Саратов (Центральный)
 


NOWCAST.SU UWSS 260600Z 27012G17MPS 9999 BKN029TCU 10/06 Q1011 NOSIG
RMK ICE: SEV FL70/FL80 MOD FL50/FL90 TURB: MOD FL10/FL20 MOD SFC/FL40
AUTOTAF.ME UWSS 260400Z 2605/2614 27012G17MPS 9999 BKN026TCU TX13/2611Z TN10/2605Z  
Балашов (Репное)
 


NOWCAST.SU UWSW 260600Z 27010MPS 9999 BKN043 10/04 Q1012 NOSIG
RMK ICE: MOD FL50/FL70 TURB: MOD SFC/FL50
AUTOTAF.ME UWSW 260400Z 2605/2614 26008G13MPS 9999 BKN029 TX13/2611Z TN09/2605Z  
Караишево
 


NOWCAST.SU UWTK 260600Z 24004MPS 9999 BKN025CB 10/08 Q1005 TEMPO -SHRA
RMK ICE: MOD FL70/FL90 FBL FL170/FL180 TURB: MOD SFC/FL30
AUTOTAF.ME UWTK 260400Z 2605/2614 24003MPS 9999 BKN022CB TX12/2610Z TN10/2605Z
TEMPO 2605/2606 VCTS
BECMG 2605/2606 NSW
TEMPO 2606/2610 -TSRA
BECMG 2608/2609 18004MPS
BECMG 2609/2610
TEMPO 2610/2611 VCTS
FM261100 18003MPS 9999 -SHRA BKN035CB
FM261200 19003MPS 9999 VCSH BKN036CB
FM261300 18003MPS 9999 BKN035
 
Альметьевск (Пойма)
 


NOWCAST.SU UWTP 260600Z 20003MPS 9999 BKN016CB 10/07 Q1006 TEMPO TS
RMK ICE: MOD FL70/FL110 FBL FL120/FL130
AUTOTAF.ME UWTP 260400Z 2605/2614 20003MPS 9999 BKN014 TX12/2609Z TN09/2605Z
FM260600 20003MPS 9999 BKN016CB
TEMPO 2606/2607 TS
FM260700 22003MPS 9999 BKN023CB
TEMPO 2607/2608 -TSRA
TEMPO 2608/2609 VRB08G13MPS -TSRA
BECMG 2608/2609
TEMPO 2609/2610 VRB08G13MPS VCTS
TEMPO 2610/2614 VCTS
FM261400 VRB02MPS 3000 -SHRA BR BKN005 BKN010CB
 
Казань (Автодром)
 


NOWCAST.SU UWTX 260600Z VRB02MPS 9999 -RA BKN016 09/08 Q1005 NOSIG
RMK ICE: MOD FL50/FL170 TURB: MOD FL250/FL260
AUTOTAF.ME UWTX 260400Z 2605/2614 VRB02MPS 9999 -RA OVC013 TX12/2610Z TN09/2605Z
FM260700 VRB02MPS 9999 -SHRA BKN021CB
BECMG 2610/2611
TEMPO 2611/2613 VCTS
BECMG 2612/2613 -SHRA
 
Белорецк
 


NOWCAST.SU UWUB 260600Z 27004MPS 9999 BKN016 07/05 Q1007 NOSIG
RMK ICE: MOD FL50/FL90 FBL FL170/FL180 TURB: MOD SFC/FL50
AUTOTAF.ME UWUB 260400Z 2605/2614 27004MPS 9999 BKN013 TX09/2608Z TN07/2605Z
BECMG 2606/2607 BKN022
FM260800 28005G11MPS 9999 -SHRA BKN028CB
FM261100 28005G11MPS 9999 BKN029
BECMG 2611/2612 -RA
FM261400 27003MPS 9999 BKN020CB
 
Нефтекамск
 


NOWCAST.SU UWUF 260600Z 29003MPS 9999 BKN025TCU 10/07 Q1007 NOSIG
RMK ICE: MOD FL50/FL120 TURB: MOD FL230/FL240 MOD SFC/FL30
AUTOTAF.ME UWUF 260400Z 2605/2614 27003MPS 9999 BKN019 TX11/2608Z TN07/2614Z
BECMG 2605/2606 BKN025TCU
BECMG 2607/2608 -RA
BECMG 2609/2610 VRB02MPS
FM261200 04004MPS 9999 -RA OVC026
 
Октябрьский
 


NOWCAST.SU UWUK 260600Z 24003MPS 9999 OVC026CB 10/07 Q1007 TEMPO -SHRA
RMK ICE: MOD FL70/FL120 TURB: MOD SFC/FL40
AUTOTAF.ME UWUK 260400Z 2605/2614 23003MPS 9999 OVC018CB TX12/2608Z TN09/2605Z
TEMPO 2605/2606 TS
FM260600 24003MPS 9999 OVC026CB
TEMPO 2606/2609 -TSRA
TEMPO 2609/2610 VRB08G13MPS -TSRA
BECMG 2609/2610
TEMPO 2610/2611 VRB08G13MPS VCTS
BECMG 2610/2611 -SHRA
BECMG 2613/2614 VCSH
 
Уфа (Максимовка)
 


NOWCAST.SU UWUM 260600Z 28004MPS 9999 -RA BKN035 11/07 Q1007 NOSIG
RMK ICE: MOD FL50/FL120 FBL FL150/FL170 TURB: MOD SFC/FL40
AUTOTAF.ME UWUM 260400Z 2605/2614 28004MPS 9999 -RA BKN025 TX12/2608Z TN10/2605Z
FM261000 VRB02MPS 9999 BKN044CB
TEMPO 2610/2615 VCTS
BECMG 2613/2614 VRB02MPS
 
Первушино
 


NOWCAST.SU UWUO 260600Z 28004MPS 9999 -RA BKN034 11/07 Q1007 NOSIG
RMK ICE: MOD FL70/FL120 FBL FL150/FL170 TURB: MOD SFC/FL40
AUTOTAF.ME UWUO 260400Z 2605/2614 28004MPS 9999 -RA BKN025 TX12/2608Z TN10/2605Z
FM261000 VRB02MPS 9999 BKN043CB
TEMPO 2610/2615 VCTS
BECMG 2613/2614 VRB02MPS
 
Стерлитамак
 


NOWCAST.SU UWUS 260600Z 23004MPS 9999 OVC021CB 11/07 Q1009 TEMPO VRB08G13MPS -SHRA
RMK ICE: SEV FL70/FL90 MOD FL110/FL120 TURB: MOD SFC/FL30
AUTOTAF.ME UWUS 260400Z 2605/2614 23003MPS 9999 OVC018CB TX13/2611Z TN10/2605Z
TEMPO 2605/2609 VRB08G13MPS -TSRA
BECMG 2606/2607 BKN027CB
BECMG 2608/2609
TEMPO 2609/2613 VRB08G13MPS VCTS
TEMPO 2613/2615 VCTS
 
Уфа
METAR UWUU 260530Z 22002MPS 170V250 9999 BKN040 10/08 Q1007 R14R/1///54 NOSIG


NOWCAST.SU UWUU 260600Z 28003MPS 9999 VCSH BKN029CB 11/07 Q1008 TEMPO FM0800 VCSH
RMK ICE: MOD FL50/FL150 TURB: MOD SFC/FL30
AUTOTAF.ME UWUU 260400Z 2605/2614 27003MPS 9999 BKN024 TX13/2608Z TN10/2605Z
FM260600 28003MPS 9999 VCSH BKN029CB
BECMG 2607/2608
TEMPO 2608/2610 VCTS
TEMPO 2610/2611 TS
TEMPO 2611/2615 VCTS
TAF UWUU 260151Z 2603/2703 21003G08MPS 9999 BKN020 TX13/2612Z TN05/2702Z
TEMPO 2603/2605 6000 -SHRA FEW005 BKN016CB
BECMG 2605/2606 23005G10MPS
TEMPO 2606/2703 27007G13MPS 6000 -SHRA FEW007 BKN016CB=
Старосубхангулово (Бурзян)
 


NOWCAST.SU UWUW 260600Z 26004MPS 2000 BKN005 BKN010CB 08/07 Q1009 TEMPO TL0700 SHRA
RMK ICE: MOD FL50/FL150
AUTOTAF.ME UWUW 260400Z 2605/2614 25004MPS 9999 BKN015CB TX08/2605Z TN07/2614Z
TEMPO 2605/2606 -TSRA
FM260600 26004MPS 2000 BKN005 BKN010CB
TEMPO 2606/2607 TSRA
BECMG 2606/2607 SHRA BR
FM261000 25004MPS 9999 BKN018CB
TEMPO 2610/2612 VCTS
BECMG 2611/2612 -SHRA
FM261400 25003MPS 9999 VCSH BKN011CB
 
Бугуруслан (Главный)
 


NOWCAST.SU UWWB 260600Z 22004MPS 9999 BKN016CB 09/07 Q1008 TEMPO TL0700 VRB08G13MPS VCSH
RMK ICE: MOD FL50/FL120 TURB: MOD SFC/FL30
AUTOTAF.ME UWWB 260400Z 2605/2614 22004MPS 9999 BKN015 TX10/2608Z TN08/2605Z
FM260600 22004MPS 9999 BKN016CB
TEMPO 2606/2607 VRB08G13MPS VCTS
FM260700 22005MPS 9999 -RA OVC018
FM260800 23005MPS 9999 OVC022CB
TEMPO 2608/2613 VRB08G13MPS VCTS
FM261300 VRB02MPS 9999 -RA OVC018
 
Самара (Безымянка)
 


NOWCAST.SU UWWG 260600Z 22004MPS 9999 -RA OVC012 09/06 Q1008 NOSIG
RMK ICE: SEV FL150/FL160 MOD FL50/FL190
AUTOTAF.ME UWWG 260400Z 2605/2614 22004MPS 9999 -RA OVC011 TX10/2608Z TN09/2605Z
FM260800 22004MPS 9999 -SHRA OVC014CB
BECMG 2609/2610 BKN020CB
BECMG 2611/2612 BKN028CB
 
Красный Яр
 


NOWCAST.SU UWWQ 260600Z 23005MPS 9999 BKN025CB 10/06 Q1007 TEMPO TL0800 VRB08G13MPS VCSH
RMK ICE: MOD FL110/FL170 FBL FL50/FL90 TURB: MOD SFC/FL30
AUTOTAF.ME UWWQ 260400Z 2605/2614 22005MPS 9999 -RA BKN022 TX10/2606Z TN09/2605Z
FM260600 23005MPS 9999 BKN025CB
TEMPO 2606/2608 VRB08G13MPS VCTS
FM260800 22004MPS 9999 -RA OVC021
FM261100 23003MPS 9999 -SHRA OVC022CB
FM261300 VRB02MPS 1000 SHRA BR BKN003 BKN010CB
 
Самара (Смышляевка)
 


NOWCAST.SU UWWS 260600Z 22004MPS 9999 -RA OVC012 09/06 Q1008 NOSIG
RMK ICE: SEV FL110/FL150 MOD FL50/FL190
AUTOTAF.ME UWWS 260400Z 2605/2614 22004MPS 9999 -RA OVC011 TX10/2608Z TN09/2605Z
FM260800 22004MPS 9999 -SHRA OVC014CB
BECMG 2609/2610 BKN020CB
BECMG 2611/2612 BKN028CB
 
Самара (Кряж)
 


NOWCAST.SU UWWV 260600Z 21003MPS 9999 -SHRA OVC013CB 09/07 Q1008 NOSIG
RMK ICE: SEV FL150/FL160 MOD FL50/FL190
AUTOTAF.ME UWWV 260400Z 2605/2614 22004MPS 9999 -SHRA OVC014CB TX10/2608Z TN09/2605Z
BECMG 2608/2609 OVC019CB
BECMG 2610/2611 25009G14MPS
FM261400 25004MPS 9999 -RA BKN021
 
Самара (Курумоч)
METAR UWWW 260530Z 24004MPS 9999 -SHRA BKN020CB 09/06 Q1006 R15/120058 NOSIG RMK QFE743/0991


NOWCAST.SU UWWW 260600Z 22003MPS 9999 -RA OVC015 09/06 Q1007 NOSIG
RMK ICE: MOD FL150/FL170 FBL FL50/FL120 TURB: MOD SFC/FL30
AUTOTAF.ME UWWW 260400Z 2605/2614 22003MPS 9999 -RA OVC013 TX10/2609Z TN09/2605Z
BECMG 2607/2608 OVC020
FM261000 24003MPS 9999 -SHRA OVC025CB
TAF UWWW 260153Z 2603/2703 22003G09MPS 6000 -RA BKN016 TX11/2611Z TN08/2703Z
TEMPO 2603/2606 0300 RA FG VV002
TEMPO 2606/2620 26006G12MPS 2000 SHRA BR BKN004 BKN011CB=
Бугуруслан (Северный)
 


NOWCAST.SU UWWZ 260600Z 22004MPS 9999 BKN015 08/07 Q1008 TEMPO FM0800 VRB08G13MPS VCSH
RMK ICE: SEV FL50/FL90 MOD FL110/FL120 TURB: MOD SFC/FL30
AUTOTAF.ME UWWZ 260400Z 2605/2614 22004MPS 9999 BKN014 TX10/2608Z TN08/2605Z
BECMG 2606/2607 -RA
FM260800 23005MPS 9999 OVC022CB
TEMPO 2608/2613 VRB08G13MPS VCTS
FM261300 VRB02MPS 9999 -RA OVC017